<?xml version="1.0" encoding="UTF-8" standalone="no" ?>
<gpx xmlns="http://www.topografix.com/GPX/1/1" xmlns:xsi="http://www.w3.org/2001/XMLSchema-instance" xsi:schemaLocation="http://www.topografix.com/GPX/1/1 http://www.topografix.com/GPX/1/1/gpx.xsd" version="1.1" creator="VisuGPX - https://www.visugpx.com">
  <metadata>
    <name>En dextre avec Dipti (24.08.2014)</name>
    <desc><![CDATA[Des chemins pas trop mal, et ça change du tour habituel autour des Étangs du Roi]]></desc>
  </metadata>
  <trk>
    <name><![CDATA[Untitled]]></name>
    <trkseg>
      <trkpt lat="48.70702" lon="1.75489">
        <ele>172.60000610352</ele>
        <time>2014-08-24T09:42:51.000Z</time>
      </trkpt>
      <trkpt lat="48.70701" lon="1.7549">
        <ele>172.60000610352</ele>
        <time>2014-08-24T09:42:52.000Z</time>
      </trkpt>
      <trkpt lat="48.70698" lon="1.75498">
        <ele>172.80000305176</ele>
        <time>2014-08-24T09:42:58.000Z</time>
      </trkpt>
      <trkpt lat="48.70692" lon="1.75516">
        <ele>173.39999389648</ele>
        <time>2014-08-24T09:43:09.000Z</time>
      </trkpt>
      <trkpt lat="48.70685" lon="1.7553">
        <ele>174</ele>
        <time>2014-08-24T09:43:17.000Z</time>
      </trkpt>
      <trkpt lat="48.70685" lon="1.75532">
        <ele>174</ele>
        <time>2014-08-24T09:43:19.000Z</time>
      </trkpt>
      <trkpt lat="48.70682" lon="1.75544">
        <ele>174.39999389648</ele>
        <time>2014-08-24T09:43:27.000Z</time>
      </trkpt>
      <trkpt lat="48.70677" lon="1.75556">
        <ele>174.80000305176</ele>
        <time>2014-08-24T09:43:35.000Z</time>
      </trkpt>
      <trkpt lat="48.70672" lon="1.75565">
        <ele>175.80000305176</ele>
        <time>2014-08-24T09:43:42.000Z</time>
      </trkpt>
      <trkpt lat="48.70666" lon="1.75575">
        <ele>177</ele>
        <time>2014-08-24T09:43:51.000Z</time>
      </trkpt>
      <trkpt lat="48.7066" lon="1.75585">
        <ele>177.60000610352</ele>
        <time>2014-08-24T09:43:58.000Z</time>
      </trkpt>
      <trkpt lat="48.70654" lon="1.75595">
        <ele>178.19999694824</ele>
        <time>2014-08-24T09:44:06.000Z</time>
      </trkpt>
      <trkpt lat="48.70651" lon="1.75603">
        <ele>178.39999389648</ele>
        <time>2014-08-24T09:44:12.000Z</time>
      </trkpt>
      <trkpt lat="48.70647" lon="1.75615">
        <ele>178.80000305176</ele>
        <time>2014-08-24T09:44:20.000Z</time>
      </trkpt>
      <trkpt lat="48.70643" lon="1.75623">
        <ele>179.39999389648</ele>
        <time>2014-08-24T09:44:26.000Z</time>
      </trkpt>
      <trkpt lat="48.70639" lon="1.75635">
        <ele>180.39999389648</ele>
        <time>2014-08-24T09:44:33.000Z</time>
      </trkpt>
      <trkpt lat="48.70639" lon="1.75635">
        <ele>180.19999694824</ele>
        <time>2014-08-24T09:44:35.000Z</time>
      </trkpt>
      <trkpt lat="48.70626" lon="1.75646">
        <ele>182</ele>
        <time>2014-08-24T09:45:17.000Z</time>
      </trkpt>
      <trkpt lat="48.70618" lon="1.75642">
        <ele>183</ele>
        <time>2014-08-24T09:45:23.000Z</time>
      </trkpt>
      <trkpt lat="48.7061" lon="1.75638">
        <ele>183.80000305176</ele>
        <time>2014-08-24T09:45:27.000Z</time>
      </trkpt>
      <trkpt lat="48.70604" lon="1.75632">
        <ele>184.39999389648</ele>
        <time>2014-08-24T09:45:32.000Z</time>
      </trkpt>
      <trkpt lat="48.70601" lon="1.7563">
        <ele>184.39999389648</ele>
        <time>2014-08-24T09:45:34.000Z</time>
      </trkpt>
      <trkpt lat="48.70595" lon="1.75622">
        <ele>184.39999389648</ele>
        <time>2014-08-24T09:45:39.000Z</time>
      </trkpt>
      <trkpt lat="48.70588" lon="1.75619">
        <ele>184.60000610352</ele>
        <time>2014-08-24T09:45:45.000Z</time>
      </trkpt>
      <trkpt lat="48.70588" lon="1.75615">
        <ele>184.39999389648</ele>
        <time>2014-08-24T09:45:48.000Z</time>
      </trkpt>
      <trkpt lat="48.70588" lon="1.75607">
        <ele>184.19999694824</ele>
        <time>2014-08-24T09:45:54.000Z</time>
      </trkpt>
      <trkpt lat="48.70588" lon="1.75606">
        <ele>184.19999694824</ele>
        <time>2014-08-24T09:45:55.000Z</time>
      </trkpt>
      <trkpt lat="48.70587" lon="1.75601">
        <ele>184.19999694824</ele>
        <time>2014-08-24T09:46:01.000Z</time>
      </trkpt>
      <trkpt lat="48.70585" lon="1.75591">
        <ele>184</ele>
        <time>2014-08-24T09:46:12.000Z</time>
      </trkpt>
      <trkpt lat="48.7058" lon="1.75587">
        <ele>184</ele>
        <time>2014-08-24T09:46:18.000Z</time>
      </trkpt>
      <trkpt lat="48.70576" lon="1.75582">
        <ele>184</ele>
        <time>2014-08-24T09:46:22.000Z</time>
      </trkpt>
      <trkpt lat="48.70574" lon="1.75578">
        <ele>183.80000305176</ele>
        <time>2014-08-24T09:46:27.000Z</time>
      </trkpt>
      <trkpt lat="48.70574" lon="1.75573">
        <ele>183.80000305176</ele>
        <time>2014-08-24T09:46:36.000Z</time>
      </trkpt>
      <trkpt lat="48.70573" lon="1.75572">
        <ele>183.80000305176</ele>
        <time>2014-08-24T09:46:39.000Z</time>
      </trkpt>
      <trkpt lat="48.70568" lon="1.75576">
        <ele>184</ele>
        <time>2014-08-24T09:47:18.000Z</time>
      </trkpt>
      <trkpt lat="48.70567" lon="1.75576">
        <ele>184</ele>
        <time>2014-08-24T09:47:20.000Z</time>
      </trkpt>
      <trkpt lat="48.7056" lon="1.75568">
        <ele>184</ele>
        <time>2014-08-24T09:47:56.000Z</time>
      </trkpt>
      <trkpt lat="48.70549" lon="1.75567">
        <ele>184.19999694824</ele>
        <time>2014-08-24T09:48:02.000Z</time>
      </trkpt>
      <trkpt lat="48.70544" lon="1.75567">
        <ele>184.19999694824</ele>
        <time>2014-08-24T09:48:06.000Z</time>
      </trkpt>
      <trkpt lat="48.70541" lon="1.75562">
        <ele>184</ele>
        <time>2014-08-24T09:48:11.000Z</time>
      </trkpt>
      <trkpt lat="48.70538" lon="1.75556">
        <ele>183.80000305176</ele>
        <time>2014-08-24T09:48:18.000Z</time>
      </trkpt>
      <trkpt lat="48.70533" lon="1.75553">
        <ele>183.80000305176</ele>
        <time>2014-08-24T09:48:24.000Z</time>
      </trkpt>
      <trkpt lat="48.70527" lon="1.7554">
        <ele>183.39999389648</ele>
        <time>2014-08-24T09:48:33.000Z</time>
      </trkpt>
      <trkpt lat="48.70518" lon="1.75535">
        <ele>183.39999389648</ele>
        <time>2014-08-24T09:48:39.000Z</time>
      </trkpt>
      <trkpt lat="48.70511" lon="1.75531">
        <ele>183.39999389648</ele>
        <time>2014-08-24T09:48:44.000Z</time>
      </trkpt>
      <trkpt lat="48.70505" lon="1.75528">
        <ele>183.39999389648</ele>
        <time>2014-08-24T09:48:48.000Z</time>
      </trkpt>
      <trkpt lat="48.70503" lon="1.75527">
        <ele>183.39999389648</ele>
        <time>2014-08-24T09:48:49.000Z</time>
      </trkpt>
      <trkpt lat="48.70499" lon="1.75519">
        <ele>183.19999694824</ele>
        <time>2014-08-24T09:48:55.000Z</time>
      </trkpt>
      <trkpt lat="48.7049" lon="1.75517">
        <ele>183.39999389648</ele>
        <time>2014-08-24T09:49:00.000Z</time>
      </trkpt>
      <trkpt lat="48.70483" lon="1.75515">
        <ele>183.60000610352</ele>
        <time>2014-08-24T09:49:05.000Z</time>
      </trkpt>
      <trkpt lat="48.70477" lon="1.7551">
        <ele>183.60000610352</ele>
        <time>2014-08-24T09:49:11.000Z</time>
      </trkpt>
      <trkpt lat="48.70475" lon="1.7551">
        <ele>183.80000305176</ele>
        <time>2014-08-24T09:49:12.000Z</time>
      </trkpt>
      <trkpt lat="48.70474" lon="1.75504">
        <ele>183.39999389648</ele>
        <time>2014-08-24T09:49:17.000Z</time>
      </trkpt>
      <trkpt lat="48.70479" lon="1.75494">
        <ele>182.80000305176</ele>
        <time>2014-08-24T09:49:23.000Z</time>
      </trkpt>
      <trkpt lat="48.70474" lon="1.75485">
        <ele>182.60000610352</ele>
        <time>2014-08-24T09:49:29.000Z</time>
      </trkpt>
      <trkpt lat="48.70473" lon="1.75475">
        <ele>182.39999389648</ele>
        <time>2014-08-24T09:49:35.000Z</time>
      </trkpt>
      <trkpt lat="48.70468" lon="1.7547">
        <ele>182.39999389648</ele>
        <time>2014-08-24T09:49:40.000Z</time>
      </trkpt>
      <trkpt lat="48.70471" lon="1.75466">
        <ele>182.19999694824</ele>
        <time>2014-08-24T09:49:46.000Z</time>
      </trkpt>
      <trkpt lat="48.70474" lon="1.75462">
        <ele>182</ele>
        <time>2014-08-24T09:49:55.000Z</time>
      </trkpt>
      <trkpt lat="48.70468" lon="1.75463">
        <ele>182.19999694824</ele>
        <time>2014-08-24T09:49:59.000Z</time>
      </trkpt>
      <trkpt lat="48.70465" lon="1.75462">
        <ele>182.39999389648</ele>
        <time>2014-08-24T09:50:02.000Z</time>
      </trkpt>
      <trkpt lat="48.70458" lon="1.75456">
        <ele>182.39999389648</ele>
        <time>2014-08-24T09:50:07.000Z</time>
      </trkpt>
      <trkpt lat="48.70454" lon="1.7545">
        <ele>182.39999389648</ele>
        <time>2014-08-24T09:50:11.000Z</time>
      </trkpt>
      <trkpt lat="48.70447" lon="1.75442">
        <ele>182.60000610352</ele>
        <time>2014-08-24T09:50:24.000Z</time>
      </trkpt>
      <trkpt lat="48.70442" lon="1.75438">
        <ele>182.60000610352</ele>
        <time>2014-08-24T09:50:30.000Z</time>
      </trkpt>
      <trkpt lat="48.70438" lon="1.75434">
        <ele>182.60000610352</ele>
        <time>2014-08-24T09:50:35.000Z</time>
      </trkpt>
      <trkpt lat="48.70434" lon="1.75431">
        <ele>182.60000610352</ele>
        <time>2014-08-24T09:50:39.000Z</time>
      </trkpt>
      <trkpt lat="48.7043" lon="1.75428">
        <ele>182.39999389648</ele>
        <time>2014-08-24T09:50:44.000Z</time>
      </trkpt>
      <trkpt lat="48.70426" lon="1.75427">
        <ele>182.39999389648</ele>
        <time>2014-08-24T09:50:48.000Z</time>
      </trkpt>
      <trkpt lat="48.70419" lon="1.75423">
        <ele>182.19999694824</ele>
        <time>2014-08-24T09:50:55.000Z</time>
      </trkpt>
      <trkpt lat="48.70415" lon="1.75419">
        <ele>182</ele>
        <time>2014-08-24T09:51:00.000Z</time>
      </trkpt>
      <trkpt lat="48.7041" lon="1.75416">
        <ele>182</ele>
        <time>2014-08-24T09:51:05.000Z</time>
      </trkpt>
      <trkpt lat="48.70407" lon="1.75414">
        <ele>181.80000305176</ele>
        <time>2014-08-24T09:51:09.000Z</time>
      </trkpt>
      <trkpt lat="48.704" lon="1.75406">
        <ele>181.60000610352</ele>
        <time>2014-08-24T09:51:16.000Z</time>
      </trkpt>
      <trkpt lat="48.70399" lon="1.75404">
        <ele>181.60000610352</ele>
        <time>2014-08-24T09:51:18.000Z</time>
      </trkpt>
      <trkpt lat="48.70397" lon="1.75404">
        <ele>181.60000610352</ele>
        <time>2014-08-24T09:51:21.000Z</time>
      </trkpt>
      <trkpt lat="48.7039" lon="1.75406">
        <ele>181.39999389648</ele>
        <time>2014-08-24T09:51:29.000Z</time>
      </trkpt>
      <trkpt lat="48.70387" lon="1.75406">
        <ele>181.39999389648</ele>
        <time>2014-08-24T09:51:33.000Z</time>
      </trkpt>
      <trkpt lat="48.70385" lon="1.75403">
        <ele>181.39999389648</ele>
        <time>2014-08-24T09:51:39.000Z</time>
      </trkpt>
      <trkpt lat="48.7038" lon="1.75401">
        <ele>181.39999389648</ele>
        <time>2014-08-24T09:51:44.000Z</time>
      </trkpt>
      <trkpt lat="48.7038" lon="1.75399">
        <ele>181.39999389648</ele>
        <time>2014-08-24T09:51:45.000Z</time>
      </trkpt>
      <trkpt lat="48.70372" lon="1.75394">
        <ele>181.19999694824</ele>
        <time>2014-08-24T09:51:50.000Z</time>
      </trkpt>
      <trkpt lat="48.70371" lon="1.75393">
        <ele>181.19999694824</ele>
        <time>2014-08-24T09:51:51.000Z</time>
      </trkpt>
      <trkpt lat="48.70363" lon="1.75385">
        <ele>181.19999694824</ele>
        <time>2014-08-24T09:51:58.000Z</time>
      </trkpt>
      <trkpt lat="48.70354" lon="1.75376">
        <ele>181</ele>
        <time>2014-08-24T09:52:06.000Z</time>
      </trkpt>
      <trkpt lat="48.70348" lon="1.7537">
        <ele>180.80000305176</ele>
        <time>2014-08-24T09:52:14.000Z</time>
      </trkpt>
      <trkpt lat="48.7034" lon="1.75364">
        <ele>180.60000610352</ele>
        <time>2014-08-24T09:52:21.000Z</time>
      </trkpt>
      <trkpt lat="48.70328" lon="1.75361">
        <ele>180.39999389648</ele>
        <time>2014-08-24T09:52:30.000Z</time>
      </trkpt>
      <trkpt lat="48.70325" lon="1.75355">
        <ele>180.39999389648</ele>
        <time>2014-08-24T09:52:35.000Z</time>
      </trkpt>
      <trkpt lat="48.70324" lon="1.75353">
        <ele>180.39999389648</ele>
        <time>2014-08-24T09:52:36.000Z</time>
      </trkpt>
      <trkpt lat="48.70319" lon="1.75348">
        <ele>180.19999694824</ele>
        <time>2014-08-24T09:52:41.000Z</time>
      </trkpt>
      <trkpt lat="48.70315" lon="1.75344">
        <ele>180</ele>
        <time>2014-08-24T09:52:45.000Z</time>
      </trkpt>
      <trkpt lat="48.70308" lon="1.75338">
        <ele>180</ele>
        <time>2014-08-24T09:52:50.000Z</time>
      </trkpt>
      <trkpt lat="48.70308" lon="1.75329">
        <ele>180</ele>
        <time>2014-08-24T09:52:55.000Z</time>
      </trkpt>
      <trkpt lat="48.70306" lon="1.75326">
        <ele>179.80000305176</ele>
        <time>2014-08-24T09:53:04.000Z</time>
      </trkpt>
      <trkpt lat="48.70313" lon="1.75331">
        <ele>180</ele>
        <time>2014-08-24T09:53:13.000Z</time>
      </trkpt>
      <trkpt lat="48.70304" lon="1.75332">
        <ele>179.80000305176</ele>
        <time>2014-08-24T09:53:23.000Z</time>
      </trkpt>
      <trkpt lat="48.70305" lon="1.75323">
        <ele>179.80000305176</ele>
        <time>2014-08-24T09:53:29.000Z</time>
      </trkpt>
      <trkpt lat="48.70305" lon="1.75323">
        <ele>179.80000305176</ele>
        <time>2014-08-24T09:53:34.000Z</time>
      </trkpt>
      <trkpt lat="48.70309" lon="1.75325">
        <ele>180</ele>
        <time>2014-08-24T09:53:40.000Z</time>
      </trkpt>
      <trkpt lat="48.70309" lon="1.75324">
        <ele>180</ele>
        <time>2014-08-24T09:53:42.000Z</time>
      </trkpt>
      <trkpt lat="48.70307" lon="1.7531">
        <ele>180</ele>
        <time>2014-08-24T09:54:33.000Z</time>
      </trkpt>
      <trkpt lat="48.70304" lon="1.75305">
        <ele>180</ele>
        <time>2014-08-24T09:54:36.000Z</time>
      </trkpt>
      <trkpt lat="48.70298" lon="1.753">
        <ele>180</ele>
        <time>2014-08-24T09:54:42.000Z</time>
      </trkpt>
      <trkpt lat="48.70296" lon="1.75298">
        <ele>179.80000305176</ele>
        <time>2014-08-24T09:54:45.000Z</time>
      </trkpt>
      <trkpt lat="48.70288" lon="1.7529">
        <ele>179.80000305176</ele>
        <time>2014-08-24T09:54:51.000Z</time>
      </trkpt>
      <trkpt lat="48.70281" lon="1.75288">
        <ele>179.60000610352</ele>
        <time>2014-08-24T09:54:57.000Z</time>
      </trkpt>
      <trkpt lat="48.70275" lon="1.75283">
        <ele>179.60000610352</ele>
        <time>2014-08-24T09:55:03.000Z</time>
      </trkpt>
      <trkpt lat="48.70269" lon="1.75277">
        <ele>179.39999389648</ele>
        <time>2014-08-24T09:55:09.000Z</time>
      </trkpt>
      <trkpt lat="48.70266" lon="1.75271">
        <ele>179.39999389648</ele>
        <time>2014-08-24T09:55:13.000Z</time>
      </trkpt>
      <trkpt lat="48.70258" lon="1.7526">
        <ele>179.19999694824</ele>
        <time>2014-08-24T09:55:20.000Z</time>
      </trkpt>
      <trkpt lat="48.70254" lon="1.75258">
        <ele>179</ele>
        <time>2014-08-24T09:55:26.000Z</time>
      </trkpt>
      <trkpt lat="48.70249" lon="1.75253">
        <ele>178.80000305176</ele>
        <time>2014-08-24T09:55:31.000Z</time>
      </trkpt>
      <trkpt lat="48.70243" lon="1.7525">
        <ele>178.60000610352</ele>
        <time>2014-08-24T09:55:35.000Z</time>
      </trkpt>
      <trkpt lat="48.70234" lon="1.75247">
        <ele>178.19999694824</ele>
        <time>2014-08-24T09:55:41.000Z</time>
      </trkpt>
      <trkpt lat="48.70225" lon="1.75241">
        <ele>177.80000305176</ele>
        <time>2014-08-24T09:55:49.000Z</time>
      </trkpt>
      <trkpt lat="48.70215" lon="1.75238">
        <ele>177.39999389648</ele>
        <time>2014-08-24T09:55:56.000Z</time>
      </trkpt>
      <trkpt lat="48.70212" lon="1.75239">
        <ele>177.19999694824</ele>
        <time>2014-08-24T09:55:59.000Z</time>
      </trkpt>
      <trkpt lat="48.70206" lon="1.75241">
        <ele>176.80000305176</ele>
        <time>2014-08-24T09:56:05.000Z</time>
      </trkpt>
      <trkpt lat="48.70197" lon="1.75246">
        <ele>176.39999389648</ele>
        <time>2014-08-24T09:56:12.000Z</time>
      </trkpt>
      <trkpt lat="48.7019" lon="1.75249">
        <ele>176.19999694824</ele>
        <time>2014-08-24T09:56:17.000Z</time>
      </trkpt>
      <trkpt lat="48.70186" lon="1.75251">
        <ele>176</ele>
        <time>2014-08-24T09:56:22.000Z</time>
      </trkpt>
      <trkpt lat="48.70181" lon="1.75252">
        <ele>176</ele>
        <time>2014-08-24T09:56:27.000Z</time>
      </trkpt>
      <trkpt lat="48.70175" lon="1.75256">
        <ele>175.80000305176</ele>
        <time>2014-08-24T09:56:33.000Z</time>
      </trkpt>
      <trkpt lat="48.70167" lon="1.75261">
        <ele>175.80000305176</ele>
        <time>2014-08-24T09:56:40.000Z</time>
      </trkpt>
      <trkpt lat="48.70163" lon="1.75264">
        <ele>175.80000305176</ele>
        <time>2014-08-24T09:56:46.000Z</time>
      </trkpt>
      <trkpt lat="48.70155" lon="1.75266">
        <ele>175.60000610352</ele>
        <time>2014-08-24T09:56:52.000Z</time>
      </trkpt>
      <trkpt lat="48.7015" lon="1.7527">
        <ele>175.60000610352</ele>
        <time>2014-08-24T09:56:56.000Z</time>
      </trkpt>
      <trkpt lat="48.70143" lon="1.75273">
        <ele>175.39999389648</ele>
        <time>2014-08-24T09:57:00.000Z</time>
      </trkpt>
      <trkpt lat="48.70137" lon="1.75274">
        <ele>175.39999389648</ele>
        <time>2014-08-24T09:57:05.000Z</time>
      </trkpt>
      <trkpt lat="48.70128" lon="1.75281">
        <ele>174.80000305176</ele>
        <time>2014-08-24T09:57:10.000Z</time>
      </trkpt>
      <trkpt lat="48.70118" lon="1.75284">
        <ele>174.39999389648</ele>
        <time>2014-08-24T09:57:16.000Z</time>
      </trkpt>
      <trkpt lat="48.7011" lon="1.75288">
        <ele>174</ele>
        <time>2014-08-24T09:57:19.000Z</time>
      </trkpt>
      <trkpt lat="48.70103" lon="1.75291">
        <ele>173.80000305176</ele>
        <time>2014-08-24T09:57:25.000Z</time>
      </trkpt>
      <trkpt lat="48.701" lon="1.75291">
        <ele>173.60000610352</ele>
        <time>2014-08-24T09:57:31.000Z</time>
      </trkpt>
      <trkpt lat="48.70086" lon="1.753">
        <ele>173.19999694824</ele>
        <time>2014-08-24T09:57:42.000Z</time>
      </trkpt>
      <trkpt lat="48.70079" lon="1.75303">
        <ele>173.19999694824</ele>
        <time>2014-08-24T09:57:47.000Z</time>
      </trkpt>
      <trkpt lat="48.70071" lon="1.75306">
        <ele>173</ele>
        <time>2014-08-24T09:57:51.000Z</time>
      </trkpt>
      <trkpt lat="48.70058" lon="1.75313">
        <ele>172.60000610352</ele>
        <time>2014-08-24T09:57:58.000Z</time>
      </trkpt>
      <trkpt lat="48.70055" lon="1.75316">
        <ele>172.60000610352</ele>
        <time>2014-08-24T09:58:00.000Z</time>
      </trkpt>
      <trkpt lat="48.70061" lon="1.75315">
        <ele>172.60000610352</ele>
        <time>2014-08-24T09:58:08.000Z</time>
      </trkpt>
      <trkpt lat="48.70055" lon="1.75315">
        <ele>172.60000610352</ele>
        <time>2014-08-24T09:58:19.000Z</time>
      </trkpt>
      <trkpt lat="48.70047" lon="1.75319">
        <ele>172.39999389648</ele>
        <time>2014-08-24T09:58:24.000Z</time>
      </trkpt>
      <trkpt lat="48.70043" lon="1.75321">
        <ele>172.19999694824</ele>
        <time>2014-08-24T09:58:29.000Z</time>
      </trkpt>
      <trkpt lat="48.70041" lon="1.75322">
        <ele>172.19999694824</ele>
        <time>2014-08-24T09:58:32.000Z</time>
      </trkpt>
      <trkpt lat="48.70037" lon="1.75324">
        <ele>172</ele>
        <time>2014-08-24T09:58:33.000Z</time>
      </trkpt>
      <trkpt lat="48.70034" lon="1.75325">
        <ele>171.80000305176</ele>
        <time>2014-08-24T09:58:34.000Z</time>
      </trkpt>
      <trkpt lat="48.70031" lon="1.75332">
        <ele>171.39999389648</ele>
        <time>2014-08-24T09:58:40.000Z</time>
      </trkpt>
      <trkpt lat="48.70027" lon="1.75334">
        <ele>171.19999694824</ele>
        <time>2014-08-24T09:58:45.000Z</time>
      </trkpt>
      <trkpt lat="48.70021" lon="1.75337">
        <ele>171.19999694824</ele>
        <time>2014-08-24T09:58:49.000Z</time>
      </trkpt>
      <trkpt lat="48.70011" lon="1.75342">
        <ele>171</ele>
        <time>2014-08-24T09:58:53.000Z</time>
      </trkpt>
      <trkpt lat="48.70004" lon="1.75346">
        <ele>171</ele>
        <time>2014-08-24T09:58:58.000Z</time>
      </trkpt>
      <trkpt lat="48.70003" lon="1.75348">
        <ele>171</ele>
        <time>2014-08-24T09:59:02.000Z</time>
      </trkpt>
      <trkpt lat="48.70004" lon="1.75347">
        <ele>171</ele>
        <time>2014-08-24T09:59:07.000Z</time>
      </trkpt>
      <trkpt lat="48.70003" lon="1.75348">
        <ele>170.80000305176</ele>
        <time>2014-08-24T09:59:10.000Z</time>
      </trkpt>
      <trkpt lat="48.70003" lon="1.75348">
        <ele>170.80000305176</ele>
        <time>2014-08-24T09:59:11.000Z</time>
      </trkpt>
      <trkpt lat="48.69995" lon="1.75351">
        <ele>170.80000305176</ele>
        <time>2014-08-24T09:59:14.000Z</time>
      </trkpt>
      <trkpt lat="48.69989" lon="1.75352">
        <ele>170.80000305176</ele>
        <time>2014-08-24T09:59:19.000Z</time>
      </trkpt>
      <trkpt lat="48.69983" lon="1.75355">
        <ele>170.80000305176</ele>
        <time>2014-08-24T09:59:23.000Z</time>
      </trkpt>
      <trkpt lat="48.69961" lon="1.75362">
        <ele>171.39999389648</ele>
        <time>2014-08-24T09:59:30.000Z</time>
      </trkpt>
      <trkpt lat="48.6996" lon="1.75362">
        <ele>171.39999389648</ele>
        <time>2014-08-24T09:59:35.000Z</time>
      </trkpt>
      <trkpt lat="48.69955" lon="1.75364">
        <ele>171.60000610352</ele>
        <time>2014-08-24T09:59:39.000Z</time>
      </trkpt>
      <trkpt lat="48.69953" lon="1.75366">
        <ele>171.60000610352</ele>
        <time>2014-08-24T09:59:43.000Z</time>
      </trkpt>
      <trkpt lat="48.69945" lon="1.75375">
        <ele>172</ele>
        <time>2014-08-24T09:59:48.000Z</time>
      </trkpt>
      <trkpt lat="48.69933" lon="1.75379">
        <ele>172.19999694824</ele>
        <time>2014-08-24T09:59:57.000Z</time>
      </trkpt>
      <trkpt lat="48.69933" lon="1.75379">
        <ele>172.19999694824</ele>
        <time>2014-08-24T10:00:02.000Z</time>
      </trkpt>
      <trkpt lat="48.6993" lon="1.75379">
        <ele>172.19999694824</ele>
        <time>2014-08-24T10:00:05.000Z</time>
      </trkpt>
      <trkpt lat="48.69923" lon="1.75381">
        <ele>172.19999694824</ele>
        <time>2014-08-24T10:00:12.000Z</time>
      </trkpt>
      <trkpt lat="48.69921" lon="1.75383">
        <ele>172</ele>
        <time>2014-08-24T10:00:17.000Z</time>
      </trkpt>
      <trkpt lat="48.69919" lon="1.75385">
        <ele>172</ele>
        <time>2014-08-24T10:00:22.000Z</time>
      </trkpt>
      <trkpt lat="48.69912" lon="1.75385">
        <ele>171.80000305176</ele>
        <time>2014-08-24T10:00:27.000Z</time>
      </trkpt>
      <trkpt lat="48.69903" lon="1.7539">
        <ele>171.60000610352</ele>
        <time>2014-08-24T10:00:32.000Z</time>
      </trkpt>
      <trkpt lat="48.69895" lon="1.75391">
        <ele>171.39999389648</ele>
        <time>2014-08-24T10:00:39.000Z</time>
      </trkpt>
      <trkpt lat="48.69891" lon="1.75394">
        <ele>171.19999694824</ele>
        <time>2014-08-24T10:00:42.000Z</time>
      </trkpt>
      <trkpt lat="48.69887" lon="1.75396">
        <ele>171</ele>
        <time>2014-08-24T10:00:46.000Z</time>
      </trkpt>
      <trkpt lat="48.6988" lon="1.75398">
        <ele>170.80000305176</ele>
        <time>2014-08-24T10:00:53.000Z</time>
      </trkpt>
      <trkpt lat="48.69875" lon="1.75402">
        <ele>170.60000610352</ele>
        <time>2014-08-24T10:00:57.000Z</time>
      </trkpt>
      <trkpt lat="48.69866" lon="1.75408">
        <ele>170.19999694824</ele>
        <time>2014-08-24T10:01:03.000Z</time>
      </trkpt>
      <trkpt lat="48.69859" lon="1.75411">
        <ele>170</ele>
        <time>2014-08-24T10:01:09.000Z</time>
      </trkpt>
      <trkpt lat="48.69856" lon="1.75412">
        <ele>169.80000305176</ele>
        <time>2014-08-24T10:01:15.000Z</time>
      </trkpt>
      <trkpt lat="48.69851" lon="1.75415">
        <ele>169.60000610352</ele>
        <time>2014-08-24T10:01:21.000Z</time>
      </trkpt>
      <trkpt lat="48.69845" lon="1.75417">
        <ele>169.19999694824</ele>
        <time>2014-08-24T10:01:25.000Z</time>
      </trkpt>
      <trkpt lat="48.6984" lon="1.75418">
        <ele>169</ele>
        <time>2014-08-24T10:01:29.000Z</time>
      </trkpt>
      <trkpt lat="48.69837" lon="1.75419">
        <ele>168.80000305176</ele>
        <time>2014-08-24T10:01:31.000Z</time>
      </trkpt>
      <trkpt lat="48.69832" lon="1.75422">
        <ele>168.60000610352</ele>
        <time>2014-08-24T10:01:36.000Z</time>
      </trkpt>
      <trkpt lat="48.69827" lon="1.75424">
        <ele>168.39999389648</ele>
        <time>2014-08-24T10:01:41.000Z</time>
      </trkpt>
      <trkpt lat="48.6982" lon="1.75425">
        <ele>168</ele>
        <time>2014-08-24T10:01:47.000Z</time>
      </trkpt>
      <trkpt lat="48.69811" lon="1.75427">
        <ele>167.60000610352</ele>
        <time>2014-08-24T10:01:52.000Z</time>
      </trkpt>
      <trkpt lat="48.69808" lon="1.75433">
        <ele>167.39999389648</ele>
        <time>2014-08-24T10:01:56.000Z</time>
      </trkpt>
      <trkpt lat="48.69803" lon="1.75436">
        <ele>167</ele>
        <time>2014-08-24T10:02:01.000Z</time>
      </trkpt>
      <trkpt lat="48.69799" lon="1.75439">
        <ele>166.80000305176</ele>
        <time>2014-08-24T10:02:06.000Z</time>
      </trkpt>
      <trkpt lat="48.69792" lon="1.75444">
        <ele>166.19999694824</ele>
        <time>2014-08-24T10:02:12.000Z</time>
      </trkpt>
      <trkpt lat="48.69787" lon="1.75447">
        <ele>165.80000305176</ele>
        <time>2014-08-24T10:02:17.000Z</time>
      </trkpt>
      <trkpt lat="48.69776" lon="1.75451">
        <ele>165</ele>
        <time>2014-08-24T10:02:25.000Z</time>
      </trkpt>
      <trkpt lat="48.69768" lon="1.75453">
        <ele>164.60000610352</ele>
        <time>2014-08-24T10:02:31.000Z</time>
      </trkpt>
      <trkpt lat="48.6976" lon="1.75456">
        <ele>164</ele>
        <time>2014-08-24T10:02:37.000Z</time>
      </trkpt>
      <trkpt lat="48.69757" lon="1.75458">
        <ele>163.80000305176</ele>
        <time>2014-08-24T10:02:42.000Z</time>
      </trkpt>
      <trkpt lat="48.69755" lon="1.75459">
        <ele>163.60000610352</ele>
        <time>2014-08-24T10:02:44.000Z</time>
      </trkpt>
      <trkpt lat="48.69745" lon="1.75464">
        <ele>163</ele>
        <time>2014-08-24T10:02:52.000Z</time>
      </trkpt>
      <trkpt lat="48.69737" lon="1.75467">
        <ele>162.39999389648</ele>
        <time>2014-08-24T10:02:58.000Z</time>
      </trkpt>
      <trkpt lat="48.69726" lon="1.7547">
        <ele>161.80000305176</ele>
        <time>2014-08-24T10:03:06.000Z</time>
      </trkpt>
      <trkpt lat="48.69719" lon="1.75475">
        <ele>161.19999694824</ele>
        <time>2014-08-24T10:03:12.000Z</time>
      </trkpt>
      <trkpt lat="48.69715" lon="1.75477">
        <ele>160.80000305176</ele>
        <time>2014-08-24T10:03:16.000Z</time>
      </trkpt>
      <trkpt lat="48.69707" lon="1.7548">
        <ele>160.39999389648</ele>
        <time>2014-08-24T10:03:23.000Z</time>
      </trkpt>
      <trkpt lat="48.69698" lon="1.75484">
        <ele>159.80000305176</ele>
        <time>2014-08-24T10:03:32.000Z</time>
      </trkpt>
      <trkpt lat="48.69688" lon="1.75489">
        <ele>159</ele>
        <time>2014-08-24T10:03:41.000Z</time>
      </trkpt>
      <trkpt lat="48.69677" lon="1.75494">
        <ele>158.60000610352</ele>
        <time>2014-08-24T10:03:50.000Z</time>
      </trkpt>
      <trkpt lat="48.69667" lon="1.75498">
        <ele>158</ele>
        <time>2014-08-24T10:03:59.000Z</time>
      </trkpt>
      <trkpt lat="48.6966" lon="1.755">
        <ele>157.80000305176</ele>
        <time>2014-08-24T10:04:05.000Z</time>
      </trkpt>
      <trkpt lat="48.69651" lon="1.75507">
        <ele>157.19999694824</ele>
        <time>2014-08-24T10:04:13.000Z</time>
      </trkpt>
      <trkpt lat="48.69647" lon="1.75509">
        <ele>157</ele>
        <time>2014-08-24T10:04:17.000Z</time>
      </trkpt>
      <trkpt lat="48.6964" lon="1.75512">
        <ele>156.80000305176</ele>
        <time>2014-08-24T10:04:24.000Z</time>
      </trkpt>
      <trkpt lat="48.69632" lon="1.75517">
        <ele>156.39999389648</ele>
        <time>2014-08-24T10:04:31.000Z</time>
      </trkpt>
      <trkpt lat="48.69622" lon="1.75521">
        <ele>156.19999694824</ele>
        <time>2014-08-24T10:04:38.000Z</time>
      </trkpt>
      <trkpt lat="48.69613" lon="1.75525">
        <ele>156.19999694824</ele>
        <time>2014-08-24T10:04:45.000Z</time>
      </trkpt>
      <trkpt lat="48.69603" lon="1.75532">
        <ele>156</ele>
        <time>2014-08-24T10:04:54.000Z</time>
      </trkpt>
      <trkpt lat="48.6959" lon="1.7554">
        <ele>155.60000610352</ele>
        <time>2014-08-24T10:05:04.000Z</time>
      </trkpt>
      <trkpt lat="48.69581" lon="1.75542">
        <ele>155.39999389648</ele>
        <time>2014-08-24T10:05:11.000Z</time>
      </trkpt>
      <trkpt lat="48.69577" lon="1.75543">
        <ele>155.39999389648</ele>
        <time>2014-08-24T10:05:15.000Z</time>
      </trkpt>
      <trkpt lat="48.69575" lon="1.75543">
        <ele>155.39999389648</ele>
        <time>2014-08-24T10:05:17.000Z</time>
      </trkpt>
      <trkpt lat="48.6957" lon="1.75545">
        <ele>155.39999389648</ele>
        <time>2014-08-24T10:05:24.000Z</time>
      </trkpt>
      <trkpt lat="48.69568" lon="1.75545">
        <ele>155.39999389648</ele>
        <time>2014-08-24T10:05:28.000Z</time>
      </trkpt>
      <trkpt lat="48.69564" lon="1.75536">
        <ele>155.19999694824</ele>
        <time>2014-08-24T10:06:26.000Z</time>
      </trkpt>
      <trkpt lat="48.69562" lon="1.75529">
        <ele>155</ele>
        <time>2014-08-24T10:06:31.000Z</time>
      </trkpt>
      <trkpt lat="48.69563" lon="1.75538">
        <ele>155.19999694824</ele>
        <time>2014-08-24T10:06:40.000Z</time>
      </trkpt>
      <trkpt lat="48.6956" lon="1.75525">
        <ele>155</ele>
        <time>2014-08-24T10:06:59.000Z</time>
      </trkpt>
      <trkpt lat="48.69557" lon="1.75509">
        <ele>154.80000305176</ele>
        <time>2014-08-24T10:07:05.000Z</time>
      </trkpt>
      <trkpt lat="48.69551" lon="1.75486">
        <ele>154.80000305176</ele>
        <time>2014-08-24T10:07:11.000Z</time>
      </trkpt>
      <trkpt lat="48.6955" lon="1.75475">
        <ele>154.80000305176</ele>
        <time>2014-08-24T10:07:14.000Z</time>
      </trkpt>
      <trkpt lat="48.69541" lon="1.75453">
        <ele>154.39999389648</ele>
        <time>2014-08-24T10:07:19.000Z</time>
      </trkpt>
      <trkpt lat="48.69529" lon="1.75422">
        <ele>154.19999694824</ele>
        <time>2014-08-24T10:07:25.000Z</time>
      </trkpt>
      <trkpt lat="48.69523" lon="1.75397">
        <ele>154.39999389648</ele>
        <time>2014-08-24T10:07:30.000Z</time>
      </trkpt>
      <trkpt lat="48.69513" lon="1.75362">
        <ele>155.39999389648</ele>
        <time>2014-08-24T10:07:37.000Z</time>
      </trkpt>
      <trkpt lat="48.69508" lon="1.75333">
        <ele>156.19999694824</ele>
        <time>2014-08-24T10:07:43.000Z</time>
      </trkpt>
      <trkpt lat="48.69499" lon="1.75299">
        <ele>157.80000305176</ele>
        <time>2014-08-24T10:07:50.000Z</time>
      </trkpt>
      <trkpt lat="48.69491" lon="1.7527">
        <ele>159</ele>
        <time>2014-08-24T10:07:56.000Z</time>
      </trkpt>
      <trkpt lat="48.69486" lon="1.75249">
        <ele>160</ele>
        <time>2014-08-24T10:08:01.000Z</time>
      </trkpt>
      <trkpt lat="48.69477" lon="1.7522">
        <ele>161.60000610352</ele>
        <time>2014-08-24T10:08:07.000Z</time>
      </trkpt>
      <trkpt lat="48.69468" lon="1.75186">
        <ele>163.39999389648</ele>
        <time>2014-08-24T10:08:14.000Z</time>
      </trkpt>
      <trkpt lat="48.6946" lon="1.75157">
        <ele>164.60000610352</ele>
        <time>2014-08-24T10:08:20.000Z</time>
      </trkpt>
      <trkpt lat="48.69453" lon="1.75127">
        <ele>165.80000305176</ele>
        <time>2014-08-24T10:08:26.000Z</time>
      </trkpt>
      <trkpt lat="48.69446" lon="1.75097">
        <ele>167</ele>
        <time>2014-08-24T10:08:32.000Z</time>
      </trkpt>
      <trkpt lat="48.69441" lon="1.75074">
        <ele>167.80000305176</ele>
        <time>2014-08-24T10:08:38.000Z</time>
      </trkpt>
      <trkpt lat="48.69436" lon="1.75059">
        <ele>168</ele>
        <time>2014-08-24T10:08:45.000Z</time>
      </trkpt>
      <trkpt lat="48.69433" lon="1.75043">
        <ele>167.80000305176</ele>
        <time>2014-08-24T10:08:53.000Z</time>
      </trkpt>
      <trkpt lat="48.69431" lon="1.75031">
        <ele>167.80000305176</ele>
        <time>2014-08-24T10:09:00.000Z</time>
      </trkpt>
      <trkpt lat="48.69428" lon="1.75022">
        <ele>167.60000610352</ele>
        <time>2014-08-24T10:09:04.000Z</time>
      </trkpt>
      <trkpt lat="48.6942" lon="1.75005">
        <ele>167.39999389648</ele>
        <time>2014-08-24T10:09:13.000Z</time>
      </trkpt>
      <trkpt lat="48.6942" lon="1.75003">
        <ele>167.39999389648</ele>
        <time>2014-08-24T10:09:14.000Z</time>
      </trkpt>
      <trkpt lat="48.69415" lon="1.74992">
        <ele>167.19999694824</ele>
        <time>2014-08-24T10:09:20.000Z</time>
      </trkpt>
      <trkpt lat="48.69417" lon="1.74979">
        <ele>167</ele>
        <time>2014-08-24T10:09:27.000Z</time>
      </trkpt>
      <trkpt lat="48.69407" lon="1.74959">
        <ele>165.60000610352</ele>
        <time>2014-08-24T10:09:37.000Z</time>
      </trkpt>
      <trkpt lat="48.69403" lon="1.74945">
        <ele>164.80000305176</ele>
        <time>2014-08-24T10:09:44.000Z</time>
      </trkpt>
      <trkpt lat="48.69401" lon="1.74936">
        <ele>164.39999389648</ele>
        <time>2014-08-24T10:09:50.000Z</time>
      </trkpt>
      <trkpt lat="48.69402" lon="1.74931">
        <ele>164.19999694824</ele>
        <time>2014-08-24T10:09:57.000Z</time>
      </trkpt>
      <trkpt lat="48.69403" lon="1.74929">
        <ele>164.19999694824</ele>
        <time>2014-08-24T10:10:03.000Z</time>
      </trkpt>
      <trkpt lat="48.69406" lon="1.74926">
        <ele>164.39999389648</ele>
        <time>2014-08-24T10:10:10.000Z</time>
      </trkpt>
      <trkpt lat="48.69397" lon="1.74904">
        <ele>163.19999694824</ele>
        <time>2014-08-24T10:10:32.000Z</time>
      </trkpt>
      <trkpt lat="48.69395" lon="1.74897">
        <ele>163</ele>
        <time>2014-08-24T10:10:35.000Z</time>
      </trkpt>
      <trkpt lat="48.69395" lon="1.74884">
        <ele>163.19999694824</ele>
        <time>2014-08-24T10:10:42.000Z</time>
      </trkpt>
      <trkpt lat="48.69395" lon="1.74882">
        <ele>163.19999694824</ele>
        <time>2014-08-24T10:10:43.000Z</time>
      </trkpt>
      <trkpt lat="48.69391" lon="1.74873">
        <ele>163.19999694824</ele>
        <time>2014-08-24T10:10:49.000Z</time>
      </trkpt>
      <trkpt lat="48.69385" lon="1.7486">
        <ele>163</ele>
        <time>2014-08-24T10:10:56.000Z</time>
      </trkpt>
      <trkpt lat="48.69382" lon="1.74848">
        <ele>163</ele>
        <time>2014-08-24T10:11:01.000Z</time>
      </trkpt>
      <trkpt lat="48.69378" lon="1.74831">
        <ele>162.39999389648</ele>
        <time>2014-08-24T10:11:09.000Z</time>
      </trkpt>
      <trkpt lat="48.69377" lon="1.74824">
        <ele>162.19999694824</ele>
        <time>2014-08-24T10:11:12.000Z</time>
      </trkpt>
      <trkpt lat="48.69368" lon="1.74806">
        <ele>162.80000305176</ele>
        <time>2014-08-24T10:11:20.000Z</time>
      </trkpt>
      <trkpt lat="48.69366" lon="1.74793">
        <ele>163.60000610352</ele>
        <time>2014-08-24T10:11:28.000Z</time>
      </trkpt>
      <trkpt lat="48.69365" lon="1.74786">
        <ele>164</ele>
        <time>2014-08-24T10:11:33.000Z</time>
      </trkpt>
      <trkpt lat="48.69361" lon="1.74776">
        <ele>164.60000610352</ele>
        <time>2014-08-24T10:11:41.000Z</time>
      </trkpt>
      <trkpt lat="48.69361" lon="1.74768">
        <ele>165.19999694824</ele>
        <time>2014-08-24T10:11:48.000Z</time>
      </trkpt>
      <trkpt lat="48.69361" lon="1.7476">
        <ele>165.60000610352</ele>
        <time>2014-08-24T10:11:54.000Z</time>
      </trkpt>
      <trkpt lat="48.69358" lon="1.74747">
        <ele>166.39999389648</ele>
        <time>2014-08-24T10:12:00.000Z</time>
      </trkpt>
      <trkpt lat="48.69357" lon="1.74738">
        <ele>166.80000305176</ele>
        <time>2014-08-24T10:12:05.000Z</time>
      </trkpt>
      <trkpt lat="48.69356" lon="1.74732">
        <ele>167</ele>
        <time>2014-08-24T10:12:09.000Z</time>
      </trkpt>
      <trkpt lat="48.69352" lon="1.74724">
        <ele>167</ele>
        <time>2014-08-24T10:12:14.000Z</time>
      </trkpt>
      <trkpt lat="48.69349" lon="1.74711">
        <ele>167</ele>
        <time>2014-08-24T10:12:21.000Z</time>
      </trkpt>
      <trkpt lat="48.69349" lon="1.74707">
        <ele>167</ele>
        <time>2014-08-24T10:12:23.000Z</time>
      </trkpt>
      <trkpt lat="48.69345" lon="1.74697">
        <ele>167.19999694824</ele>
        <time>2014-08-24T10:12:29.000Z</time>
      </trkpt>
      <trkpt lat="48.69344" lon="1.74683">
        <ele>167.19999694824</ele>
        <time>2014-08-24T10:12:36.000Z</time>
      </trkpt>
      <trkpt lat="48.69342" lon="1.74681">
        <ele>167.19999694824</ele>
        <time>2014-08-24T10:12:37.000Z</time>
      </trkpt>
      <trkpt lat="48.69339" lon="1.7467">
        <ele>167.19999694824</ele>
        <time>2014-08-24T10:12:42.000Z</time>
      </trkpt>
      <trkpt lat="48.69338" lon="1.74664">
        <ele>167.19999694824</ele>
        <time>2014-08-24T10:12:46.000Z</time>
      </trkpt>
      <trkpt lat="48.6933" lon="1.74649">
        <ele>167.39999389648</ele>
        <time>2014-08-24T10:12:55.000Z</time>
      </trkpt>
      <trkpt lat="48.69329" lon="1.74638">
        <ele>167.39999389648</ele>
        <time>2014-08-24T10:13:01.000Z</time>
      </trkpt>
      <trkpt lat="48.69327" lon="1.74631">
        <ele>167.60000610352</ele>
        <time>2014-08-24T10:13:05.000Z</time>
      </trkpt>
      <trkpt lat="48.69328" lon="1.74627">
        <ele>167.60000610352</ele>
        <time>2014-08-24T10:13:07.000Z</time>
      </trkpt>
      <trkpt lat="48.69322" lon="1.7461">
        <ele>168</ele>
        <time>2014-08-24T10:13:16.000Z</time>
      </trkpt>
      <trkpt lat="48.69317" lon="1.746">
        <ele>168</ele>
        <time>2014-08-24T10:13:23.000Z</time>
      </trkpt>
      <trkpt lat="48.69316" lon="1.74596">
        <ele>168.19999694824</ele>
        <time>2014-08-24T10:13:25.000Z</time>
      </trkpt>
      <trkpt lat="48.69313" lon="1.74581">
        <ele>168.39999389648</ele>
        <time>2014-08-24T10:13:33.000Z</time>
      </trkpt>
      <trkpt lat="48.69311" lon="1.74575">
        <ele>168.39999389648</ele>
        <time>2014-08-24T10:13:36.000Z</time>
      </trkpt>
      <trkpt lat="48.6931" lon="1.74571">
        <ele>168.60000610352</ele>
        <time>2014-08-24T10:13:38.000Z</time>
      </trkpt>
      <trkpt lat="48.69308" lon="1.74561">
        <ele>168.60000610352</ele>
        <time>2014-08-24T10:13:43.000Z</time>
      </trkpt>
      <trkpt lat="48.69304" lon="1.74548">
        <ele>168.60000610352</ele>
        <time>2014-08-24T10:13:50.000Z</time>
      </trkpt>
      <trkpt lat="48.69298" lon="1.74537">
        <ele>168.60000610352</ele>
        <time>2014-08-24T10:13:56.000Z</time>
      </trkpt>
      <trkpt lat="48.69298" lon="1.74526">
        <ele>168.60000610352</ele>
        <time>2014-08-24T10:14:02.000Z</time>
      </trkpt>
      <trkpt lat="48.693" lon="1.74514">
        <ele>168.60000610352</ele>
        <time>2014-08-24T10:14:09.000Z</time>
      </trkpt>
      <trkpt lat="48.693" lon="1.74512">
        <ele>168.60000610352</ele>
        <time>2014-08-24T10:14:10.000Z</time>
      </trkpt>
      <trkpt lat="48.69299" lon="1.74501">
        <ele>168.39999389648</ele>
        <time>2014-08-24T10:14:16.000Z</time>
      </trkpt>
      <trkpt lat="48.69297" lon="1.74496">
        <ele>168.39999389648</ele>
        <time>2014-08-24T10:14:19.000Z</time>
      </trkpt>
      <trkpt lat="48.69293" lon="1.74485">
        <ele>168.39999389648</ele>
        <time>2014-08-24T10:14:25.000Z</time>
      </trkpt>
      <trkpt lat="48.69289" lon="1.74475">
        <ele>168</ele>
        <time>2014-08-24T10:14:30.000Z</time>
      </trkpt>
      <trkpt lat="48.69285" lon="1.74459">
        <ele>167.19999694824</ele>
        <time>2014-08-24T10:14:38.000Z</time>
      </trkpt>
      <trkpt lat="48.6928" lon="1.74442">
        <ele>166.60000610352</ele>
        <time>2014-08-24T10:14:46.000Z</time>
      </trkpt>
      <trkpt lat="48.69279" lon="1.74429">
        <ele>166</ele>
        <time>2014-08-24T10:14:54.000Z</time>
      </trkpt>
      <trkpt lat="48.69279" lon="1.74425">
        <ele>165.80000305176</ele>
        <time>2014-08-24T10:14:56.000Z</time>
      </trkpt>
      <trkpt lat="48.69277" lon="1.74417">
        <ele>165.39999389648</ele>
        <time>2014-08-24T10:15:00.000Z</time>
      </trkpt>
      <trkpt lat="48.69274" lon="1.74408">
        <ele>165.19999694824</ele>
        <time>2014-08-24T10:15:04.000Z</time>
      </trkpt>
      <trkpt lat="48.6927" lon="1.74394">
        <ele>164.19999694824</ele>
        <time>2014-08-24T10:15:11.000Z</time>
      </trkpt>
      <trkpt lat="48.69269" lon="1.74391">
        <ele>164</ele>
        <time>2014-08-24T10:15:12.000Z</time>
      </trkpt>
      <trkpt lat="48.69267" lon="1.74378">
        <ele>163</ele>
        <time>2014-08-24T10:15:19.000Z</time>
      </trkpt>
      <trkpt lat="48.69261" lon="1.74363">
        <ele>162</ele>
        <time>2014-08-24T10:15:27.000Z</time>
      </trkpt>
      <trkpt lat="48.6926" lon="1.7436">
        <ele>161.80000305176</ele>
        <time>2014-08-24T10:15:29.000Z</time>
      </trkpt>
      <trkpt lat="48.69255" lon="1.74352">
        <ele>161.39999389648</ele>
        <time>2014-08-24T10:15:33.000Z</time>
      </trkpt>
      <trkpt lat="48.69248" lon="1.74338">
        <ele>160.39999389648</ele>
        <time>2014-08-24T10:15:40.000Z</time>
      </trkpt>
      <trkpt lat="48.69247" lon="1.74326">
        <ele>159.60000610352</ele>
        <time>2014-08-24T10:15:46.000Z</time>
      </trkpt>
      <trkpt lat="48.69242" lon="1.74312">
        <ele>159.19999694824</ele>
        <time>2014-08-24T10:15:54.000Z</time>
      </trkpt>
      <trkpt lat="48.69236" lon="1.74298">
        <ele>159.19999694824</ele>
        <time>2014-08-24T10:16:02.000Z</time>
      </trkpt>
      <trkpt lat="48.69232" lon="1.74284">
        <ele>159</ele>
        <time>2014-08-24T10:16:10.000Z</time>
      </trkpt>
      <trkpt lat="48.69232" lon="1.74278">
        <ele>158.80000305176</ele>
        <time>2014-08-24T10:16:13.000Z</time>
      </trkpt>
      <trkpt lat="48.69233" lon="1.74261">
        <ele>158</ele>
        <time>2014-08-24T10:16:22.000Z</time>
      </trkpt>
      <trkpt lat="48.69231" lon="1.74252">
        <ele>157.80000305176</ele>
        <time>2014-08-24T10:16:27.000Z</time>
      </trkpt>
      <trkpt lat="48.69226" lon="1.74244">
        <ele>157.80000305176</ele>
        <time>2014-08-24T10:16:32.000Z</time>
      </trkpt>
      <trkpt lat="48.69223" lon="1.74222">
        <ele>157.80000305176</ele>
        <time>2014-08-24T10:16:42.000Z</time>
      </trkpt>
      <trkpt lat="48.69219" lon="1.74204">
        <ele>158</ele>
        <time>2014-08-24T10:16:50.000Z</time>
      </trkpt>
      <trkpt lat="48.69216" lon="1.74194">
        <ele>158.19999694824</ele>
        <time>2014-08-24T10:16:55.000Z</time>
      </trkpt>
      <trkpt lat="48.69215" lon="1.74189">
        <ele>158.19999694824</ele>
        <time>2014-08-24T10:16:58.000Z</time>
      </trkpt>
      <trkpt lat="48.69213" lon="1.74175">
        <ele>158.80000305176</ele>
        <time>2014-08-24T10:17:06.000Z</time>
      </trkpt>
      <trkpt lat="48.6921" lon="1.74155">
        <ele>160.19999694824</ele>
        <time>2014-08-24T10:17:15.000Z</time>
      </trkpt>
      <trkpt lat="48.69209" lon="1.74137">
        <ele>160.39999389648</ele>
        <time>2014-08-24T10:17:24.000Z</time>
      </trkpt>
      <trkpt lat="48.6921" lon="1.74126">
        <ele>160.60000610352</ele>
        <time>2014-08-24T10:17:31.000Z</time>
      </trkpt>
      <trkpt lat="48.69208" lon="1.74119">
        <ele>160.60000610352</ele>
        <time>2014-08-24T10:17:35.000Z</time>
      </trkpt>
      <trkpt lat="48.69201" lon="1.74107">
        <ele>160.80000305176</ele>
        <time>2014-08-24T10:17:42.000Z</time>
      </trkpt>
      <trkpt lat="48.69197" lon="1.74097">
        <ele>160.80000305176</ele>
        <time>2014-08-24T10:17:48.000Z</time>
      </trkpt>
      <trkpt lat="48.69192" lon="1.74088">
        <ele>160.80000305176</ele>
        <time>2014-08-24T10:17:54.000Z</time>
      </trkpt>
      <trkpt lat="48.69189" lon="1.74071">
        <ele>161</ele>
        <time>2014-08-24T10:18:02.000Z</time>
      </trkpt>
      <trkpt lat="48.69184" lon="1.74062">
        <ele>161.19999694824</ele>
        <time>2014-08-24T10:18:07.000Z</time>
      </trkpt>
      <trkpt lat="48.69178" lon="1.74046">
        <ele>161.60000610352</ele>
        <time>2014-08-24T10:18:15.000Z</time>
      </trkpt>
      <trkpt lat="48.69177" lon="1.74031">
        <ele>162</ele>
        <time>2014-08-24T10:18:23.000Z</time>
      </trkpt>
      <trkpt lat="48.69173" lon="1.74017">
        <ele>162.19999694824</ele>
        <time>2014-08-24T10:18:30.000Z</time>
      </trkpt>
      <trkpt lat="48.6917" lon="1.74008">
        <ele>162.60000610352</ele>
        <time>2014-08-24T10:18:35.000Z</time>
      </trkpt>
      <trkpt lat="48.69166" lon="1.73996">
        <ele>162.80000305176</ele>
        <time>2014-08-24T10:18:42.000Z</time>
      </trkpt>
      <trkpt lat="48.69161" lon="1.73977">
        <ele>163.19999694824</ele>
        <time>2014-08-24T10:18:51.000Z</time>
      </trkpt>
      <trkpt lat="48.69154" lon="1.73964">
        <ele>163.60000610352</ele>
        <time>2014-08-24T10:18:58.000Z</time>
      </trkpt>
      <trkpt lat="48.69147" lon="1.73954">
        <ele>164</ele>
        <time>2014-08-24T10:19:04.000Z</time>
      </trkpt>
      <trkpt lat="48.69142" lon="1.73942">
        <ele>164.19999694824</ele>
        <time>2014-08-24T10:19:12.000Z</time>
      </trkpt>
      <trkpt lat="48.6914" lon="1.73931">
        <ele>164.80000305176</ele>
        <time>2014-08-24T10:19:18.000Z</time>
      </trkpt>
      <trkpt lat="48.69139" lon="1.73924">
        <ele>165</ele>
        <time>2014-08-24T10:19:21.000Z</time>
      </trkpt>
      <trkpt lat="48.69135" lon="1.73909">
        <ele>165.80000305176</ele>
        <time>2014-08-24T10:19:27.000Z</time>
      </trkpt>
      <trkpt lat="48.69129" lon="1.73899">
        <ele>166.39999389648</ele>
        <time>2014-08-24T10:19:32.000Z</time>
      </trkpt>
      <trkpt lat="48.69125" lon="1.73888">
        <ele>167.19999694824</ele>
        <time>2014-08-24T10:19:38.000Z</time>
      </trkpt>
      <trkpt lat="48.69122" lon="1.73883">
        <ele>167.60000610352</ele>
        <time>2014-08-24T10:19:41.000Z</time>
      </trkpt>
      <trkpt lat="48.6912" lon="1.73876">
        <ele>168</ele>
        <time>2014-08-24T10:19:45.000Z</time>
      </trkpt>
      <trkpt lat="48.69114" lon="1.73858">
        <ele>169.39999389648</ele>
        <time>2014-08-24T10:19:54.000Z</time>
      </trkpt>
      <trkpt lat="48.69115" lon="1.73847">
        <ele>170</ele>
        <time>2014-08-24T10:20:01.000Z</time>
      </trkpt>
      <trkpt lat="48.69115" lon="1.73845">
        <ele>170.19999694824</ele>
        <time>2014-08-24T10:20:06.000Z</time>
      </trkpt>
      <trkpt lat="48.69119" lon="1.73836">
        <ele>170.80000305176</ele>
        <time>2014-08-24T10:20:14.000Z</time>
      </trkpt>
      <trkpt lat="48.69119" lon="1.73832">
        <ele>171.19999694824</ele>
        <time>2014-08-24T10:20:16.000Z</time>
      </trkpt>
      <trkpt lat="48.6912" lon="1.73823">
        <ele>171.80000305176</ele>
        <time>2014-08-24T10:20:22.000Z</time>
      </trkpt>
      <trkpt lat="48.69121" lon="1.73816">
        <ele>172.19999694824</ele>
        <time>2014-08-24T10:20:26.000Z</time>
      </trkpt>
      <trkpt lat="48.69119" lon="1.73802">
        <ele>172.60000610352</ele>
        <time>2014-08-24T10:20:34.000Z</time>
      </trkpt>
      <trkpt lat="48.69114" lon="1.73789">
        <ele>173.19999694824</ele>
        <time>2014-08-24T10:20:42.000Z</time>
      </trkpt>
      <trkpt lat="48.69107" lon="1.73777">
        <ele>173.60000610352</ele>
        <time>2014-08-24T10:20:49.000Z</time>
      </trkpt>
      <trkpt lat="48.69097" lon="1.73763">
        <ele>174</ele>
        <time>2014-08-24T10:20:57.000Z</time>
      </trkpt>
      <trkpt lat="48.69091" lon="1.73752">
        <ele>174.39999389648</ele>
        <time>2014-08-24T10:21:03.000Z</time>
      </trkpt>
      <trkpt lat="48.69089" lon="1.73745">
        <ele>174.80000305176</ele>
        <time>2014-08-24T10:21:09.000Z</time>
      </trkpt>
      <trkpt lat="48.69086" lon="1.73734">
        <ele>175</ele>
        <time>2014-08-24T10:21:16.000Z</time>
      </trkpt>
      <trkpt lat="48.69086" lon="1.73725">
        <ele>174.80000305176</ele>
        <time>2014-08-24T10:21:21.000Z</time>
      </trkpt>
      <trkpt lat="48.6908" lon="1.73715">
        <ele>174.39999389648</ele>
        <time>2014-08-24T10:21:27.000Z</time>
      </trkpt>
      <trkpt lat="48.69077" lon="1.73709">
        <ele>174.39999389648</ele>
        <time>2014-08-24T10:21:30.000Z</time>
      </trkpt>
      <trkpt lat="48.69077" lon="1.73692">
        <ele>174.39999389648</ele>
        <time>2014-08-24T10:21:39.000Z</time>
      </trkpt>
      <trkpt lat="48.69076" lon="1.73681">
        <ele>174.39999389648</ele>
        <time>2014-08-24T10:21:45.000Z</time>
      </trkpt>
      <trkpt lat="48.69074" lon="1.73665">
        <ele>174.39999389648</ele>
        <time>2014-08-24T10:21:53.000Z</time>
      </trkpt>
      <trkpt lat="48.6907" lon="1.73646">
        <ele>174</ele>
        <time>2014-08-24T10:22:02.000Z</time>
      </trkpt>
      <trkpt lat="48.69066" lon="1.73629">
        <ele>173.60000610352</ele>
        <time>2014-08-24T10:22:10.000Z</time>
      </trkpt>
      <trkpt lat="48.69061" lon="1.73609">
        <ele>173</ele>
        <time>2014-08-24T10:22:21.000Z</time>
      </trkpt>
      <trkpt lat="48.69061" lon="1.73607">
        <ele>173</ele>
        <time>2014-08-24T10:22:22.000Z</time>
      </trkpt>
      <trkpt lat="48.6906" lon="1.73597">
        <ele>173</ele>
        <time>2014-08-24T10:22:27.000Z</time>
      </trkpt>
      <trkpt lat="48.69058" lon="1.73576">
        <ele>173.19999694824</ele>
        <time>2014-08-24T10:22:37.000Z</time>
      </trkpt>
      <trkpt lat="48.69057" lon="1.73565">
        <ele>173.19999694824</ele>
        <time>2014-08-24T10:22:43.000Z</time>
      </trkpt>
      <trkpt lat="48.69054" lon="1.73554">
        <ele>173</ele>
        <time>2014-08-24T10:22:49.000Z</time>
      </trkpt>
      <trkpt lat="48.69047" lon="1.73548">
        <ele>172.60000610352</ele>
        <time>2014-08-24T10:22:53.000Z</time>
      </trkpt>
      <trkpt lat="48.69038" lon="1.7353">
        <ele>172</ele>
        <time>2014-08-24T10:23:02.000Z</time>
      </trkpt>
      <trkpt lat="48.69035" lon="1.73517">
        <ele>171.80000305176</ele>
        <time>2014-08-24T10:23:08.000Z</time>
      </trkpt>
      <trkpt lat="48.69031" lon="1.73499">
        <ele>171.60000610352</ele>
        <time>2014-08-24T10:23:17.000Z</time>
      </trkpt>
      <trkpt lat="48.69028" lon="1.73481">
        <ele>171.60000610352</ele>
        <time>2014-08-24T10:23:25.000Z</time>
      </trkpt>
      <trkpt lat="48.69023" lon="1.73465">
        <ele>171</ele>
        <time>2014-08-24T10:23:34.000Z</time>
      </trkpt>
      <trkpt lat="48.69021" lon="1.7345">
        <ele>170.60000610352</ele>
        <time>2014-08-24T10:23:41.000Z</time>
      </trkpt>
      <trkpt lat="48.69018" lon="1.73444">
        <ele>170.60000610352</ele>
        <time>2014-08-24T10:23:45.000Z</time>
      </trkpt>
      <trkpt lat="48.69011" lon="1.73423">
        <ele>170.39999389648</ele>
        <time>2014-08-24T10:23:55.000Z</time>
      </trkpt>
      <trkpt lat="48.6901" lon="1.73411">
        <ele>170.19999694824</ele>
        <time>2014-08-24T10:24:02.000Z</time>
      </trkpt>
      <trkpt lat="48.69009" lon="1.73398">
        <ele>170</ele>
        <time>2014-08-24T10:24:09.000Z</time>
      </trkpt>
      <trkpt lat="48.69007" lon="1.73387">
        <ele>169.80000305176</ele>
        <time>2014-08-24T10:24:15.000Z</time>
      </trkpt>
      <trkpt lat="48.69007" lon="1.73371">
        <ele>169.80000305176</ele>
        <time>2014-08-24T10:24:23.000Z</time>
      </trkpt>
      <trkpt lat="48.69002" lon="1.73354">
        <ele>169.80000305176</ele>
        <time>2014-08-24T10:24:32.000Z</time>
      </trkpt>
      <trkpt lat="48.69" lon="1.73341">
        <ele>169.80000305176</ele>
        <time>2014-08-24T10:24:39.000Z</time>
      </trkpt>
      <trkpt lat="48.68997" lon="1.73326">
        <ele>169.80000305176</ele>
        <time>2014-08-24T10:24:47.000Z</time>
      </trkpt>
      <trkpt lat="48.68993" lon="1.73309">
        <ele>169.80000305176</ele>
        <time>2014-08-24T10:24:55.000Z</time>
      </trkpt>
      <trkpt lat="48.68985" lon="1.73289">
        <ele>170</ele>
        <time>2014-08-24T10:25:06.000Z</time>
      </trkpt>
      <trkpt lat="48.68981" lon="1.73272">
        <ele>170.19999694824</ele>
        <time>2014-08-24T10:25:16.000Z</time>
      </trkpt>
      <trkpt lat="48.68977" lon="1.73256">
        <ele>170.19999694824</ele>
        <time>2014-08-24T10:25:25.000Z</time>
      </trkpt>
      <trkpt lat="48.68973" lon="1.73242">
        <ele>170.39999389648</ele>
        <time>2014-08-24T10:25:32.000Z</time>
      </trkpt>
      <trkpt lat="48.68967" lon="1.73223">
        <ele>170.19999694824</ele>
        <time>2014-08-24T10:25:42.000Z</time>
      </trkpt>
      <trkpt lat="48.68963" lon="1.73206">
        <ele>170</ele>
        <time>2014-08-24T10:25:51.000Z</time>
      </trkpt>
      <trkpt lat="48.68962" lon="1.73194">
        <ele>169.80000305176</ele>
        <time>2014-08-24T10:25:57.000Z</time>
      </trkpt>
      <trkpt lat="48.68956" lon="1.73177">
        <ele>169.60000610352</ele>
        <time>2014-08-24T10:26:06.000Z</time>
      </trkpt>
      <trkpt lat="48.6895" lon="1.73167">
        <ele>169.39999389648</ele>
        <time>2014-08-24T10:26:12.000Z</time>
      </trkpt>
      <trkpt lat="48.68945" lon="1.73148">
        <ele>169.19999694824</ele>
        <time>2014-08-24T10:26:22.000Z</time>
      </trkpt>
      <trkpt lat="48.68941" lon="1.73128">
        <ele>169</ele>
        <time>2014-08-24T10:26:32.000Z</time>
      </trkpt>
      <trkpt lat="48.68936" lon="1.73108">
        <ele>169</ele>
        <time>2014-08-24T10:26:42.000Z</time>
      </trkpt>
      <trkpt lat="48.68932" lon="1.73092">
        <ele>169</ele>
        <time>2014-08-24T10:26:50.000Z</time>
      </trkpt>
      <trkpt lat="48.68929" lon="1.73076">
        <ele>169</ele>
        <time>2014-08-24T10:26:58.000Z</time>
      </trkpt>
      <trkpt lat="48.68923" lon="1.73056">
        <ele>168.39999389648</ele>
        <time>2014-08-24T10:27:08.000Z</time>
      </trkpt>
      <trkpt lat="48.68917" lon="1.7304">
        <ele>168</ele>
        <time>2014-08-24T10:27:16.000Z</time>
      </trkpt>
      <trkpt lat="48.68914" lon="1.73026">
        <ele>167.60000610352</ele>
        <time>2014-08-24T10:27:23.000Z</time>
      </trkpt>
      <trkpt lat="48.68914" lon="1.73025">
        <ele>167.60000610352</ele>
        <time>2014-08-24T10:27:24.000Z</time>
      </trkpt>
      <trkpt lat="48.68911" lon="1.73012">
        <ele>167.39999389648</ele>
        <time>2014-08-24T10:27:31.000Z</time>
      </trkpt>
      <trkpt lat="48.6891" lon="1.73011">
        <ele>167.39999389648</ele>
        <time>2014-08-24T10:27:32.000Z</time>
      </trkpt>
      <trkpt lat="48.68907" lon="1.73005">
        <ele>167.19999694824</ele>
        <time>2014-08-24T10:27:36.000Z</time>
      </trkpt>
      <trkpt lat="48.68898" lon="1.73003">
        <ele>166.80000305176</ele>
        <time>2014-08-24T10:27:44.000Z</time>
      </trkpt>
      <trkpt lat="48.6889" lon="1.73005">
        <ele>166.60000610352</ele>
        <time>2014-08-24T10:27:50.000Z</time>
      </trkpt>
      <trkpt lat="48.68882" lon="1.7301">
        <ele>166.19999694824</ele>
        <time>2014-08-24T10:27:57.000Z</time>
      </trkpt>
      <trkpt lat="48.68873" lon="1.73013">
        <ele>166.19999694824</ele>
        <time>2014-08-24T10:28:04.000Z</time>
      </trkpt>
      <trkpt lat="48.6887" lon="1.73015">
        <ele>166.19999694824</ele>
        <time>2014-08-24T10:28:06.000Z</time>
      </trkpt>
      <trkpt lat="48.68861" lon="1.7302">
        <ele>166.19999694824</ele>
        <time>2014-08-24T10:28:14.000Z</time>
      </trkpt>
      <trkpt lat="48.68856" lon="1.73023">
        <ele>166.39999389648</ele>
        <time>2014-08-24T10:28:18.000Z</time>
      </trkpt>
      <trkpt lat="48.68845" lon="1.73032">
        <ele>166.80000305176</ele>
        <time>2014-08-24T10:28:25.000Z</time>
      </trkpt>
      <trkpt lat="48.68837" lon="1.73036">
        <ele>167.19999694824</ele>
        <time>2014-08-24T10:28:31.000Z</time>
      </trkpt>
      <trkpt lat="48.68825" lon="1.73049">
        <ele>167.39999389648</ele>
        <time>2014-08-24T10:28:39.000Z</time>
      </trkpt>
      <trkpt lat="48.68815" lon="1.73053">
        <ele>167</ele>
        <time>2014-08-24T10:28:46.000Z</time>
      </trkpt>
      <trkpt lat="48.68806" lon="1.73054">
        <ele>166.80000305176</ele>
        <time>2014-08-24T10:28:51.000Z</time>
      </trkpt>
      <trkpt lat="48.68799" lon="1.73056">
        <ele>166.39999389648</ele>
        <time>2014-08-24T10:28:56.000Z</time>
      </trkpt>
      <trkpt lat="48.68789" lon="1.7306">
        <ele>166</ele>
        <time>2014-08-24T10:29:03.000Z</time>
      </trkpt>
      <trkpt lat="48.6878" lon="1.73063">
        <ele>165.60000610352</ele>
        <time>2014-08-24T10:29:09.000Z</time>
      </trkpt>
      <trkpt lat="48.68772" lon="1.73066">
        <ele>165.19999694824</ele>
        <time>2014-08-24T10:29:15.000Z</time>
      </trkpt>
      <trkpt lat="48.68763" lon="1.7307">
        <ele>165.60000610352</ele>
        <time>2014-08-24T10:29:22.000Z</time>
      </trkpt>
      <trkpt lat="48.68754" lon="1.73077">
        <ele>166.39999389648</ele>
        <time>2014-08-24T10:29:30.000Z</time>
      </trkpt>
      <trkpt lat="48.68754" lon="1.73078">
        <ele>166.39999389648</ele>
        <time>2014-08-24T10:29:31.000Z</time>
      </trkpt>
      <trkpt lat="48.6875" lon="1.73084">
        <ele>166.60000610352</ele>
        <time>2014-08-24T10:29:36.000Z</time>
      </trkpt>
      <trkpt lat="48.68742" lon="1.73085">
        <ele>167.39999389648</ele>
        <time>2014-08-24T10:29:42.000Z</time>
      </trkpt>
      <trkpt lat="48.68735" lon="1.73085">
        <ele>167.80000305176</ele>
        <time>2014-08-24T10:29:46.000Z</time>
      </trkpt>
      <trkpt lat="48.68732" lon="1.73084">
        <ele>168.19999694824</ele>
        <time>2014-08-24T10:29:48.000Z</time>
      </trkpt>
      <trkpt lat="48.6872" lon="1.73088">
        <ele>169.19999694824</ele>
        <time>2014-08-24T10:29:55.000Z</time>
      </trkpt>
      <trkpt lat="48.68724" lon="1.73086">
        <ele>168.80000305176</ele>
        <time>2014-08-24T10:30:03.000Z</time>
      </trkpt>
      <trkpt lat="48.68722" lon="1.73082">
        <ele>169</ele>
        <time>2014-08-24T10:30:20.000Z</time>
      </trkpt>
      <trkpt lat="48.68693" lon="1.73104">
        <ele>170.39999389648</ele>
        <time>2014-08-24T10:31:31.000Z</time>
      </trkpt>
      <trkpt lat="48.68692" lon="1.73107">
        <ele>170.39999389648</ele>
        <time>2014-08-24T10:31:35.000Z</time>
      </trkpt>
      <trkpt lat="48.68665" lon="1.73117">
        <ele>169.60000610352</ele>
        <time>2014-08-24T10:32:26.000Z</time>
      </trkpt>
      <trkpt lat="48.6866" lon="1.73118">
        <ele>169.39999389648</ele>
        <time>2014-08-24T10:32:30.000Z</time>
      </trkpt>
      <trkpt lat="48.68651" lon="1.73122">
        <ele>169</ele>
        <time>2014-08-24T10:32:35.000Z</time>
      </trkpt>
      <trkpt lat="48.68642" lon="1.73121">
        <ele>169.19999694824</ele>
        <time>2014-08-24T10:32:39.000Z</time>
      </trkpt>
      <trkpt lat="48.68634" lon="1.7313">
        <ele>169.39999389648</ele>
        <time>2014-08-24T10:32:45.000Z</time>
      </trkpt>
      <trkpt lat="48.68625" lon="1.73134">
        <ele>169.60000610352</ele>
        <time>2014-08-24T10:32:52.000Z</time>
      </trkpt>
      <trkpt lat="48.68613" lon="1.73139">
        <ele>169.80000305176</ele>
        <time>2014-08-24T10:32:59.000Z</time>
      </trkpt>
      <trkpt lat="48.68602" lon="1.73146">
        <ele>169.80000305176</ele>
        <time>2014-08-24T10:33:07.000Z</time>
      </trkpt>
      <trkpt lat="48.68588" lon="1.73153">
        <ele>169.19999694824</ele>
        <time>2014-08-24T10:33:17.000Z</time>
      </trkpt>
      <trkpt lat="48.68585" lon="1.73154">
        <ele>169.19999694824</ele>
        <time>2014-08-24T10:33:20.000Z</time>
      </trkpt>
      <trkpt lat="48.68576" lon="1.7316">
        <ele>168.39999389648</ele>
        <time>2014-08-24T10:33:27.000Z</time>
      </trkpt>
      <trkpt lat="48.68566" lon="1.73163">
        <ele>167.80000305176</ele>
        <time>2014-08-24T10:33:33.000Z</time>
      </trkpt>
      <trkpt lat="48.68557" lon="1.73169">
        <ele>167</ele>
        <time>2014-08-24T10:33:39.000Z</time>
      </trkpt>
      <trkpt lat="48.68548" lon="1.73174">
        <ele>166.39999389648</ele>
        <time>2014-08-24T10:33:46.000Z</time>
      </trkpt>
      <trkpt lat="48.68547" lon="1.73166">
        <ele>166.80000305176</ele>
        <time>2014-08-24T10:33:51.000Z</time>
      </trkpt>
      <trkpt lat="48.68546" lon="1.73152">
        <ele>167.19999694824</ele>
        <time>2014-08-24T10:33:58.000Z</time>
      </trkpt>
      <trkpt lat="48.68545" lon="1.73146">
        <ele>167.39999389648</ele>
        <time>2014-08-24T10:34:01.000Z</time>
      </trkpt>
      <trkpt lat="48.68543" lon="1.73125">
        <ele>167.39999389648</ele>
        <time>2014-08-24T10:34:11.000Z</time>
      </trkpt>
      <trkpt lat="48.68538" lon="1.73108">
        <ele>167.39999389648</ele>
        <time>2014-08-24T10:34:20.000Z</time>
      </trkpt>
      <trkpt lat="48.68535" lon="1.73099">
        <ele>167.39999389648</ele>
        <time>2014-08-24T10:34:25.000Z</time>
      </trkpt>
      <trkpt lat="48.68533" lon="1.73098">
        <ele>167.19999694824</ele>
        <time>2014-08-24T10:34:27.000Z</time>
      </trkpt>
      <trkpt lat="48.68533" lon="1.73085">
        <ele>167.39999389648</ele>
        <time>2014-08-24T10:34:33.000Z</time>
      </trkpt>
      <trkpt lat="48.68533" lon="1.73083">
        <ele>167.39999389648</ele>
        <time>2014-08-24T10:34:34.000Z</time>
      </trkpt>
      <trkpt lat="48.68532" lon="1.73066">
        <ele>167.39999389648</ele>
        <time>2014-08-24T10:34:43.000Z</time>
      </trkpt>
      <trkpt lat="48.68531" lon="1.7305">
        <ele>167.60000610352</ele>
        <time>2014-08-24T10:34:51.000Z</time>
      </trkpt>
      <trkpt lat="48.68525" lon="1.73034">
        <ele>167.60000610352</ele>
        <time>2014-08-24T10:35:00.000Z</time>
      </trkpt>
      <trkpt lat="48.68523" lon="1.73024">
        <ele>167.60000610352</ele>
        <time>2014-08-24T10:35:05.000Z</time>
      </trkpt>
      <trkpt lat="48.6852" lon="1.73013">
        <ele>167.80000305176</ele>
        <time>2014-08-24T10:35:11.000Z</time>
      </trkpt>
      <trkpt lat="48.68522" lon="1.72995">
        <ele>168</ele>
        <time>2014-08-24T10:35:19.000Z</time>
      </trkpt>
      <trkpt lat="48.68521" lon="1.72979">
        <ele>168.39999389648</ele>
        <time>2014-08-24T10:35:27.000Z</time>
      </trkpt>
      <trkpt lat="48.6852" lon="1.72961">
        <ele>169</ele>
        <time>2014-08-24T10:35:36.000Z</time>
      </trkpt>
      <trkpt lat="48.6852" lon="1.72952">
        <ele>169.19999694824</ele>
        <time>2014-08-24T10:35:40.000Z</time>
      </trkpt>
      <trkpt lat="48.68518" lon="1.72942">
        <ele>169.60000610352</ele>
        <time>2014-08-24T10:35:45.000Z</time>
      </trkpt>
      <trkpt lat="48.68519" lon="1.7292">
        <ele>170.39999389648</ele>
        <time>2014-08-24T10:35:54.000Z</time>
      </trkpt>
      <trkpt lat="48.68518" lon="1.72905">
        <ele>171</ele>
        <time>2014-08-24T10:36:01.000Z</time>
      </trkpt>
      <trkpt lat="48.68518" lon="1.72891">
        <ele>171.39999389648</ele>
        <time>2014-08-24T10:36:08.000Z</time>
      </trkpt>
      <trkpt lat="48.68518" lon="1.72886">
        <ele>171.60000610352</ele>
        <time>2014-08-24T10:36:10.000Z</time>
      </trkpt>
      <trkpt lat="48.68518" lon="1.72868">
        <ele>172.19999694824</ele>
        <time>2014-08-24T10:36:16.000Z</time>
      </trkpt>
      <trkpt lat="48.68518" lon="1.72854">
        <ele>172.80000305176</ele>
        <time>2014-08-24T10:36:23.000Z</time>
      </trkpt>
      <trkpt lat="48.6851" lon="1.72839">
        <ele>173.39999389648</ele>
        <time>2014-08-24T10:36:32.000Z</time>
      </trkpt>
      <trkpt lat="48.68511" lon="1.72825">
        <ele>173.80000305176</ele>
        <time>2014-08-24T10:36:39.000Z</time>
      </trkpt>
      <trkpt lat="48.68512" lon="1.72809">
        <ele>174.19999694824</ele>
        <time>2014-08-24T10:36:48.000Z</time>
      </trkpt>
      <trkpt lat="48.68511" lon="1.72794">
        <ele>174.19999694824</ele>
        <time>2014-08-24T10:36:56.000Z</time>
      </trkpt>
      <trkpt lat="48.6851" lon="1.72786">
        <ele>174.19999694824</ele>
        <time>2014-08-24T10:37:01.000Z</time>
      </trkpt>
      <trkpt lat="48.6851" lon="1.72784">
        <ele>174.19999694824</ele>
        <time>2014-08-24T10:37:05.000Z</time>
      </trkpt>
      <trkpt lat="48.68501" lon="1.7279">
        <ele>174.39999389648</ele>
        <time>2014-08-24T10:37:44.000Z</time>
      </trkpt>
      <trkpt lat="48.68499" lon="1.72796">
        <ele>174.39999389648</ele>
        <time>2014-08-24T10:37:46.000Z</time>
      </trkpt>
      <trkpt lat="48.68491" lon="1.72799">
        <ele>174.60000610352</ele>
        <time>2014-08-24T10:37:52.000Z</time>
      </trkpt>
      <trkpt lat="48.68476" lon="1.7281">
        <ele>174.19999694824</ele>
        <time>2014-08-24T10:38:04.000Z</time>
      </trkpt>
      <trkpt lat="48.6847" lon="1.72816">
        <ele>174</ele>
        <time>2014-08-24T10:38:09.000Z</time>
      </trkpt>
      <trkpt lat="48.68462" lon="1.72825">
        <ele>173.80000305176</ele>
        <time>2014-08-24T10:38:16.000Z</time>
      </trkpt>
      <trkpt lat="48.68457" lon="1.72825">
        <ele>173.80000305176</ele>
        <time>2014-08-24T10:38:20.000Z</time>
      </trkpt>
      <trkpt lat="48.68449" lon="1.72835">
        <ele>173.60000610352</ele>
        <time>2014-08-24T10:38:27.000Z</time>
      </trkpt>
      <trkpt lat="48.6844" lon="1.72843">
        <ele>173.80000305176</ele>
        <time>2014-08-24T10:38:34.000Z</time>
      </trkpt>
      <trkpt lat="48.68429" lon="1.72852">
        <ele>174</ele>
        <time>2014-08-24T10:38:42.000Z</time>
      </trkpt>
      <trkpt lat="48.68421" lon="1.72859">
        <ele>174</ele>
        <time>2014-08-24T10:38:48.000Z</time>
      </trkpt>
      <trkpt lat="48.68414" lon="1.72868">
        <ele>174</ele>
        <time>2014-08-24T10:38:54.000Z</time>
      </trkpt>
      <trkpt lat="48.68403" lon="1.72875">
        <ele>174</ele>
        <time>2014-08-24T10:39:01.000Z</time>
      </trkpt>
      <trkpt lat="48.68395" lon="1.7288">
        <ele>174.39999389648</ele>
        <time>2014-08-24T10:39:07.000Z</time>
      </trkpt>
      <trkpt lat="48.68386" lon="1.72886">
        <ele>174.80000305176</ele>
        <time>2014-08-24T10:39:14.000Z</time>
      </trkpt>
      <trkpt lat="48.68374" lon="1.72897">
        <ele>175.39999389648</ele>
        <time>2014-08-24T10:39:23.000Z</time>
      </trkpt>
      <trkpt lat="48.68367" lon="1.72903">
        <ele>175.60000610352</ele>
        <time>2014-08-24T10:39:29.000Z</time>
      </trkpt>
      <trkpt lat="48.68357" lon="1.72914">
        <ele>175.60000610352</ele>
        <time>2014-08-24T10:39:36.000Z</time>
      </trkpt>
      <trkpt lat="48.68341" lon="1.72929">
        <ele>175</ele>
        <time>2014-08-24T10:39:41.000Z</time>
      </trkpt>
      <trkpt lat="48.68322" lon="1.72944">
        <ele>174.19999694824</ele>
        <time>2014-08-24T10:39:47.000Z</time>
      </trkpt>
      <trkpt lat="48.68294" lon="1.7297">
        <ele>173.39999389648</ele>
        <time>2014-08-24T10:39:56.000Z</time>
      </trkpt>
      <trkpt lat="48.68274" lon="1.72989">
        <ele>173</ele>
        <time>2014-08-24T10:40:03.000Z</time>
      </trkpt>
      <trkpt lat="48.68245" lon="1.73013">
        <ele>174.19999694824</ele>
        <time>2014-08-24T10:40:13.000Z</time>
      </trkpt>
      <trkpt lat="48.68223" lon="1.73031">
        <ele>175</ele>
        <time>2014-08-24T10:40:20.000Z</time>
      </trkpt>
      <trkpt lat="48.68202" lon="1.73048">
        <ele>174.39999389648</ele>
        <time>2014-08-24T10:40:27.000Z</time>
      </trkpt>
      <trkpt lat="48.68179" lon="1.73069">
        <ele>174</ele>
        <time>2014-08-24T10:40:35.000Z</time>
      </trkpt>
      <trkpt lat="48.68161" lon="1.73083">
        <ele>174</ele>
        <time>2014-08-24T10:40:42.000Z</time>
      </trkpt>
      <trkpt lat="48.68156" lon="1.7309">
        <ele>174</ele>
        <time>2014-08-24T10:40:45.000Z</time>
      </trkpt>
      <trkpt lat="48.68145" lon="1.73097">
        <ele>174</ele>
        <time>2014-08-24T10:40:53.000Z</time>
      </trkpt>
      <trkpt lat="48.68134" lon="1.73108">
        <ele>174</ele>
        <time>2014-08-24T10:40:59.000Z</time>
      </trkpt>
      <trkpt lat="48.68111" lon="1.73129">
        <ele>174</ele>
        <time>2014-08-24T10:41:07.000Z</time>
      </trkpt>
      <trkpt lat="48.68086" lon="1.73147">
        <ele>174.60000610352</ele>
        <time>2014-08-24T10:41:15.000Z</time>
      </trkpt>
      <trkpt lat="48.68066" lon="1.73165">
        <ele>175.80000305176</ele>
        <time>2014-08-24T10:41:22.000Z</time>
      </trkpt>
      <trkpt lat="48.68041" lon="1.73185">
        <ele>177.39999389648</ele>
        <time>2014-08-24T10:41:31.000Z</time>
      </trkpt>
      <trkpt lat="48.68029" lon="1.73198">
        <ele>177.60000610352</ele>
        <time>2014-08-24T10:41:36.000Z</time>
      </trkpt>
      <trkpt lat="48.68006" lon="1.73218">
        <ele>178</ele>
        <time>2014-08-24T10:41:44.000Z</time>
      </trkpt>
      <trkpt lat="48.67988" lon="1.73231">
        <ele>178</ele>
        <time>2014-08-24T10:41:51.000Z</time>
      </trkpt>
      <trkpt lat="48.67987" lon="1.73233">
        <ele>178</ele>
        <time>2014-08-24T10:41:55.000Z</time>
      </trkpt>
      <trkpt lat="48.67981" lon="1.73237">
        <ele>178</ele>
        <time>2014-08-24T10:41:59.000Z</time>
      </trkpt>
      <trkpt lat="48.67971" lon="1.73248">
        <ele>177.80000305176</ele>
        <time>2014-08-24T10:42:07.000Z</time>
      </trkpt>
      <trkpt lat="48.67963" lon="1.73257">
        <ele>177.60000610352</ele>
        <time>2014-08-24T10:42:14.000Z</time>
      </trkpt>
      <trkpt lat="48.67951" lon="1.73267">
        <ele>177.39999389648</ele>
        <time>2014-08-24T10:42:23.000Z</time>
      </trkpt>
      <trkpt lat="48.67943" lon="1.7327">
        <ele>177.60000610352</ele>
        <time>2014-08-24T10:42:29.000Z</time>
      </trkpt>
      <trkpt lat="48.67928" lon="1.73283">
        <ele>177.60000610352</ele>
        <time>2014-08-24T10:42:41.000Z</time>
      </trkpt>
      <trkpt lat="48.67919" lon="1.73291">
        <ele>177.60000610352</ele>
        <time>2014-08-24T10:42:48.000Z</time>
      </trkpt>
      <trkpt lat="48.6791" lon="1.73301">
        <ele>177.60000610352</ele>
        <time>2014-08-24T10:42:56.000Z</time>
      </trkpt>
      <trkpt lat="48.679" lon="1.73312">
        <ele>177.60000610352</ele>
        <time>2014-08-24T10:43:05.000Z</time>
      </trkpt>
      <trkpt lat="48.67895" lon="1.73316">
        <ele>177.60000610352</ele>
        <time>2014-08-24T10:43:09.000Z</time>
      </trkpt>
      <trkpt lat="48.67892" lon="1.73317">
        <ele>177.60000610352</ele>
        <time>2014-08-24T10:43:11.000Z</time>
      </trkpt>
      <trkpt lat="48.67884" lon="1.73319">
        <ele>177.60000610352</ele>
        <time>2014-08-24T10:43:17.000Z</time>
      </trkpt>
      <trkpt lat="48.67872" lon="1.7333">
        <ele>177.60000610352</ele>
        <time>2014-08-24T10:43:26.000Z</time>
      </trkpt>
      <trkpt lat="48.6786" lon="1.7334">
        <ele>178</ele>
        <time>2014-08-24T10:43:36.000Z</time>
      </trkpt>
      <trkpt lat="48.67851" lon="1.73349">
        <ele>178.39999389648</ele>
        <time>2014-08-24T10:43:43.000Z</time>
      </trkpt>
      <trkpt lat="48.67847" lon="1.73353">
        <ele>178.39999389648</ele>
        <time>2014-08-24T10:43:47.000Z</time>
      </trkpt>
      <trkpt lat="48.67841" lon="1.73359">
        <ele>178.39999389648</ele>
        <time>2014-08-24T10:43:52.000Z</time>
      </trkpt>
      <trkpt lat="48.67839" lon="1.73361">
        <ele>178.39999389648</ele>
        <time>2014-08-24T10:43:55.000Z</time>
      </trkpt>
      <trkpt lat="48.67835" lon="1.73365">
        <ele>178.60000610352</ele>
        <time>2014-08-24T10:43:59.000Z</time>
      </trkpt>
      <trkpt lat="48.6783" lon="1.7337">
        <ele>178.60000610352</ele>
        <time>2014-08-24T10:44:02.000Z</time>
      </trkpt>
      <trkpt lat="48.6782" lon="1.73376">
        <ele>178.80000305176</ele>
        <time>2014-08-24T10:44:09.000Z</time>
      </trkpt>
      <trkpt lat="48.67808" lon="1.73386">
        <ele>179.80000305176</ele>
        <time>2014-08-24T10:44:18.000Z</time>
      </trkpt>
      <trkpt lat="48.67798" lon="1.73395">
        <ele>180.60000610352</ele>
        <time>2014-08-24T10:44:25.000Z</time>
      </trkpt>
      <trkpt lat="48.67793" lon="1.73402">
        <ele>181</ele>
        <time>2014-08-24T10:44:31.000Z</time>
      </trkpt>
      <trkpt lat="48.67784" lon="1.7341">
        <ele>181.60000610352</ele>
        <time>2014-08-24T10:44:38.000Z</time>
      </trkpt>
      <trkpt lat="48.67777" lon="1.73417">
        <ele>182</ele>
        <time>2014-08-24T10:44:43.000Z</time>
      </trkpt>
      <trkpt lat="48.67776" lon="1.73419">
        <ele>182</ele>
        <time>2014-08-24T10:44:44.000Z</time>
      </trkpt>
      <trkpt lat="48.67767" lon="1.73423">
        <ele>182.19999694824</ele>
        <time>2014-08-24T10:44:51.000Z</time>
      </trkpt>
      <trkpt lat="48.67759" lon="1.73433">
        <ele>182</ele>
        <time>2014-08-24T10:44:58.000Z</time>
      </trkpt>
      <trkpt lat="48.67755" lon="1.73443">
        <ele>182</ele>
        <time>2014-08-24T10:45:03.000Z</time>
      </trkpt>
      <trkpt lat="48.6775" lon="1.73456">
        <ele>182</ele>
        <time>2014-08-24T10:45:09.000Z</time>
      </trkpt>
      <trkpt lat="48.6775" lon="1.73476">
        <ele>182</ele>
        <time>2014-08-24T10:45:18.000Z</time>
      </trkpt>
      <trkpt lat="48.6775" lon="1.73488">
        <ele>182</ele>
        <time>2014-08-24T10:45:24.000Z</time>
      </trkpt>
      <trkpt lat="48.67751" lon="1.73499">
        <ele>181.80000305176</ele>
        <time>2014-08-24T10:45:29.000Z</time>
      </trkpt>
      <trkpt lat="48.67754" lon="1.73516">
        <ele>181.60000610352</ele>
        <time>2014-08-24T10:45:36.000Z</time>
      </trkpt>
      <trkpt lat="48.67756" lon="1.73529">
        <ele>181.39999389648</ele>
        <time>2014-08-24T10:45:42.000Z</time>
      </trkpt>
      <trkpt lat="48.67759" lon="1.73543">
        <ele>181.19999694824</ele>
        <time>2014-08-24T10:45:49.000Z</time>
      </trkpt>
      <trkpt lat="48.67761" lon="1.73557">
        <ele>181</ele>
        <time>2014-08-24T10:45:55.000Z</time>
      </trkpt>
      <trkpt lat="48.67762" lon="1.7357">
        <ele>180.80000305176</ele>
        <time>2014-08-24T10:46:01.000Z</time>
      </trkpt>
      <trkpt lat="48.67765" lon="1.73581">
        <ele>180.60000610352</ele>
        <time>2014-08-24T10:46:07.000Z</time>
      </trkpt>
      <trkpt lat="48.67767" lon="1.73599">
        <ele>180.19999694824</ele>
        <time>2014-08-24T10:46:15.000Z</time>
      </trkpt>
      <trkpt lat="48.6777" lon="1.73611">
        <ele>180</ele>
        <time>2014-08-24T10:46:21.000Z</time>
      </trkpt>
      <trkpt lat="48.67773" lon="1.73621">
        <ele>179.80000305176</ele>
        <time>2014-08-24T10:46:26.000Z</time>
      </trkpt>
      <trkpt lat="48.67773" lon="1.73635">
        <ele>179.60000610352</ele>
        <time>2014-08-24T10:46:32.000Z</time>
      </trkpt>
      <trkpt lat="48.67775" lon="1.73644">
        <ele>179.19999694824</ele>
        <time>2014-08-24T10:46:36.000Z</time>
      </trkpt>
      <trkpt lat="48.67778" lon="1.73659">
        <ele>179.19999694824</ele>
        <time>2014-08-24T10:46:43.000Z</time>
      </trkpt>
      <trkpt lat="48.67779" lon="1.73673">
        <ele>179.19999694824</ele>
        <time>2014-08-24T10:46:50.000Z</time>
      </trkpt>
      <trkpt lat="48.67779" lon="1.73674">
        <ele>179.19999694824</ele>
        <time>2014-08-24T10:46:51.000Z</time>
      </trkpt>
      <trkpt lat="48.67781" lon="1.73684">
        <ele>179.39999389648</ele>
        <time>2014-08-24T10:46:56.000Z</time>
      </trkpt>
      <trkpt lat="48.6778" lon="1.73701">
        <ele>179.60000610352</ele>
        <time>2014-08-24T10:47:03.000Z</time>
      </trkpt>
      <trkpt lat="48.67781" lon="1.7371">
        <ele>179.60000610352</ele>
        <time>2014-08-24T10:47:07.000Z</time>
      </trkpt>
      <trkpt lat="48.67782" lon="1.73728">
        <ele>179.80000305176</ele>
        <time>2014-08-24T10:47:15.000Z</time>
      </trkpt>
      <trkpt lat="48.67783" lon="1.7373">
        <ele>180</ele>
        <time>2014-08-24T10:47:16.000Z</time>
      </trkpt>
      <trkpt lat="48.67786" lon="1.73753">
        <ele>179.80000305176</ele>
        <time>2014-08-24T10:47:26.000Z</time>
      </trkpt>
      <trkpt lat="48.67787" lon="1.73762">
        <ele>179.80000305176</ele>
        <time>2014-08-24T10:47:30.000Z</time>
      </trkpt>
      <trkpt lat="48.6779" lon="1.73781">
        <ele>179.39999389648</ele>
        <time>2014-08-24T10:47:38.000Z</time>
      </trkpt>
      <trkpt lat="48.67794" lon="1.73796">
        <ele>179.19999694824</ele>
        <time>2014-08-24T10:47:45.000Z</time>
      </trkpt>
      <trkpt lat="48.67796" lon="1.73809">
        <ele>179.19999694824</ele>
        <time>2014-08-24T10:47:51.000Z</time>
      </trkpt>
      <trkpt lat="48.67798" lon="1.73823">
        <ele>179</ele>
        <time>2014-08-24T10:47:58.000Z</time>
      </trkpt>
      <trkpt lat="48.67799" lon="1.73835">
        <ele>178.80000305176</ele>
        <time>2014-08-24T10:48:05.000Z</time>
      </trkpt>
      <trkpt lat="48.67801" lon="1.73844">
        <ele>178.80000305176</ele>
        <time>2014-08-24T10:48:11.000Z</time>
      </trkpt>
      <trkpt lat="48.67804" lon="1.73859">
        <ele>178.60000610352</ele>
        <time>2014-08-24T10:48:19.000Z</time>
      </trkpt>
      <trkpt lat="48.67807" lon="1.73875">
        <ele>178.60000610352</ele>
        <time>2014-08-24T10:48:27.000Z</time>
      </trkpt>
      <trkpt lat="48.6781" lon="1.73892">
        <ele>178.60000610352</ele>
        <time>2014-08-24T10:48:35.000Z</time>
      </trkpt>
      <trkpt lat="48.67811" lon="1.73898">
        <ele>178.60000610352</ele>
        <time>2014-08-24T10:48:37.000Z</time>
      </trkpt>
      <trkpt lat="48.67811" lon="1.73901">
        <ele>178.60000610352</ele>
        <time>2014-08-24T10:48:39.000Z</time>
      </trkpt>
      <trkpt lat="48.67819" lon="1.73917">
        <ele>178.39999389648</ele>
        <time>2014-08-24T10:48:48.000Z</time>
      </trkpt>
      <trkpt lat="48.67819" lon="1.73933">
        <ele>178.39999389648</ele>
        <time>2014-08-24T10:48:55.000Z</time>
      </trkpt>
      <trkpt lat="48.67819" lon="1.73942">
        <ele>178.39999389648</ele>
        <time>2014-08-24T10:48:59.000Z</time>
      </trkpt>
      <trkpt lat="48.67819" lon="1.73957">
        <ele>178.39999389648</ele>
        <time>2014-08-24T10:49:06.000Z</time>
      </trkpt>
      <trkpt lat="48.6782" lon="1.7396">
        <ele>178.39999389648</ele>
        <time>2014-08-24T10:49:07.000Z</time>
      </trkpt>
      <trkpt lat="48.67822" lon="1.73977">
        <ele>178.39999389648</ele>
        <time>2014-08-24T10:49:14.000Z</time>
      </trkpt>
      <trkpt lat="48.67823" lon="1.73988">
        <ele>178.39999389648</ele>
        <time>2014-08-24T10:49:20.000Z</time>
      </trkpt>
      <trkpt lat="48.67826" lon="1.73998">
        <ele>178.39999389648</ele>
        <time>2014-08-24T10:49:26.000Z</time>
      </trkpt>
      <trkpt lat="48.67829" lon="1.74005">
        <ele>178.19999694824</ele>
        <time>2014-08-24T10:49:32.000Z</time>
      </trkpt>
      <trkpt lat="48.6784" lon="1.74016">
        <ele>178.19999694824</ele>
        <time>2014-08-24T10:49:44.000Z</time>
      </trkpt>
      <trkpt lat="48.67841" lon="1.74025">
        <ele>178.19999694824</ele>
        <time>2014-08-24T10:49:51.000Z</time>
      </trkpt>
      <trkpt lat="48.67839" lon="1.74037">
        <ele>178.19999694824</ele>
        <time>2014-08-24T10:49:57.000Z</time>
      </trkpt>
      <trkpt lat="48.67838" lon="1.74041">
        <ele>178.19999694824</ele>
        <time>2014-08-24T10:49:59.000Z</time>
      </trkpt>
      <trkpt lat="48.67839" lon="1.74053">
        <ele>178.19999694824</ele>
        <time>2014-08-24T10:50:06.000Z</time>
      </trkpt>
      <trkpt lat="48.67839" lon="1.74065">
        <ele>178</ele>
        <time>2014-08-24T10:50:12.000Z</time>
      </trkpt>
      <trkpt lat="48.67841" lon="1.7408">
        <ele>177.80000305176</ele>
        <time>2014-08-24T10:50:19.000Z</time>
      </trkpt>
      <trkpt lat="48.67841" lon="1.74093">
        <ele>177.39999389648</ele>
        <time>2014-08-24T10:50:24.000Z</time>
      </trkpt>
      <trkpt lat="48.67842" lon="1.74101">
        <ele>177.19999694824</ele>
        <time>2014-08-24T10:50:28.000Z</time>
      </trkpt>
      <trkpt lat="48.67844" lon="1.74115">
        <ele>177</ele>
        <time>2014-08-24T10:50:35.000Z</time>
      </trkpt>
      <trkpt lat="48.67848" lon="1.74129">
        <ele>176.60000610352</ele>
        <time>2014-08-24T10:50:42.000Z</time>
      </trkpt>
      <trkpt lat="48.67849" lon="1.74131">
        <ele>176.60000610352</ele>
        <time>2014-08-24T10:50:43.000Z</time>
      </trkpt>
      <trkpt lat="48.67849" lon="1.74137">
        <ele>176.39999389648</ele>
        <time>2014-08-24T10:50:47.000Z</time>
      </trkpt>
      <trkpt lat="48.67851" lon="1.74143">
        <ele>176.19999694824</ele>
        <time>2014-08-24T10:50:50.000Z</time>
      </trkpt>
      <trkpt lat="48.67853" lon="1.74151">
        <ele>176</ele>
        <time>2014-08-24T10:50:54.000Z</time>
      </trkpt>
      <trkpt lat="48.67856" lon="1.74159">
        <ele>175.80000305176</ele>
        <time>2014-08-24T10:51:01.000Z</time>
      </trkpt>
      <trkpt lat="48.67866" lon="1.74147">
        <ele>176</ele>
        <time>2014-08-24T10:51:08.000Z</time>
      </trkpt>
      <trkpt lat="48.67872" lon="1.7414">
        <ele>176.19999694824</ele>
        <time>2014-08-24T10:51:13.000Z</time>
      </trkpt>
      <trkpt lat="48.67879" lon="1.7413">
        <ele>176.19999694824</ele>
        <time>2014-08-24T10:51:20.000Z</time>
      </trkpt>
      <trkpt lat="48.67885" lon="1.74121">
        <ele>176.39999389648</ele>
        <time>2014-08-24T10:51:26.000Z</time>
      </trkpt>
      <trkpt lat="48.67894" lon="1.74115">
        <ele>176.39999389648</ele>
        <time>2014-08-24T10:51:32.000Z</time>
      </trkpt>
      <trkpt lat="48.67896" lon="1.74115">
        <ele>176.39999389648</ele>
        <time>2014-08-24T10:51:34.000Z</time>
      </trkpt>
      <trkpt lat="48.67903" lon="1.74121">
        <ele>176.19999694824</ele>
        <time>2014-08-24T10:51:38.000Z</time>
      </trkpt>
      <trkpt lat="48.67909" lon="1.74136">
        <ele>175.80000305176</ele>
        <time>2014-08-24T10:51:46.000Z</time>
      </trkpt>
      <trkpt lat="48.67914" lon="1.74151">
        <ele>175.39999389648</ele>
        <time>2014-08-24T10:51:52.000Z</time>
      </trkpt>
      <trkpt lat="48.67917" lon="1.7416">
        <ele>175</ele>
        <time>2014-08-24T10:51:56.000Z</time>
      </trkpt>
      <trkpt lat="48.6792" lon="1.74176">
        <ele>174.60000610352</ele>
        <time>2014-08-24T10:52:02.000Z</time>
      </trkpt>
      <trkpt lat="48.67924" lon="1.74187">
        <ele>174.39999389648</ele>
        <time>2014-08-24T10:52:08.000Z</time>
      </trkpt>
      <trkpt lat="48.67931" lon="1.74199">
        <ele>174</ele>
        <time>2014-08-24T10:52:15.000Z</time>
      </trkpt>
      <trkpt lat="48.67938" lon="1.7421">
        <ele>173.60000610352</ele>
        <time>2014-08-24T10:52:22.000Z</time>
      </trkpt>
      <trkpt lat="48.67944" lon="1.74222">
        <ele>173.19999694824</ele>
        <time>2014-08-24T10:52:29.000Z</time>
      </trkpt>
      <trkpt lat="48.67952" lon="1.74237">
        <ele>172.60000610352</ele>
        <time>2014-08-24T10:52:37.000Z</time>
      </trkpt>
      <trkpt lat="48.67958" lon="1.74247">
        <ele>172.60000610352</ele>
        <time>2014-08-24T10:52:43.000Z</time>
      </trkpt>
      <trkpt lat="48.67961" lon="1.74252">
        <ele>172.60000610352</ele>
        <time>2014-08-24T10:52:46.000Z</time>
      </trkpt>
      <trkpt lat="48.67964" lon="1.7426">
        <ele>172.60000610352</ele>
        <time>2014-08-24T10:52:50.000Z</time>
      </trkpt>
      <trkpt lat="48.67973" lon="1.74272">
        <ele>172.60000610352</ele>
        <time>2014-08-24T10:52:57.000Z</time>
      </trkpt>
      <trkpt lat="48.6798" lon="1.74286">
        <ele>172.39999389648</ele>
        <time>2014-08-24T10:53:04.000Z</time>
      </trkpt>
      <trkpt lat="48.67981" lon="1.74289">
        <ele>172.39999389648</ele>
        <time>2014-08-24T10:53:05.000Z</time>
      </trkpt>
      <trkpt lat="48.67982" lon="1.74294">
        <ele>172.39999389648</ele>
        <time>2014-08-24T10:53:07.000Z</time>
      </trkpt>
      <trkpt lat="48.67985" lon="1.7431">
        <ele>172.19999694824</ele>
        <time>2014-08-24T10:53:14.000Z</time>
      </trkpt>
      <trkpt lat="48.67989" lon="1.74322">
        <ele>172</ele>
        <time>2014-08-24T10:53:20.000Z</time>
      </trkpt>
      <trkpt lat="48.67999" lon="1.74336">
        <ele>172.19999694824</ele>
        <time>2014-08-24T10:53:28.000Z</time>
      </trkpt>
      <trkpt lat="48.68005" lon="1.74346">
        <ele>172.39999389648</ele>
        <time>2014-08-24T10:53:34.000Z</time>
      </trkpt>
      <trkpt lat="48.68012" lon="1.74357">
        <ele>172.39999389648</ele>
        <time>2014-08-24T10:53:40.000Z</time>
      </trkpt>
      <trkpt lat="48.68014" lon="1.74362">
        <ele>172.39999389648</ele>
        <time>2014-08-24T10:53:42.000Z</time>
      </trkpt>
      <trkpt lat="48.68017" lon="1.74368">
        <ele>172.60000610352</ele>
        <time>2014-08-24T10:53:46.000Z</time>
      </trkpt>
      <trkpt lat="48.68018" lon="1.74372">
        <ele>172.60000610352</ele>
        <time>2014-08-24T10:53:48.000Z</time>
      </trkpt>
      <trkpt lat="48.68022" lon="1.74378">
        <ele>172.60000610352</ele>
        <time>2014-08-24T10:53:54.000Z</time>
      </trkpt>
      <trkpt lat="48.68026" lon="1.74391">
        <ele>172.60000610352</ele>
        <time>2014-08-24T10:54:00.000Z</time>
      </trkpt>
      <trkpt lat="48.68032" lon="1.74404">
        <ele>172.39999389648</ele>
        <time>2014-08-24T10:54:07.000Z</time>
      </trkpt>
      <trkpt lat="48.68036" lon="1.74408">
        <ele>172.19999694824</ele>
        <time>2014-08-24T10:54:11.000Z</time>
      </trkpt>
      <trkpt lat="48.68041" lon="1.7442">
        <ele>171.80000305176</ele>
        <time>2014-08-24T10:54:16.000Z</time>
      </trkpt>
      <trkpt lat="48.68043" lon="1.74424">
        <ele>171.60000610352</ele>
        <time>2014-08-24T10:54:18.000Z</time>
      </trkpt>
      <trkpt lat="48.68049" lon="1.74438">
        <ele>171</ele>
        <time>2014-08-24T10:54:25.000Z</time>
      </trkpt>
      <trkpt lat="48.68054" lon="1.7445">
        <ele>170.39999389648</ele>
        <time>2014-08-24T10:54:30.000Z</time>
      </trkpt>
      <trkpt lat="48.68055" lon="1.74451">
        <ele>170.39999389648</ele>
        <time>2014-08-24T10:54:31.000Z</time>
      </trkpt>
      <trkpt lat="48.68062" lon="1.74455">
        <ele>170</ele>
        <time>2014-08-24T10:54:37.000Z</time>
      </trkpt>
      <trkpt lat="48.68064" lon="1.74443">
        <ele>170.39999389648</ele>
        <time>2014-08-24T10:54:42.000Z</time>
      </trkpt>
      <trkpt lat="48.68063" lon="1.74436">
        <ele>170.60000610352</ele>
        <time>2014-08-24T10:54:45.000Z</time>
      </trkpt>
      <trkpt lat="48.68066" lon="1.74425">
        <ele>170.60000610352</ele>
        <time>2014-08-24T10:54:50.000Z</time>
      </trkpt>
      <trkpt lat="48.6807" lon="1.74413">
        <ele>170.39999389648</ele>
        <time>2014-08-24T10:54:55.000Z</time>
      </trkpt>
      <trkpt lat="48.68072" lon="1.74405">
        <ele>170.39999389648</ele>
        <time>2014-08-24T10:54:59.000Z</time>
      </trkpt>
      <trkpt lat="48.68076" lon="1.74395">
        <ele>170.19999694824</ele>
        <time>2014-08-24T10:55:04.000Z</time>
      </trkpt>
      <trkpt lat="48.68084" lon="1.74379">
        <ele>169.60000610352</ele>
        <time>2014-08-24T10:55:10.000Z</time>
      </trkpt>
      <trkpt lat="48.68086" lon="1.74369">
        <ele>169.39999389648</ele>
        <time>2014-08-24T10:55:15.000Z</time>
      </trkpt>
      <trkpt lat="48.68088" lon="1.7436">
        <ele>169.19999694824</ele>
        <time>2014-08-24T10:55:20.000Z</time>
      </trkpt>
      <trkpt lat="48.68089" lon="1.74354">
        <ele>169</ele>
        <time>2014-08-24T10:55:25.000Z</time>
      </trkpt>
      <trkpt lat="48.68089" lon="1.74343">
        <ele>169</ele>
        <time>2014-08-24T10:55:32.000Z</time>
      </trkpt>
      <trkpt lat="48.68092" lon="1.7433">
        <ele>168.60000610352</ele>
        <time>2014-08-24T10:55:38.000Z</time>
      </trkpt>
      <trkpt lat="48.68097" lon="1.74314">
        <ele>168.19999694824</ele>
        <time>2014-08-24T10:55:45.000Z</time>
      </trkpt>
      <trkpt lat="48.68102" lon="1.74299">
        <ele>168.19999694824</ele>
        <time>2014-08-24T10:55:52.000Z</time>
      </trkpt>
      <trkpt lat="48.68106" lon="1.74286">
        <ele>168.19999694824</ele>
        <time>2014-08-24T10:55:57.000Z</time>
      </trkpt>
      <trkpt lat="48.68107" lon="1.74284">
        <ele>168.19999694824</ele>
        <time>2014-08-24T10:55:58.000Z</time>
      </trkpt>
      <trkpt lat="48.68111" lon="1.74271">
        <ele>168.19999694824</ele>
        <time>2014-08-24T10:56:04.000Z</time>
      </trkpt>
      <trkpt lat="48.68113" lon="1.74265">
        <ele>168.19999694824</ele>
        <time>2014-08-24T10:56:07.000Z</time>
      </trkpt>
      <trkpt lat="48.68114" lon="1.74263">
        <ele>168.19999694824</ele>
        <time>2014-08-24T10:56:09.000Z</time>
      </trkpt>
      <trkpt lat="48.68117" lon="1.74249">
        <ele>168.19999694824</ele>
        <time>2014-08-24T10:56:15.000Z</time>
      </trkpt>
      <trkpt lat="48.68119" lon="1.74243">
        <ele>168.19999694824</ele>
        <time>2014-08-24T10:56:18.000Z</time>
      </trkpt>
      <trkpt lat="48.68121" lon="1.74233">
        <ele>168.39999389648</ele>
        <time>2014-08-24T10:56:23.000Z</time>
      </trkpt>
      <trkpt lat="48.68124" lon="1.74222">
        <ele>168.19999694824</ele>
        <time>2014-08-24T10:56:28.000Z</time>
      </trkpt>
      <trkpt lat="48.68129" lon="1.74208">
        <ele>168</ele>
        <time>2014-08-24T10:56:34.000Z</time>
      </trkpt>
      <trkpt lat="48.68134" lon="1.74196">
        <ele>168</ele>
        <time>2014-08-24T10:56:39.000Z</time>
      </trkpt>
      <trkpt lat="48.68135" lon="1.74194">
        <ele>167.80000305176</ele>
        <time>2014-08-24T10:56:40.000Z</time>
      </trkpt>
      <trkpt lat="48.6814" lon="1.74185">
        <ele>167.60000610352</ele>
        <time>2014-08-24T10:56:46.000Z</time>
      </trkpt>
      <trkpt lat="48.68142" lon="1.74178">
        <ele>167.60000610352</ele>
        <time>2014-08-24T10:56:50.000Z</time>
      </trkpt>
      <trkpt lat="48.68147" lon="1.74164">
        <ele>167.39999389648</ele>
        <time>2014-08-24T10:56:56.000Z</time>
      </trkpt>
      <trkpt lat="48.68149" lon="1.74155">
        <ele>167.39999389648</ele>
        <time>2014-08-24T10:57:00.000Z</time>
      </trkpt>
      <trkpt lat="48.68152" lon="1.74141">
        <ele>167</ele>
        <time>2014-08-24T10:57:06.000Z</time>
      </trkpt>
      <trkpt lat="48.68157" lon="1.74128">
        <ele>166.80000305176</ele>
        <time>2014-08-24T10:57:14.000Z</time>
      </trkpt>
      <trkpt lat="48.68158" lon="1.74124">
        <ele>166.60000610352</ele>
        <time>2014-08-24T10:57:16.000Z</time>
      </trkpt>
      <trkpt lat="48.6816" lon="1.7412">
        <ele>166.60000610352</ele>
        <time>2014-08-24T10:57:19.000Z</time>
      </trkpt>
      <trkpt lat="48.68162" lon="1.74112">
        <ele>166.60000610352</ele>
        <time>2014-08-24T10:57:25.000Z</time>
      </trkpt>
      <trkpt lat="48.68164" lon="1.741">
        <ele>166.60000610352</ele>
        <time>2014-08-24T10:57:30.000Z</time>
      </trkpt>
      <trkpt lat="48.6817" lon="1.74083">
        <ele>166.39999389648</ele>
        <time>2014-08-24T10:57:38.000Z</time>
      </trkpt>
      <trkpt lat="48.68174" lon="1.74071">
        <ele>166.19999694824</ele>
        <time>2014-08-24T10:57:44.000Z</time>
      </trkpt>
      <trkpt lat="48.68175" lon="1.74063">
        <ele>166.60000610352</ele>
        <time>2014-08-24T10:57:49.000Z</time>
      </trkpt>
      <trkpt lat="48.68178" lon="1.74054">
        <ele>166.60000610352</ele>
        <time>2014-08-24T10:57:55.000Z</time>
      </trkpt>
      <trkpt lat="48.6818" lon="1.74049">
        <ele>166.60000610352</ele>
        <time>2014-08-24T10:57:58.000Z</time>
      </trkpt>
      <trkpt lat="48.68181" lon="1.74041">
        <ele>166.60000610352</ele>
        <time>2014-08-24T10:58:02.000Z</time>
      </trkpt>
      <trkpt lat="48.68187" lon="1.74021">
        <ele>166.60000610352</ele>
        <time>2014-08-24T10:58:10.000Z</time>
      </trkpt>
      <trkpt lat="48.68189" lon="1.74009">
        <ele>166.60000610352</ele>
        <time>2014-08-24T10:58:16.000Z</time>
      </trkpt>
      <trkpt lat="48.68192" lon="1.74001">
        <ele>166.80000305176</ele>
        <time>2014-08-24T10:58:20.000Z</time>
      </trkpt>
      <trkpt lat="48.68194" lon="1.73991">
        <ele>166.80000305176</ele>
        <time>2014-08-24T10:58:25.000Z</time>
      </trkpt>
      <trkpt lat="48.68198" lon="1.7398">
        <ele>166.80000305176</ele>
        <time>2014-08-24T10:58:30.000Z</time>
      </trkpt>
      <trkpt lat="48.68203" lon="1.73969">
        <ele>166.60000610352</ele>
        <time>2014-08-24T10:58:35.000Z</time>
      </trkpt>
      <trkpt lat="48.68209" lon="1.73965">
        <ele>166.39999389648</ele>
        <time>2014-08-24T10:58:38.000Z</time>
      </trkpt>
      <trkpt lat="48.68214" lon="1.73975">
        <ele>166.39999389648</ele>
        <time>2014-08-24T10:58:46.000Z</time>
      </trkpt>
      <trkpt lat="48.68215" lon="1.73985">
        <ele>166.39999389648</ele>
        <time>2014-08-24T10:58:51.000Z</time>
      </trkpt>
      <trkpt lat="48.68218" lon="1.7401">
        <ele>166</ele>
        <time>2014-08-24T10:59:01.000Z</time>
      </trkpt>
      <trkpt lat="48.68222" lon="1.74027">
        <ele>165.60000610352</ele>
        <time>2014-08-24T10:59:10.000Z</time>
      </trkpt>
      <trkpt lat="48.68224" lon="1.74039">
        <ele>165.39999389648</ele>
        <time>2014-08-24T10:59:16.000Z</time>
      </trkpt>
      <trkpt lat="48.68226" lon="1.74053">
        <ele>165.19999694824</ele>
        <time>2014-08-24T10:59:23.000Z</time>
      </trkpt>
      <trkpt lat="48.68227" lon="1.74055">
        <ele>165.19999694824</ele>
        <time>2014-08-24T10:59:24.000Z</time>
      </trkpt>
      <trkpt lat="48.68228" lon="1.74072">
        <ele>165</ele>
        <time>2014-08-24T10:59:32.000Z</time>
      </trkpt>
      <trkpt lat="48.68229" lon="1.74077">
        <ele>164.80000305176</ele>
        <time>2014-08-24T10:59:40.000Z</time>
      </trkpt>
      <trkpt lat="48.68231" lon="1.74085">
        <ele>164.60000610352</ele>
        <time>2014-08-24T10:59:46.000Z</time>
      </trkpt>
      <trkpt lat="48.68231" lon="1.74091">
        <ele>164.39999389648</ele>
        <time>2014-08-24T10:59:49.000Z</time>
      </trkpt>
      <trkpt lat="48.68233" lon="1.74109">
        <ele>164</ele>
        <time>2014-08-24T10:59:57.000Z</time>
      </trkpt>
      <trkpt lat="48.68236" lon="1.74129">
        <ele>163.60000610352</ele>
        <time>2014-08-24T11:00:05.000Z</time>
      </trkpt>
      <trkpt lat="48.68237" lon="1.74142">
        <ele>163.60000610352</ele>
        <time>2014-08-24T11:00:11.000Z</time>
      </trkpt>
      <trkpt lat="48.68239" lon="1.74153">
        <ele>163.39999389648</ele>
        <time>2014-08-24T11:00:16.000Z</time>
      </trkpt>
      <trkpt lat="48.68243" lon="1.74168">
        <ele>163.19999694824</ele>
        <time>2014-08-24T11:00:24.000Z</time>
      </trkpt>
      <trkpt lat="48.68248" lon="1.74178">
        <ele>163</ele>
        <time>2014-08-24T11:00:30.000Z</time>
      </trkpt>
      <trkpt lat="48.6825" lon="1.74191">
        <ele>163</ele>
        <time>2014-08-24T11:00:37.000Z</time>
      </trkpt>
      <trkpt lat="48.6825" lon="1.74199">
        <ele>163</ele>
        <time>2014-08-24T11:00:41.000Z</time>
      </trkpt>
      <trkpt lat="48.6825" lon="1.74215">
        <ele>163</ele>
        <time>2014-08-24T11:00:47.000Z</time>
      </trkpt>
      <trkpt lat="48.68252" lon="1.74232">
        <ele>162.80000305176</ele>
        <time>2014-08-24T11:00:54.000Z</time>
      </trkpt>
      <trkpt lat="48.68254" lon="1.74248">
        <ele>163</ele>
        <time>2014-08-24T11:01:00.000Z</time>
      </trkpt>
      <trkpt lat="48.68258" lon="1.74262">
        <ele>163.19999694824</ele>
        <time>2014-08-24T11:01:06.000Z</time>
      </trkpt>
      <trkpt lat="48.68261" lon="1.74275">
        <ele>163.39999389648</ele>
        <time>2014-08-24T11:01:13.000Z</time>
      </trkpt>
      <trkpt lat="48.68263" lon="1.7429">
        <ele>163.60000610352</ele>
        <time>2014-08-24T11:01:19.000Z</time>
      </trkpt>
      <trkpt lat="48.68264" lon="1.74296">
        <ele>163.60000610352</ele>
        <time>2014-08-24T11:01:23.000Z</time>
      </trkpt>
      <trkpt lat="48.68268" lon="1.7431">
        <ele>163.80000305176</ele>
        <time>2014-08-24T11:01:31.000Z</time>
      </trkpt>
      <trkpt lat="48.68271" lon="1.74322">
        <ele>164</ele>
        <time>2014-08-24T11:01:38.000Z</time>
      </trkpt>
      <trkpt lat="48.68274" lon="1.74335">
        <ele>163.80000305176</ele>
        <time>2014-08-24T11:01:45.000Z</time>
      </trkpt>
      <trkpt lat="48.68275" lon="1.74344">
        <ele>163.80000305176</ele>
        <time>2014-08-24T11:01:50.000Z</time>
      </trkpt>
      <trkpt lat="48.68279" lon="1.74354">
        <ele>163.60000610352</ele>
        <time>2014-08-24T11:01:57.000Z</time>
      </trkpt>
      <trkpt lat="48.68283" lon="1.74369">
        <ele>163.60000610352</ele>
        <time>2014-08-24T11:02:04.000Z</time>
      </trkpt>
      <trkpt lat="48.68285" lon="1.74383">
        <ele>163.39999389648</ele>
        <time>2014-08-24T11:02:10.000Z</time>
      </trkpt>
      <trkpt lat="48.68287" lon="1.74394">
        <ele>163.39999389648</ele>
        <time>2014-08-24T11:02:15.000Z</time>
      </trkpt>
      <trkpt lat="48.68289" lon="1.74404">
        <ele>163.19999694824</ele>
        <time>2014-08-24T11:02:20.000Z</time>
      </trkpt>
      <trkpt lat="48.68291" lon="1.74415">
        <ele>162.80000305176</ele>
        <time>2014-08-24T11:02:26.000Z</time>
      </trkpt>
      <trkpt lat="48.68292" lon="1.74418">
        <ele>162.60000610352</ele>
        <time>2014-08-24T11:02:28.000Z</time>
      </trkpt>
      <trkpt lat="48.68292" lon="1.74422">
        <ele>162.60000610352</ele>
        <time>2014-08-24T11:02:30.000Z</time>
      </trkpt>
      <trkpt lat="48.68295" lon="1.74432">
        <ele>162.19999694824</ele>
        <time>2014-08-24T11:02:36.000Z</time>
      </trkpt>
      <trkpt lat="48.68297" lon="1.74436">
        <ele>162.19999694824</ele>
        <time>2014-08-24T11:02:38.000Z</time>
      </trkpt>
      <trkpt lat="48.68301" lon="1.74449">
        <ele>161.80000305176</ele>
        <time>2014-08-24T11:02:45.000Z</time>
      </trkpt>
      <trkpt lat="48.68301" lon="1.74459">
        <ele>162</ele>
        <time>2014-08-24T11:02:51.000Z</time>
      </trkpt>
      <trkpt lat="48.683" lon="1.74471">
        <ele>162.19999694824</ele>
        <time>2014-08-24T11:02:57.000Z</time>
      </trkpt>
      <trkpt lat="48.68303" lon="1.74479">
        <ele>162.19999694824</ele>
        <time>2014-08-24T11:03:02.000Z</time>
      </trkpt>
      <trkpt lat="48.68305" lon="1.74489">
        <ele>162</ele>
        <time>2014-08-24T11:03:07.000Z</time>
      </trkpt>
      <trkpt lat="48.68305" lon="1.74499">
        <ele>161.39999389648</ele>
        <time>2014-08-24T11:03:13.000Z</time>
      </trkpt>
      <trkpt lat="48.68305" lon="1.74511">
        <ele>160.80000305176</ele>
        <time>2014-08-24T11:03:22.000Z</time>
      </trkpt>
      <trkpt lat="48.68305" lon="1.74525">
        <ele>160.19999694824</ele>
        <time>2014-08-24T11:03:35.000Z</time>
      </trkpt>
      <trkpt lat="48.68313" lon="1.7453">
        <ele>159.39999389648</ele>
        <time>2014-08-24T11:03:44.000Z</time>
      </trkpt>
      <trkpt lat="48.68322" lon="1.74532">
        <ele>158.39999389648</ele>
        <time>2014-08-24T11:03:50.000Z</time>
      </trkpt>
      <trkpt lat="48.68327" lon="1.74537">
        <ele>157.80000305176</ele>
        <time>2014-08-24T11:03:55.000Z</time>
      </trkpt>
      <trkpt lat="48.68338" lon="1.74541">
        <ele>156.80000305176</ele>
        <time>2014-08-24T11:04:01.000Z</time>
      </trkpt>
      <trkpt lat="48.68341" lon="1.74546">
        <ele>156.19999694824</ele>
        <time>2014-08-24T11:04:05.000Z</time>
      </trkpt>
      <trkpt lat="48.68344" lon="1.74553">
        <ele>155.60000610352</ele>
        <time>2014-08-24T11:04:10.000Z</time>
      </trkpt>
      <trkpt lat="48.68354" lon="1.74559">
        <ele>154.60000610352</ele>
        <time>2014-08-24T11:04:18.000Z</time>
      </trkpt>
      <trkpt lat="48.68354" lon="1.7456">
        <ele>154.60000610352</ele>
        <time>2014-08-24T11:04:19.000Z</time>
      </trkpt>
      <trkpt lat="48.68361" lon="1.74572">
        <ele>154</ele>
        <time>2014-08-24T11:04:27.000Z</time>
      </trkpt>
      <trkpt lat="48.68366" lon="1.74581">
        <ele>154.60000610352</ele>
        <time>2014-08-24T11:04:33.000Z</time>
      </trkpt>
      <trkpt lat="48.68369" lon="1.74584">
        <ele>154.80000305176</ele>
        <time>2014-08-24T11:04:35.000Z</time>
      </trkpt>
      <trkpt lat="48.68365" lon="1.74601">
        <ele>154.60000610352</ele>
        <time>2014-08-24T11:04:42.000Z</time>
      </trkpt>
      <trkpt lat="48.68364" lon="1.74607">
        <ele>154.39999389648</ele>
        <time>2014-08-24T11:04:46.000Z</time>
      </trkpt>
      <trkpt lat="48.68363" lon="1.74624">
        <ele>154</ele>
        <time>2014-08-24T11:04:55.000Z</time>
      </trkpt>
      <trkpt lat="48.68361" lon="1.74633">
        <ele>153.80000305176</ele>
        <time>2014-08-24T11:05:01.000Z</time>
      </trkpt>
      <trkpt lat="48.68358" lon="1.74641">
        <ele>153.39999389648</ele>
        <time>2014-08-24T11:05:07.000Z</time>
      </trkpt>
      <trkpt lat="48.68357" lon="1.74647">
        <ele>153.39999389648</ele>
        <time>2014-08-24T11:05:11.000Z</time>
      </trkpt>
      <trkpt lat="48.68359" lon="1.7466">
        <ele>153.80000305176</ele>
        <time>2014-08-24T11:05:17.000Z</time>
      </trkpt>
      <trkpt lat="48.68347" lon="1.74672">
        <ele>154</ele>
        <time>2014-08-24T11:05:25.000Z</time>
      </trkpt>
      <trkpt lat="48.68341" lon="1.7468">
        <ele>154.80000305176</ele>
        <time>2014-08-24T11:05:30.000Z</time>
      </trkpt>
      <trkpt lat="48.68335" lon="1.74688">
        <ele>155.60000610352</ele>
        <time>2014-08-24T11:05:35.000Z</time>
      </trkpt>
      <trkpt lat="48.68331" lon="1.74693">
        <ele>156</ele>
        <time>2014-08-24T11:05:39.000Z</time>
      </trkpt>
      <trkpt lat="48.68321" lon="1.74706">
        <ele>157.19999694824</ele>
        <time>2014-08-24T11:05:48.000Z</time>
      </trkpt>
      <trkpt lat="48.68315" lon="1.74718">
        <ele>156.19999694824</ele>
        <time>2014-08-24T11:05:55.000Z</time>
      </trkpt>
      <trkpt lat="48.68307" lon="1.74731">
        <ele>155.19999694824</ele>
        <time>2014-08-24T11:06:03.000Z</time>
      </trkpt>
      <trkpt lat="48.68304" lon="1.7474">
        <ele>155</ele>
        <time>2014-08-24T11:06:10.000Z</time>
      </trkpt>
      <trkpt lat="48.68298" lon="1.74749">
        <ele>155.19999694824</ele>
        <time>2014-08-24T11:06:20.000Z</time>
      </trkpt>
      <trkpt lat="48.68291" lon="1.74759">
        <ele>155.60000610352</ele>
        <time>2014-08-24T11:06:27.000Z</time>
      </trkpt>
      <trkpt lat="48.68285" lon="1.7477">
        <ele>154.60000610352</ele>
        <time>2014-08-24T11:06:34.000Z</time>
      </trkpt>
      <trkpt lat="48.68281" lon="1.7478">
        <ele>154</ele>
        <time>2014-08-24T11:06:40.000Z</time>
      </trkpt>
      <trkpt lat="48.68278" lon="1.74791">
        <ele>153.60000610352</ele>
        <time>2014-08-24T11:06:47.000Z</time>
      </trkpt>
      <trkpt lat="48.68277" lon="1.74795">
        <ele>153.19999694824</ele>
        <time>2014-08-24T11:06:50.000Z</time>
      </trkpt>
      <trkpt lat="48.68273" lon="1.74804">
        <ele>152.80000305176</ele>
        <time>2014-08-24T11:06:56.000Z</time>
      </trkpt>
      <trkpt lat="48.68271" lon="1.74809">
        <ele>152.39999389648</ele>
        <time>2014-08-24T11:07:00.000Z</time>
      </trkpt>
      <trkpt lat="48.68265" lon="1.74821">
        <ele>152.19999694824</ele>
        <time>2014-08-24T11:07:07.000Z</time>
      </trkpt>
      <trkpt lat="48.68258" lon="1.74834">
        <ele>152.80000305176</ele>
        <time>2014-08-24T11:07:15.000Z</time>
      </trkpt>
      <trkpt lat="48.68254" lon="1.74846">
        <ele>153</ele>
        <time>2014-08-24T11:07:22.000Z</time>
      </trkpt>
      <trkpt lat="48.68248" lon="1.7486">
        <ele>153.39999389648</ele>
        <time>2014-08-24T11:07:30.000Z</time>
      </trkpt>
      <trkpt lat="48.68242" lon="1.74875">
        <ele>153.60000610352</ele>
        <time>2014-08-24T11:07:39.000Z</time>
      </trkpt>
      <trkpt lat="48.68239" lon="1.74886">
        <ele>153</ele>
        <time>2014-08-24T11:07:45.000Z</time>
      </trkpt>
      <trkpt lat="48.68233" lon="1.74901">
        <ele>151.80000305176</ele>
        <time>2014-08-24T11:07:53.000Z</time>
      </trkpt>
      <trkpt lat="48.68229" lon="1.74913">
        <ele>152</ele>
        <time>2014-08-24T11:07:59.000Z</time>
      </trkpt>
      <trkpt lat="48.68226" lon="1.74928">
        <ele>152.80000305176</ele>
        <time>2014-08-24T11:08:07.000Z</time>
      </trkpt>
      <trkpt lat="48.68223" lon="1.74941">
        <ele>153.60000610352</ele>
        <time>2014-08-24T11:08:14.000Z</time>
      </trkpt>
      <trkpt lat="48.68219" lon="1.74956">
        <ele>153.19999694824</ele>
        <time>2014-08-24T11:08:21.000Z</time>
      </trkpt>
      <trkpt lat="48.68217" lon="1.74961">
        <ele>152.80000305176</ele>
        <time>2014-08-24T11:08:24.000Z</time>
      </trkpt>
      <trkpt lat="48.68215" lon="1.74973">
        <ele>152.60000610352</ele>
        <time>2014-08-24T11:08:31.000Z</time>
      </trkpt>
      <trkpt lat="48.68211" lon="1.7499">
        <ele>152.19999694824</ele>
        <time>2014-08-24T11:08:40.000Z</time>
      </trkpt>
      <trkpt lat="48.68207" lon="1.75005">
        <ele>152.80000305176</ele>
        <time>2014-08-24T11:08:48.000Z</time>
      </trkpt>
      <trkpt lat="48.68204" lon="1.75016">
        <ele>152.80000305176</ele>
        <time>2014-08-24T11:08:55.000Z</time>
      </trkpt>
      <trkpt lat="48.68202" lon="1.75023">
        <ele>152.60000610352</ele>
        <time>2014-08-24T11:08:59.000Z</time>
      </trkpt>
      <trkpt lat="48.68196" lon="1.75043">
        <ele>151.80000305176</ele>
        <time>2014-08-24T11:09:09.000Z</time>
      </trkpt>
      <trkpt lat="48.6819" lon="1.7506">
        <ele>151.39999389648</ele>
        <time>2014-08-24T11:09:17.000Z</time>
      </trkpt>
      <trkpt lat="48.68184" lon="1.75072">
        <ele>151</ele>
        <time>2014-08-24T11:09:24.000Z</time>
      </trkpt>
      <trkpt lat="48.68179" lon="1.75083">
        <ele>151.19999694824</ele>
        <time>2014-08-24T11:09:30.000Z</time>
      </trkpt>
      <trkpt lat="48.68172" lon="1.75095">
        <ele>151.60000610352</ele>
        <time>2014-08-24T11:09:38.000Z</time>
      </trkpt>
      <trkpt lat="48.68164" lon="1.75105">
        <ele>151.80000305176</ele>
        <time>2014-08-24T11:09:46.000Z</time>
      </trkpt>
      <trkpt lat="48.68157" lon="1.75117">
        <ele>152</ele>
        <time>2014-08-24T11:09:54.000Z</time>
      </trkpt>
      <trkpt lat="48.68152" lon="1.75126">
        <ele>152</ele>
        <time>2014-08-24T11:09:59.000Z</time>
      </trkpt>
      <trkpt lat="48.68144" lon="1.75139">
        <ele>151.60000610352</ele>
        <time>2014-08-24T11:10:07.000Z</time>
      </trkpt>
      <trkpt lat="48.68136" lon="1.75154">
        <ele>151.19999694824</ele>
        <time>2014-08-24T11:10:15.000Z</time>
      </trkpt>
      <trkpt lat="48.68127" lon="1.75169">
        <ele>150.19999694824</ele>
        <time>2014-08-24T11:10:25.000Z</time>
      </trkpt>
      <trkpt lat="48.68119" lon="1.75183">
        <ele>150</ele>
        <time>2014-08-24T11:10:34.000Z</time>
      </trkpt>
      <trkpt lat="48.68111" lon="1.75195">
        <ele>150</ele>
        <time>2014-08-24T11:10:43.000Z</time>
      </trkpt>
      <trkpt lat="48.68104" lon="1.75205">
        <ele>149.80000305176</ele>
        <time>2014-08-24T11:10:50.000Z</time>
      </trkpt>
      <trkpt lat="48.68096" lon="1.75217">
        <ele>150.19999694824</ele>
        <time>2014-08-24T11:11:00.000Z</time>
      </trkpt>
      <trkpt lat="48.68089" lon="1.75233">
        <ele>150.39999389648</ele>
        <time>2014-08-24T11:11:10.000Z</time>
      </trkpt>
      <trkpt lat="48.68083" lon="1.75249">
        <ele>150</ele>
        <time>2014-08-24T11:11:19.000Z</time>
      </trkpt>
      <trkpt lat="48.68078" lon="1.75263">
        <ele>149.80000305176</ele>
        <time>2014-08-24T11:11:27.000Z</time>
      </trkpt>
      <trkpt lat="48.68073" lon="1.75283">
        <ele>149.60000610352</ele>
        <time>2014-08-24T11:11:36.000Z</time>
      </trkpt>
      <trkpt lat="48.68071" lon="1.75304">
        <ele>149.60000610352</ele>
        <time>2014-08-24T11:11:46.000Z</time>
      </trkpt>
      <trkpt lat="48.68072" lon="1.75317">
        <ele>149.80000305176</ele>
        <time>2014-08-24T11:11:53.000Z</time>
      </trkpt>
      <trkpt lat="48.68071" lon="1.75334">
        <ele>149.60000610352</ele>
        <time>2014-08-24T11:12:01.000Z</time>
      </trkpt>
      <trkpt lat="48.68068" lon="1.75355">
        <ele>149.39999389648</ele>
        <time>2014-08-24T11:12:11.000Z</time>
      </trkpt>
      <trkpt lat="48.68066" lon="1.75373">
        <ele>149.19999694824</ele>
        <time>2014-08-24T11:12:20.000Z</time>
      </trkpt>
      <trkpt lat="48.68063" lon="1.75388">
        <ele>149</ele>
        <time>2014-08-24T11:12:27.000Z</time>
      </trkpt>
      <trkpt lat="48.6806" lon="1.75406">
        <ele>149</ele>
        <time>2014-08-24T11:12:36.000Z</time>
      </trkpt>
      <trkpt lat="48.68057" lon="1.75426">
        <ele>148.80000305176</ele>
        <time>2014-08-24T11:12:46.000Z</time>
      </trkpt>
      <trkpt lat="48.68055" lon="1.75438">
        <ele>148.80000305176</ele>
        <time>2014-08-24T11:12:53.000Z</time>
      </trkpt>
      <trkpt lat="48.68052" lon="1.75454">
        <ele>148.39999389648</ele>
        <time>2014-08-24T11:13:02.000Z</time>
      </trkpt>
      <trkpt lat="48.68051" lon="1.7546">
        <ele>148.19999694824</ele>
        <time>2014-08-24T11:13:05.000Z</time>
      </trkpt>
      <trkpt lat="48.68049" lon="1.75469">
        <ele>147.80000305176</ele>
        <time>2014-08-24T11:13:09.000Z</time>
      </trkpt>
      <trkpt lat="48.68047" lon="1.75484">
        <ele>147.39999389648</ele>
        <time>2014-08-24T11:13:17.000Z</time>
      </trkpt>
      <trkpt lat="48.68046" lon="1.75494">
        <ele>147.19999694824</ele>
        <time>2014-08-24T11:13:23.000Z</time>
      </trkpt>
      <trkpt lat="48.68044" lon="1.7551">
        <ele>147.19999694824</ele>
        <time>2014-08-24T11:13:32.000Z</time>
      </trkpt>
      <trkpt lat="48.68052" lon="1.75517">
        <ele>147.60000610352</ele>
        <time>2014-08-24T11:13:39.000Z</time>
      </trkpt>
      <trkpt lat="48.68064" lon="1.75525">
        <ele>148.19999694824</ele>
        <time>2014-08-24T11:13:48.000Z</time>
      </trkpt>
      <trkpt lat="48.68076" lon="1.75533">
        <ele>148.60000610352</ele>
        <time>2014-08-24T11:13:57.000Z</time>
      </trkpt>
      <trkpt lat="48.68086" lon="1.75538">
        <ele>149.19999694824</ele>
        <time>2014-08-24T11:14:05.000Z</time>
      </trkpt>
      <trkpt lat="48.68096" lon="1.75545">
        <ele>149.60000610352</ele>
        <time>2014-08-24T11:14:14.000Z</time>
      </trkpt>
      <trkpt lat="48.68102" lon="1.75549">
        <ele>150</ele>
        <time>2014-08-24T11:14:21.000Z</time>
      </trkpt>
      <trkpt lat="48.68107" lon="1.75553">
        <ele>150</ele>
        <time>2014-08-24T11:14:41.000Z</time>
      </trkpt>
      <trkpt lat="48.68118" lon="1.75563">
        <ele>150.39999389648</ele>
        <time>2014-08-24T11:14:49.000Z</time>
      </trkpt>
      <trkpt lat="48.68127" lon="1.75569">
        <ele>150.60000610352</ele>
        <time>2014-08-24T11:14:56.000Z</time>
      </trkpt>
      <trkpt lat="48.68138" lon="1.75579">
        <ele>150.80000305176</ele>
        <time>2014-08-24T11:15:05.000Z</time>
      </trkpt>
      <trkpt lat="48.68154" lon="1.75587">
        <ele>151.19999694824</ele>
        <time>2014-08-24T11:15:17.000Z</time>
      </trkpt>
      <trkpt lat="48.68167" lon="1.75593">
        <ele>151.60000610352</ele>
        <time>2014-08-24T11:15:26.000Z</time>
      </trkpt>
      <trkpt lat="48.68183" lon="1.75598">
        <ele>152</ele>
        <time>2014-08-24T11:15:37.000Z</time>
      </trkpt>
      <trkpt lat="48.68195" lon="1.75604">
        <ele>152.19999694824</ele>
        <time>2014-08-24T11:15:46.000Z</time>
      </trkpt>
      <trkpt lat="48.68208" lon="1.75608">
        <ele>152.19999694824</ele>
        <time>2014-08-24T11:15:55.000Z</time>
      </trkpt>
      <trkpt lat="48.68218" lon="1.75612">
        <ele>152.39999389648</ele>
        <time>2014-08-24T11:16:02.000Z</time>
      </trkpt>
      <trkpt lat="48.68224" lon="1.75617">
        <ele>152.39999389648</ele>
        <time>2014-08-24T11:16:07.000Z</time>
      </trkpt>
      <trkpt lat="48.68232" lon="1.7562">
        <ele>152.60000610352</ele>
        <time>2014-08-24T11:16:13.000Z</time>
      </trkpt>
      <trkpt lat="48.68244" lon="1.75621">
        <ele>152.60000610352</ele>
        <time>2014-08-24T11:16:20.000Z</time>
      </trkpt>
      <trkpt lat="48.68251" lon="1.75623">
        <ele>152.80000305176</ele>
        <time>2014-08-24T11:16:25.000Z</time>
      </trkpt>
      <trkpt lat="48.68257" lon="1.75626">
        <ele>152.80000305176</ele>
        <time>2014-08-24T11:16:30.000Z</time>
      </trkpt>
      <trkpt lat="48.68263" lon="1.75632">
        <ele>153</ele>
        <time>2014-08-24T11:16:36.000Z</time>
      </trkpt>
      <trkpt lat="48.68271" lon="1.75631">
        <ele>153</ele>
        <time>2014-08-24T11:16:41.000Z</time>
      </trkpt>
      <trkpt lat="48.68277" lon="1.75636">
        <ele>153</ele>
        <time>2014-08-24T11:16:46.000Z</time>
      </trkpt>
      <trkpt lat="48.68288" lon="1.75638">
        <ele>152.80000305176</ele>
        <time>2014-08-24T11:16:53.000Z</time>
      </trkpt>
      <trkpt lat="48.68299" lon="1.75641">
        <ele>152.60000610352</ele>
        <time>2014-08-24T11:17:00.000Z</time>
      </trkpt>
      <trkpt lat="48.68312" lon="1.75642">
        <ele>152.39999389648</ele>
        <time>2014-08-24T11:17:09.000Z</time>
      </trkpt>
      <trkpt lat="48.68313" lon="1.75642">
        <ele>152.39999389648</ele>
        <time>2014-08-24T11:17:10.000Z</time>
      </trkpt>
      <trkpt lat="48.68322" lon="1.75638">
        <ele>152.39999389648</ele>
        <time>2014-08-24T11:17:17.000Z</time>
      </trkpt>
      <trkpt lat="48.68333" lon="1.75633">
        <ele>152.19999694824</ele>
        <time>2014-08-24T11:17:24.000Z</time>
      </trkpt>
      <trkpt lat="48.68338" lon="1.7563">
        <ele>152.19999694824</ele>
        <time>2014-08-24T11:17:29.000Z</time>
      </trkpt>
      <trkpt lat="48.68341" lon="1.75628">
        <ele>152.39999389648</ele>
        <time>2014-08-24T11:17:31.000Z</time>
      </trkpt>
      <trkpt lat="48.68348" lon="1.75624">
        <ele>152.39999389648</ele>
        <time>2014-08-24T11:17:38.000Z</time>
      </trkpt>
      <trkpt lat="48.68354" lon="1.7562">
        <ele>152.39999389648</ele>
        <time>2014-08-24T11:17:43.000Z</time>
      </trkpt>
      <trkpt lat="48.68364" lon="1.7561">
        <ele>152.80000305176</ele>
        <time>2014-08-24T11:17:52.000Z</time>
      </trkpt>
      <trkpt lat="48.68367" lon="1.75609">
        <ele>152.80000305176</ele>
        <time>2014-08-24T11:17:56.000Z</time>
      </trkpt>
      <trkpt lat="48.68374" lon="1.75605">
        <ele>153</ele>
        <time>2014-08-24T11:18:01.000Z</time>
      </trkpt>
      <trkpt lat="48.68386" lon="1.75599">
        <ele>153.39999389648</ele>
        <time>2014-08-24T11:18:09.000Z</time>
      </trkpt>
      <trkpt lat="48.684" lon="1.75591">
        <ele>153.80000305176</ele>
        <time>2014-08-24T11:18:15.000Z</time>
      </trkpt>
      <trkpt lat="48.68403" lon="1.75589">
        <ele>154</ele>
        <time>2014-08-24T11:18:17.000Z</time>
      </trkpt>
      <trkpt lat="48.68416" lon="1.75583">
        <ele>154.39999389648</ele>
        <time>2014-08-24T11:18:26.000Z</time>
      </trkpt>
      <trkpt lat="48.68424" lon="1.75578">
        <ele>154.60000610352</ele>
        <time>2014-08-24T11:18:32.000Z</time>
      </trkpt>
      <trkpt lat="48.6843" lon="1.75575">
        <ele>154.80000305176</ele>
        <time>2014-08-24T11:18:36.000Z</time>
      </trkpt>
      <trkpt lat="48.68437" lon="1.75573">
        <ele>155</ele>
        <time>2014-08-24T11:18:42.000Z</time>
      </trkpt>
      <trkpt lat="48.68444" lon="1.75568">
        <ele>155.19999694824</ele>
        <time>2014-08-24T11:18:47.000Z</time>
      </trkpt>
      <trkpt lat="48.68449" lon="1.75566">
        <ele>155.39999389648</ele>
        <time>2014-08-24T11:18:51.000Z</time>
      </trkpt>
      <trkpt lat="48.68459" lon="1.7556">
        <ele>155.80000305176</ele>
        <time>2014-08-24T11:18:57.000Z</time>
      </trkpt>
      <trkpt lat="48.68468" lon="1.75554">
        <ele>156.19999694824</ele>
        <time>2014-08-24T11:19:02.000Z</time>
      </trkpt>
      <trkpt lat="48.68475" lon="1.75552">
        <ele>156.39999389648</ele>
        <time>2014-08-24T11:19:07.000Z</time>
      </trkpt>
      <trkpt lat="48.68479" lon="1.75551">
        <ele>156.39999389648</ele>
        <time>2014-08-24T11:19:09.000Z</time>
      </trkpt>
      <trkpt lat="48.68488" lon="1.75546">
        <ele>156.80000305176</ele>
        <time>2014-08-24T11:19:15.000Z</time>
      </trkpt>
      <trkpt lat="48.68495" lon="1.75543">
        <ele>157</ele>
        <time>2014-08-24T11:19:20.000Z</time>
      </trkpt>
      <trkpt lat="48.68505" lon="1.75543">
        <ele>156.60000610352</ele>
        <time>2014-08-24T11:19:27.000Z</time>
      </trkpt>
      <trkpt lat="48.68511" lon="1.7555">
        <ele>156.19999694824</ele>
        <time>2014-08-24T11:19:33.000Z</time>
      </trkpt>
      <trkpt lat="48.68512" lon="1.7556">
        <ele>155.80000305176</ele>
        <time>2014-08-24T11:19:37.000Z</time>
      </trkpt>
      <trkpt lat="48.68516" lon="1.75575">
        <ele>155</ele>
        <time>2014-08-24T11:19:45.000Z</time>
      </trkpt>
      <trkpt lat="48.6852" lon="1.75593">
        <ele>155</ele>
        <time>2014-08-24T11:19:53.000Z</time>
      </trkpt>
      <trkpt lat="48.68522" lon="1.75609">
        <ele>155</ele>
        <time>2014-08-24T11:20:01.000Z</time>
      </trkpt>
      <trkpt lat="48.68527" lon="1.75621">
        <ele>155.19999694824</ele>
        <time>2014-08-24T11:20:09.000Z</time>
      </trkpt>
      <trkpt lat="48.68529" lon="1.75632">
        <ele>155.39999389648</ele>
        <time>2014-08-24T11:20:15.000Z</time>
      </trkpt>
      <trkpt lat="48.68531" lon="1.75647">
        <ele>155.39999389648</ele>
        <time>2014-08-24T11:20:22.000Z</time>
      </trkpt>
      <trkpt lat="48.68534" lon="1.75658">
        <ele>155.39999389648</ele>
        <time>2014-08-24T11:20:27.000Z</time>
      </trkpt>
      <trkpt lat="48.68532" lon="1.75682">
        <ele>154.80000305176</ele>
        <time>2014-08-24T11:20:34.000Z</time>
      </trkpt>
      <trkpt lat="48.68533" lon="1.75693">
        <ele>154.60000610352</ele>
        <time>2014-08-24T11:20:39.000Z</time>
      </trkpt>
      <trkpt lat="48.68535" lon="1.75709">
        <ele>154.19999694824</ele>
        <time>2014-08-24T11:20:46.000Z</time>
      </trkpt>
      <trkpt lat="48.68536" lon="1.7571">
        <ele>154.19999694824</ele>
        <time>2014-08-24T11:20:47.000Z</time>
      </trkpt>
      <trkpt lat="48.68539" lon="1.75722">
        <ele>154</ele>
        <time>2014-08-24T11:20:53.000Z</time>
      </trkpt>
      <trkpt lat="48.68543" lon="1.75741">
        <ele>153.80000305176</ele>
        <time>2014-08-24T11:21:03.000Z</time>
      </trkpt>
      <trkpt lat="48.68545" lon="1.75756">
        <ele>153.39999389648</ele>
        <time>2014-08-24T11:21:09.000Z</time>
      </trkpt>
      <trkpt lat="48.68546" lon="1.75758">
        <ele>153.39999389648</ele>
        <time>2014-08-24T11:21:11.000Z</time>
      </trkpt>
      <trkpt lat="48.68546" lon="1.75763">
        <ele>153.39999389648</ele>
        <time>2014-08-24T11:21:17.000Z</time>
      </trkpt>
      <trkpt lat="48.68546" lon="1.7577">
        <ele>153.19999694824</ele>
        <time>2014-08-24T11:21:23.000Z</time>
      </trkpt>
      <trkpt lat="48.68547" lon="1.75787">
        <ele>153</ele>
        <time>2014-08-24T11:21:29.000Z</time>
      </trkpt>
      <trkpt lat="48.6855" lon="1.75802">
        <ele>153</ele>
        <time>2014-08-24T11:21:36.000Z</time>
      </trkpt>
      <trkpt lat="48.68548" lon="1.75816">
        <ele>152.80000305176</ele>
        <time>2014-08-24T11:21:42.000Z</time>
      </trkpt>
      <trkpt lat="48.68549" lon="1.75833">
        <ele>152.60000610352</ele>
        <time>2014-08-24T11:21:50.000Z</time>
      </trkpt>
      <trkpt lat="48.68552" lon="1.75852">
        <ele>152.39999389648</ele>
        <time>2014-08-24T11:21:59.000Z</time>
      </trkpt>
      <trkpt lat="48.68556" lon="1.75871">
        <ele>152</ele>
        <time>2014-08-24T11:22:09.000Z</time>
      </trkpt>
      <trkpt lat="48.68556" lon="1.75885">
        <ele>151.39999389648</ele>
        <time>2014-08-24T11:22:15.000Z</time>
      </trkpt>
      <trkpt lat="48.68559" lon="1.75902">
        <ele>151</ele>
        <time>2014-08-24T11:22:23.000Z</time>
      </trkpt>
      <trkpt lat="48.68561" lon="1.75923">
        <ele>151</ele>
        <time>2014-08-24T11:22:33.000Z</time>
      </trkpt>
      <trkpt lat="48.68564" lon="1.75942">
        <ele>151.19999694824</ele>
        <time>2014-08-24T11:22:42.000Z</time>
      </trkpt>
      <trkpt lat="48.68567" lon="1.75964">
        <ele>151.39999389648</ele>
        <time>2014-08-24T11:22:53.000Z</time>
      </trkpt>
      <trkpt lat="48.6857" lon="1.75981">
        <ele>151.80000305176</ele>
        <time>2014-08-24T11:23:02.000Z</time>
      </trkpt>
      <trkpt lat="48.6857" lon="1.75988">
        <ele>151.80000305176</ele>
        <time>2014-08-24T11:23:06.000Z</time>
      </trkpt>
      <trkpt lat="48.68574" lon="1.75995">
        <ele>152</ele>
        <time>2014-08-24T11:23:11.000Z</time>
      </trkpt>
      <trkpt lat="48.68585" lon="1.76003">
        <ele>152.39999389648</ele>
        <time>2014-08-24T11:23:21.000Z</time>
      </trkpt>
      <trkpt lat="48.68594" lon="1.76005">
        <ele>152.60000610352</ele>
        <time>2014-08-24T11:23:28.000Z</time>
      </trkpt>
      <trkpt lat="48.68597" lon="1.76006">
        <ele>152.80000305176</ele>
        <time>2014-08-24T11:23:33.000Z</time>
      </trkpt>
      <trkpt lat="48.68608" lon="1.76012">
        <ele>153.39999389648</ele>
        <time>2014-08-24T11:24:04.000Z</time>
      </trkpt>
      <trkpt lat="48.68617" lon="1.76014">
        <ele>153.80000305176</ele>
        <time>2014-08-24T11:24:10.000Z</time>
      </trkpt>
      <trkpt lat="48.68625" lon="1.76016">
        <ele>154.39999389648</ele>
        <time>2014-08-24T11:24:16.000Z</time>
      </trkpt>
      <trkpt lat="48.68634" lon="1.76019">
        <ele>154.80000305176</ele>
        <time>2014-08-24T11:24:22.000Z</time>
      </trkpt>
      <trkpt lat="48.68642" lon="1.76021">
        <ele>155.39999389648</ele>
        <time>2014-08-24T11:24:28.000Z</time>
      </trkpt>
      <trkpt lat="48.68651" lon="1.76023">
        <ele>156.19999694824</ele>
        <time>2014-08-24T11:24:34.000Z</time>
      </trkpt>
      <trkpt lat="48.68661" lon="1.76024">
        <ele>157</ele>
        <time>2014-08-24T11:24:40.000Z</time>
      </trkpt>
      <trkpt lat="48.68668" lon="1.76028">
        <ele>157.39999389648</ele>
        <time>2014-08-24T11:24:46.000Z</time>
      </trkpt>
      <trkpt lat="48.68679" lon="1.76032">
        <ele>158.39999389648</ele>
        <time>2014-08-24T11:24:54.000Z</time>
      </trkpt>
      <trkpt lat="48.68686" lon="1.76035">
        <ele>158.80000305176</ele>
        <time>2014-08-24T11:25:00.000Z</time>
      </trkpt>
      <trkpt lat="48.68699" lon="1.76039">
        <ele>159.60000610352</ele>
        <time>2014-08-24T11:25:08.000Z</time>
      </trkpt>
      <trkpt lat="48.68707" lon="1.7604">
        <ele>160.19999694824</ele>
        <time>2014-08-24T11:25:14.000Z</time>
      </trkpt>
      <trkpt lat="48.6872" lon="1.76043">
        <ele>161</ele>
        <time>2014-08-24T11:25:22.000Z</time>
      </trkpt>
      <trkpt lat="48.68727" lon="1.76048">
        <ele>161.39999389648</ele>
        <time>2014-08-24T11:25:28.000Z</time>
      </trkpt>
      <trkpt lat="48.68737" lon="1.76053">
        <ele>162</ele>
        <time>2014-08-24T11:25:35.000Z</time>
      </trkpt>
      <trkpt lat="48.68752" lon="1.76057">
        <ele>163</ele>
        <time>2014-08-24T11:25:44.000Z</time>
      </trkpt>
      <trkpt lat="48.68759" lon="1.76059">
        <ele>163.39999389648</ele>
        <time>2014-08-24T11:25:50.000Z</time>
      </trkpt>
      <trkpt lat="48.68766" lon="1.76063">
        <ele>163.80000305176</ele>
        <time>2014-08-24T11:25:56.000Z</time>
      </trkpt>
      <trkpt lat="48.68775" lon="1.76069">
        <ele>164.19999694824</ele>
        <time>2014-08-24T11:26:03.000Z</time>
      </trkpt>
      <trkpt lat="48.68785" lon="1.76073">
        <ele>164.60000610352</ele>
        <time>2014-08-24T11:26:10.000Z</time>
      </trkpt>
      <trkpt lat="48.68798" lon="1.76079">
        <ele>165.39999389648</ele>
        <time>2014-08-24T11:26:20.000Z</time>
      </trkpt>
      <trkpt lat="48.68807" lon="1.76082">
        <ele>165.80000305176</ele>
        <time>2014-08-24T11:26:26.000Z</time>
      </trkpt>
      <trkpt lat="48.6881" lon="1.76082">
        <ele>165.80000305176</ele>
        <time>2014-08-24T11:26:28.000Z</time>
      </trkpt>
      <trkpt lat="48.6882" lon="1.76083">
        <ele>166.19999694824</ele>
        <time>2014-08-24T11:26:35.000Z</time>
      </trkpt>
      <trkpt lat="48.68828" lon="1.76085">
        <ele>166.60000610352</ele>
        <time>2014-08-24T11:26:40.000Z</time>
      </trkpt>
      <trkpt lat="48.68846" lon="1.76087">
        <ele>167.39999389648</ele>
        <time>2014-08-24T11:26:50.000Z</time>
      </trkpt>
      <trkpt lat="48.68855" lon="1.76091">
        <ele>167.80000305176</ele>
        <time>2014-08-24T11:26:58.000Z</time>
      </trkpt>
      <trkpt lat="48.6886" lon="1.76096">
        <ele>168.39999389648</ele>
        <time>2014-08-24T11:27:03.000Z</time>
      </trkpt>
      <trkpt lat="48.68862" lon="1.76097">
        <ele>168.60000610352</ele>
        <time>2014-08-24T11:27:04.000Z</time>
      </trkpt>
      <trkpt lat="48.68868" lon="1.76099">
        <ele>169</ele>
        <time>2014-08-24T11:27:09.000Z</time>
      </trkpt>
      <trkpt lat="48.68878" lon="1.76108">
        <ele>170.19999694824</ele>
        <time>2014-08-24T11:27:18.000Z</time>
      </trkpt>
      <trkpt lat="48.68891" lon="1.76111">
        <ele>171.19999694824</ele>
        <time>2014-08-24T11:27:26.000Z</time>
      </trkpt>
      <trkpt lat="48.68894" lon="1.76111">
        <ele>171.39999389648</ele>
        <time>2014-08-24T11:27:28.000Z</time>
      </trkpt>
      <trkpt lat="48.68901" lon="1.76113">
        <ele>171.80000305176</ele>
        <time>2014-08-24T11:27:33.000Z</time>
      </trkpt>
      <trkpt lat="48.6891" lon="1.76113">
        <ele>172.39999389648</ele>
        <time>2014-08-24T11:27:41.000Z</time>
      </trkpt>
      <trkpt lat="48.68917" lon="1.76113">
        <ele>172.80000305176</ele>
        <time>2014-08-24T11:27:47.000Z</time>
      </trkpt>
      <trkpt lat="48.68924" lon="1.76115">
        <ele>173.39999389648</ele>
        <time>2014-08-24T11:27:53.000Z</time>
      </trkpt>
      <trkpt lat="48.68933" lon="1.76123">
        <ele>174.19999694824</ele>
        <time>2014-08-24T11:28:00.000Z</time>
      </trkpt>
      <trkpt lat="48.68938" lon="1.76122">
        <ele>174.60000610352</ele>
        <time>2014-08-24T11:28:04.000Z</time>
      </trkpt>
      <trkpt lat="48.68944" lon="1.76119">
        <ele>175</ele>
        <time>2014-08-24T11:28:10.000Z</time>
      </trkpt>
      <trkpt lat="48.6895" lon="1.7612">
        <ele>175.39999389648</ele>
        <time>2014-08-24T11:28:16.000Z</time>
      </trkpt>
      <trkpt lat="48.6895" lon="1.76121">
        <ele>175.60000610352</ele>
        <time>2014-08-24T11:28:18.000Z</time>
      </trkpt>
      <trkpt lat="48.68959" lon="1.76131">
        <ele>176.80000305176</ele>
        <time>2014-08-24T11:28:42.000Z</time>
      </trkpt>
      <trkpt lat="48.6896" lon="1.76132">
        <ele>177</ele>
        <time>2014-08-24T11:28:43.000Z</time>
      </trkpt>
      <trkpt lat="48.68965" lon="1.76139">
        <ele>177.60000610352</ele>
        <time>2014-08-24T11:28:48.000Z</time>
      </trkpt>
      <trkpt lat="48.68971" lon="1.76142">
        <ele>178.19999694824</ele>
        <time>2014-08-24T11:28:51.000Z</time>
      </trkpt>
      <trkpt lat="48.68977" lon="1.76146">
        <ele>179</ele>
        <time>2014-08-24T11:28:56.000Z</time>
      </trkpt>
      <trkpt lat="48.68988" lon="1.76151">
        <ele>180.19999694824</ele>
        <time>2014-08-24T11:29:03.000Z</time>
      </trkpt>
      <trkpt lat="48.68994" lon="1.76156">
        <ele>180.80000305176</ele>
        <time>2014-08-24T11:29:08.000Z</time>
      </trkpt>
      <trkpt lat="48.68995" lon="1.76157">
        <ele>181</ele>
        <time>2014-08-24T11:29:10.000Z</time>
      </trkpt>
      <trkpt lat="48.69006" lon="1.7616">
        <ele>181.80000305176</ele>
        <time>2014-08-24T11:29:17.000Z</time>
      </trkpt>
      <trkpt lat="48.69007" lon="1.76161">
        <ele>182</ele>
        <time>2014-08-24T11:29:18.000Z</time>
      </trkpt>
      <trkpt lat="48.69015" lon="1.76163">
        <ele>182.60000610352</ele>
        <time>2014-08-24T11:29:22.000Z</time>
      </trkpt>
      <trkpt lat="48.69025" lon="1.76168">
        <ele>183</ele>
        <time>2014-08-24T11:29:29.000Z</time>
      </trkpt>
      <trkpt lat="48.69026" lon="1.76168">
        <ele>183</ele>
        <time>2014-08-24T11:29:30.000Z</time>
      </trkpt>
      <trkpt lat="48.69034" lon="1.76173">
        <ele>183.19999694824</ele>
        <time>2014-08-24T11:29:34.000Z</time>
      </trkpt>
      <trkpt lat="48.69041" lon="1.76173">
        <ele>183.19999694824</ele>
        <time>2014-08-24T11:29:39.000Z</time>
      </trkpt>
      <trkpt lat="48.6905" lon="1.76178">
        <ele>183.19999694824</ele>
        <time>2014-08-24T11:29:46.000Z</time>
      </trkpt>
      <trkpt lat="48.69058" lon="1.76183">
        <ele>183.19999694824</ele>
        <time>2014-08-24T11:29:52.000Z</time>
      </trkpt>
      <trkpt lat="48.69066" lon="1.76192">
        <ele>183.39999389648</ele>
        <time>2014-08-24T11:29:59.000Z</time>
      </trkpt>
      <trkpt lat="48.69073" lon="1.76201">
        <ele>183.39999389648</ele>
        <time>2014-08-24T11:30:06.000Z</time>
      </trkpt>
      <trkpt lat="48.69075" lon="1.76202">
        <ele>183.39999389648</ele>
        <time>2014-08-24T11:30:07.000Z</time>
      </trkpt>
      <trkpt lat="48.69086" lon="1.7621">
        <ele>183.60000610352</ele>
        <time>2014-08-24T11:30:15.000Z</time>
      </trkpt>
      <trkpt lat="48.69098" lon="1.76215">
        <ele>183.60000610352</ele>
        <time>2014-08-24T11:30:22.000Z</time>
      </trkpt>
      <trkpt lat="48.69107" lon="1.76218">
        <ele>183.39999389648</ele>
        <time>2014-08-24T11:30:28.000Z</time>
      </trkpt>
      <trkpt lat="48.69111" lon="1.76223">
        <ele>183.60000610352</ele>
        <time>2014-08-24T11:30:32.000Z</time>
      </trkpt>
      <trkpt lat="48.6912" lon="1.76228">
        <ele>183.60000610352</ele>
        <time>2014-08-24T11:30:38.000Z</time>
      </trkpt>
      <trkpt lat="48.69132" lon="1.76226">
        <ele>183.39999389648</ele>
        <time>2014-08-24T11:30:45.000Z</time>
      </trkpt>
      <trkpt lat="48.69141" lon="1.76233">
        <ele>183.39999389648</ele>
        <time>2014-08-24T11:30:52.000Z</time>
      </trkpt>
      <trkpt lat="48.69146" lon="1.76237">
        <ele>183.39999389648</ele>
        <time>2014-08-24T11:30:56.000Z</time>
      </trkpt>
      <trkpt lat="48.69154" lon="1.76241">
        <ele>183.39999389648</ele>
        <time>2014-08-24T11:31:02.000Z</time>
      </trkpt>
      <trkpt lat="48.69162" lon="1.76247">
        <ele>183.19999694824</ele>
        <time>2014-08-24T11:31:07.000Z</time>
      </trkpt>
      <trkpt lat="48.69167" lon="1.76251">
        <ele>183.19999694824</ele>
        <time>2014-08-24T11:31:11.000Z</time>
      </trkpt>
      <trkpt lat="48.69177" lon="1.76258">
        <ele>183.19999694824</ele>
        <time>2014-08-24T11:31:19.000Z</time>
      </trkpt>
      <trkpt lat="48.69183" lon="1.76265">
        <ele>183</ele>
        <time>2014-08-24T11:31:24.000Z</time>
      </trkpt>
      <trkpt lat="48.6919" lon="1.7627">
        <ele>183</ele>
        <time>2014-08-24T11:31:30.000Z</time>
      </trkpt>
      <trkpt lat="48.69199" lon="1.76274">
        <ele>182.60000610352</ele>
        <time>2014-08-24T11:31:37.000Z</time>
      </trkpt>
      <trkpt lat="48.69205" lon="1.76275">
        <ele>182.60000610352</ele>
        <time>2014-08-24T11:31:41.000Z</time>
      </trkpt>
      <trkpt lat="48.6921" lon="1.76278">
        <ele>182.39999389648</ele>
        <time>2014-08-24T11:31:45.000Z</time>
      </trkpt>
      <trkpt lat="48.69218" lon="1.76283">
        <ele>182.19999694824</ele>
        <time>2014-08-24T11:31:51.000Z</time>
      </trkpt>
      <trkpt lat="48.69224" lon="1.76289">
        <ele>182.19999694824</ele>
        <time>2014-08-24T11:31:56.000Z</time>
      </trkpt>
      <trkpt lat="48.69229" lon="1.76294">
        <ele>182</ele>
        <time>2014-08-24T11:32:01.000Z</time>
      </trkpt>
      <trkpt lat="48.69234" lon="1.76298">
        <ele>181.80000305176</ele>
        <time>2014-08-24T11:32:06.000Z</time>
      </trkpt>
      <trkpt lat="48.6924" lon="1.76301">
        <ele>181.80000305176</ele>
        <time>2014-08-24T11:32:11.000Z</time>
      </trkpt>
      <trkpt lat="48.69247" lon="1.76308">
        <ele>181.60000610352</ele>
        <time>2014-08-24T11:32:16.000Z</time>
      </trkpt>
      <trkpt lat="48.69248" lon="1.76309">
        <ele>181.60000610352</ele>
        <time>2014-08-24T11:32:17.000Z</time>
      </trkpt>
      <trkpt lat="48.69258" lon="1.76313">
        <ele>181.19999694824</ele>
        <time>2014-08-24T11:32:24.000Z</time>
      </trkpt>
      <trkpt lat="48.69267" lon="1.76314">
        <ele>181.19999694824</ele>
        <time>2014-08-24T11:32:29.000Z</time>
      </trkpt>
      <trkpt lat="48.69276" lon="1.7632">
        <ele>181</ele>
        <time>2014-08-24T11:32:36.000Z</time>
      </trkpt>
      <trkpt lat="48.69286" lon="1.76327">
        <ele>180.80000305176</ele>
        <time>2014-08-24T11:32:42.000Z</time>
      </trkpt>
      <trkpt lat="48.6929" lon="1.7633">
        <ele>180.80000305176</ele>
        <time>2014-08-24T11:32:45.000Z</time>
      </trkpt>
      <trkpt lat="48.69294" lon="1.76328">
        <ele>180.80000305176</ele>
        <time>2014-08-24T11:32:49.000Z</time>
      </trkpt>
      <trkpt lat="48.69302" lon="1.76316">
        <ele>181.39999389648</ele>
        <time>2014-08-24T11:32:56.000Z</time>
      </trkpt>
      <trkpt lat="48.6931" lon="1.763">
        <ele>181.80000305176</ele>
        <time>2014-08-24T11:33:04.000Z</time>
      </trkpt>
      <trkpt lat="48.69315" lon="1.76293">
        <ele>181.80000305176</ele>
        <time>2014-08-24T11:33:09.000Z</time>
      </trkpt>
      <trkpt lat="48.6932" lon="1.76284">
        <ele>182</ele>
        <time>2014-08-24T11:33:14.000Z</time>
      </trkpt>
      <trkpt lat="48.69325" lon="1.7628">
        <ele>182.19999694824</ele>
        <time>2014-08-24T11:33:18.000Z</time>
      </trkpt>
      <trkpt lat="48.69332" lon="1.76272">
        <ele>182.39999389648</ele>
        <time>2014-08-24T11:33:24.000Z</time>
      </trkpt>
      <trkpt lat="48.69336" lon="1.76267">
        <ele>182.39999389648</ele>
        <time>2014-08-24T11:33:28.000Z</time>
      </trkpt>
      <trkpt lat="48.69338" lon="1.76264">
        <ele>182.60000610352</ele>
        <time>2014-08-24T11:33:30.000Z</time>
      </trkpt>
      <trkpt lat="48.69344" lon="1.76253">
        <ele>182.80000305176</ele>
        <time>2014-08-24T11:33:36.000Z</time>
      </trkpt>
      <trkpt lat="48.69351" lon="1.76239">
        <ele>183</ele>
        <time>2014-08-24T11:33:44.000Z</time>
      </trkpt>
      <trkpt lat="48.69352" lon="1.76235">
        <ele>183</ele>
        <time>2014-08-24T11:33:46.000Z</time>
      </trkpt>
      <trkpt lat="48.69355" lon="1.76222">
        <ele>182.80000305176</ele>
        <time>2014-08-24T11:33:53.000Z</time>
      </trkpt>
      <trkpt lat="48.69358" lon="1.76217">
        <ele>182.60000610352</ele>
        <time>2014-08-24T11:33:56.000Z</time>
      </trkpt>
      <trkpt lat="48.69363" lon="1.76204">
        <ele>182.39999389648</ele>
        <time>2014-08-24T11:34:03.000Z</time>
      </trkpt>
      <trkpt lat="48.69368" lon="1.7619">
        <ele>182.19999694824</ele>
        <time>2014-08-24T11:34:10.000Z</time>
      </trkpt>
      <trkpt lat="48.69376" lon="1.76176">
        <ele>182</ele>
        <time>2014-08-24T11:34:18.000Z</time>
      </trkpt>
      <trkpt lat="48.69379" lon="1.76171">
        <ele>182</ele>
        <time>2014-08-24T11:34:21.000Z</time>
      </trkpt>
      <trkpt lat="48.69385" lon="1.7616">
        <ele>182</ele>
        <time>2014-08-24T11:34:28.000Z</time>
      </trkpt>
      <trkpt lat="48.69389" lon="1.76149">
        <ele>181.80000305176</ele>
        <time>2014-08-24T11:34:34.000Z</time>
      </trkpt>
      <trkpt lat="48.69392" lon="1.76141">
        <ele>181.39999389648</ele>
        <time>2014-08-24T11:34:39.000Z</time>
      </trkpt>
      <trkpt lat="48.694" lon="1.76143">
        <ele>181.39999389648</ele>
        <time>2014-08-24T11:34:46.000Z</time>
      </trkpt>
      <trkpt lat="48.69409" lon="1.76144">
        <ele>181.60000610352</ele>
        <time>2014-08-24T11:34:53.000Z</time>
      </trkpt>
      <trkpt lat="48.69418" lon="1.76149">
        <ele>181.80000305176</ele>
        <time>2014-08-24T11:35:00.000Z</time>
      </trkpt>
      <trkpt lat="48.69421" lon="1.7615">
        <ele>181.80000305176</ele>
        <time>2014-08-24T11:35:02.000Z</time>
      </trkpt>
      <trkpt lat="48.69426" lon="1.7615">
        <ele>181.80000305176</ele>
        <time>2014-08-24T11:35:06.000Z</time>
      </trkpt>
      <trkpt lat="48.69434" lon="1.76153">
        <ele>182</ele>
        <time>2014-08-24T11:35:13.000Z</time>
      </trkpt>
      <trkpt lat="48.69441" lon="1.76155">
        <ele>182</ele>
        <time>2014-08-24T11:35:19.000Z</time>
      </trkpt>
      <trkpt lat="48.69451" lon="1.7616">
        <ele>182.19999694824</ele>
        <time>2014-08-24T11:35:26.000Z</time>
      </trkpt>
      <trkpt lat="48.6946" lon="1.76163">
        <ele>182.39999389648</ele>
        <time>2014-08-24T11:35:33.000Z</time>
      </trkpt>
      <trkpt lat="48.69466" lon="1.76167">
        <ele>182.39999389648</ele>
        <time>2014-08-24T11:35:38.000Z</time>
      </trkpt>
      <trkpt lat="48.69471" lon="1.7617">
        <ele>182.60000610352</ele>
        <time>2014-08-24T11:35:43.000Z</time>
      </trkpt>
      <trkpt lat="48.69472" lon="1.76171">
        <ele>182.60000610352</ele>
        <time>2014-08-24T11:35:44.000Z</time>
      </trkpt>
      <trkpt lat="48.69478" lon="1.76174">
        <ele>182.80000305176</ele>
        <time>2014-08-24T11:35:48.000Z</time>
      </trkpt>
      <trkpt lat="48.69485" lon="1.76178">
        <ele>182.80000305176</ele>
        <time>2014-08-24T11:35:53.000Z</time>
      </trkpt>
      <trkpt lat="48.69492" lon="1.76188">
        <ele>183</ele>
        <time>2014-08-24T11:36:00.000Z</time>
      </trkpt>
      <trkpt lat="48.69494" lon="1.7619">
        <ele>183.19999694824</ele>
        <time>2014-08-24T11:36:01.000Z</time>
      </trkpt>
      <trkpt lat="48.69504" lon="1.76203">
        <ele>183.39999389648</ele>
        <time>2014-08-24T11:36:10.000Z</time>
      </trkpt>
      <trkpt lat="48.69511" lon="1.76214">
        <ele>183.60000610352</ele>
        <time>2014-08-24T11:36:17.000Z</time>
      </trkpt>
      <trkpt lat="48.69513" lon="1.76217">
        <ele>183.60000610352</ele>
        <time>2014-08-24T11:36:19.000Z</time>
      </trkpt>
      <trkpt lat="48.6952" lon="1.76227">
        <ele>183.80000305176</ele>
        <time>2014-08-24T11:36:26.000Z</time>
      </trkpt>
      <trkpt lat="48.69523" lon="1.76231">
        <ele>184</ele>
        <time>2014-08-24T11:36:29.000Z</time>
      </trkpt>
      <trkpt lat="48.6953" lon="1.76242">
        <ele>184</ele>
        <time>2014-08-24T11:36:36.000Z</time>
      </trkpt>
      <trkpt lat="48.69536" lon="1.76252">
        <ele>183.80000305176</ele>
        <time>2014-08-24T11:36:42.000Z</time>
      </trkpt>
      <trkpt lat="48.69538" lon="1.76255">
        <ele>183.80000305176</ele>
        <time>2014-08-24T11:36:44.000Z</time>
      </trkpt>
      <trkpt lat="48.69542" lon="1.7626">
        <ele>183.80000305176</ele>
        <time>2014-08-24T11:36:48.000Z</time>
      </trkpt>
      <trkpt lat="48.69548" lon="1.76272">
        <ele>183.60000610352</ele>
        <time>2014-08-24T11:36:55.000Z</time>
      </trkpt>
      <trkpt lat="48.69556" lon="1.76285">
        <ele>183.39999389648</ele>
        <time>2014-08-24T11:37:04.000Z</time>
      </trkpt>
      <trkpt lat="48.69561" lon="1.76293">
        <ele>183.39999389648</ele>
        <time>2014-08-24T11:37:11.000Z</time>
      </trkpt>
      <trkpt lat="48.69571" lon="1.76303">
        <ele>183.19999694824</ele>
        <time>2014-08-24T11:37:19.000Z</time>
      </trkpt>
      <trkpt lat="48.69575" lon="1.76312">
        <ele>183.19999694824</ele>
        <time>2014-08-24T11:37:25.000Z</time>
      </trkpt>
      <trkpt lat="48.69577" lon="1.76315">
        <ele>183</ele>
        <time>2014-08-24T11:37:27.000Z</time>
      </trkpt>
      <trkpt lat="48.69579" lon="1.76317">
        <ele>183</ele>
        <time>2014-08-24T11:37:29.000Z</time>
      </trkpt>
      <trkpt lat="48.69587" lon="1.76328">
        <ele>183</ele>
        <time>2014-08-24T11:37:37.000Z</time>
      </trkpt>
      <trkpt lat="48.69589" lon="1.76332">
        <ele>182.80000305176</ele>
        <time>2014-08-24T11:37:39.000Z</time>
      </trkpt>
      <trkpt lat="48.69595" lon="1.76344">
        <ele>182.80000305176</ele>
        <time>2014-08-24T11:37:46.000Z</time>
      </trkpt>
      <trkpt lat="48.69599" lon="1.76353">
        <ele>182.60000610352</ele>
        <time>2014-08-24T11:37:51.000Z</time>
      </trkpt>
      <trkpt lat="48.69604" lon="1.76363">
        <ele>182.39999389648</ele>
        <time>2014-08-24T11:37:57.000Z</time>
      </trkpt>
      <trkpt lat="48.69609" lon="1.76371">
        <ele>182.39999389648</ele>
        <time>2014-08-24T11:38:02.000Z</time>
      </trkpt>
      <trkpt lat="48.69613" lon="1.76377">
        <ele>182.39999389648</ele>
        <time>2014-08-24T11:38:06.000Z</time>
      </trkpt>
      <trkpt lat="48.69616" lon="1.76387">
        <ele>182.19999694824</ele>
        <time>2014-08-24T11:38:12.000Z</time>
      </trkpt>
      <trkpt lat="48.6962" lon="1.76392">
        <ele>182.19999694824</ele>
        <time>2014-08-24T11:38:16.000Z</time>
      </trkpt>
      <trkpt lat="48.69626" lon="1.76401">
        <ele>182</ele>
        <time>2014-08-24T11:38:22.000Z</time>
      </trkpt>
      <trkpt lat="48.69632" lon="1.76405">
        <ele>182</ele>
        <time>2014-08-24T11:38:28.000Z</time>
      </trkpt>
      <trkpt lat="48.69632" lon="1.76407">
        <ele>182</ele>
        <time>2014-08-24T11:38:29.000Z</time>
      </trkpt>
      <trkpt lat="48.69635" lon="1.76419">
        <ele>182</ele>
        <time>2014-08-24T11:38:36.000Z</time>
      </trkpt>
      <trkpt lat="48.69642" lon="1.76431">
        <ele>182</ele>
        <time>2014-08-24T11:38:44.000Z</time>
      </trkpt>
      <trkpt lat="48.69649" lon="1.76441">
        <ele>182</ele>
        <time>2014-08-24T11:38:51.000Z</time>
      </trkpt>
      <trkpt lat="48.69653" lon="1.76451">
        <ele>182</ele>
        <time>2014-08-24T11:38:57.000Z</time>
      </trkpt>
      <trkpt lat="48.6966" lon="1.76461">
        <ele>182</ele>
        <time>2014-08-24T11:39:04.000Z</time>
      </trkpt>
      <trkpt lat="48.6966" lon="1.76463">
        <ele>182</ele>
        <time>2014-08-24T11:39:05.000Z</time>
      </trkpt>
      <trkpt lat="48.69669" lon="1.76476">
        <ele>181.80000305176</ele>
        <time>2014-08-24T11:39:13.000Z</time>
      </trkpt>
      <trkpt lat="48.69673" lon="1.76483">
        <ele>181.60000610352</ele>
        <time>2014-08-24T11:39:17.000Z</time>
      </trkpt>
      <trkpt lat="48.69677" lon="1.76488">
        <ele>181.60000610352</ele>
        <time>2014-08-24T11:39:21.000Z</time>
      </trkpt>
      <trkpt lat="48.69685" lon="1.76498">
        <ele>181.60000610352</ele>
        <time>2014-08-24T11:39:29.000Z</time>
      </trkpt>
      <trkpt lat="48.6969" lon="1.76509">
        <ele>181.39999389648</ele>
        <time>2014-08-24T11:39:35.000Z</time>
      </trkpt>
      <trkpt lat="48.69696" lon="1.76522">
        <ele>181.39999389648</ele>
        <time>2014-08-24T11:39:43.000Z</time>
      </trkpt>
      <trkpt lat="48.69702" lon="1.76532">
        <ele>181.39999389648</ele>
        <time>2014-08-24T11:39:49.000Z</time>
      </trkpt>
      <trkpt lat="48.6971" lon="1.76539">
        <ele>181.60000610352</ele>
        <time>2014-08-24T11:39:56.000Z</time>
      </trkpt>
      <trkpt lat="48.69715" lon="1.76548">
        <ele>181.60000610352</ele>
        <time>2014-08-24T11:40:02.000Z</time>
      </trkpt>
      <trkpt lat="48.69723" lon="1.76557">
        <ele>181.60000610352</ele>
        <time>2014-08-24T11:40:09.000Z</time>
      </trkpt>
      <trkpt lat="48.69728" lon="1.7657">
        <ele>181.60000610352</ele>
        <time>2014-08-24T11:40:16.000Z</time>
      </trkpt>
      <trkpt lat="48.6973" lon="1.76573">
        <ele>181.60000610352</ele>
        <time>2014-08-24T11:40:18.000Z</time>
      </trkpt>
      <trkpt lat="48.69734" lon="1.76577">
        <ele>181.80000305176</ele>
        <time>2014-08-24T11:40:22.000Z</time>
      </trkpt>
      <trkpt lat="48.69742" lon="1.76588">
        <ele>182.39999389648</ele>
        <time>2014-08-24T11:40:30.000Z</time>
      </trkpt>
      <trkpt lat="48.69744" lon="1.76593">
        <ele>182.39999389648</ele>
        <time>2014-08-24T11:40:33.000Z</time>
      </trkpt>
      <trkpt lat="48.69745" lon="1.76599">
        <ele>182.60000610352</ele>
        <time>2014-08-24T11:40:36.000Z</time>
      </trkpt>
      <trkpt lat="48.69751" lon="1.76608">
        <ele>182.80000305176</ele>
        <time>2014-08-24T11:40:42.000Z</time>
      </trkpt>
      <trkpt lat="48.69755" lon="1.76611">
        <ele>183.19999694824</ele>
        <time>2014-08-24T11:40:45.000Z</time>
      </trkpt>
      <trkpt lat="48.69762" lon="1.76622">
        <ele>183.39999389648</ele>
        <time>2014-08-24T11:40:53.000Z</time>
      </trkpt>
      <trkpt lat="48.69768" lon="1.76631">
        <ele>183.80000305176</ele>
        <time>2014-08-24T11:41:00.000Z</time>
      </trkpt>
      <trkpt lat="48.69778" lon="1.76642">
        <ele>184</ele>
        <time>2014-08-24T11:41:09.000Z</time>
      </trkpt>
      <trkpt lat="48.69786" lon="1.76649">
        <ele>184</ele>
        <time>2014-08-24T11:41:15.000Z</time>
      </trkpt>
      <trkpt lat="48.69795" lon="1.76659">
        <ele>184.19999694824</ele>
        <time>2014-08-24T11:41:24.000Z</time>
      </trkpt>
      <trkpt lat="48.69798" lon="1.76664">
        <ele>184.19999694824</ele>
        <time>2014-08-24T11:41:27.000Z</time>
      </trkpt>
      <trkpt lat="48.69804" lon="1.76671">
        <ele>184.39999389648</ele>
        <time>2014-08-24T11:41:33.000Z</time>
      </trkpt>
      <trkpt lat="48.69809" lon="1.76677">
        <ele>184.60000610352</ele>
        <time>2014-08-24T11:41:37.000Z</time>
      </trkpt>
      <trkpt lat="48.69812" lon="1.76682">
        <ele>184.60000610352</ele>
        <time>2014-08-24T11:41:41.000Z</time>
      </trkpt>
      <trkpt lat="48.6982" lon="1.76691">
        <ele>184.80000305176</ele>
        <time>2014-08-24T11:41:48.000Z</time>
      </trkpt>
      <trkpt lat="48.69825" lon="1.76696">
        <ele>185</ele>
        <time>2014-08-24T11:41:52.000Z</time>
      </trkpt>
      <trkpt lat="48.69834" lon="1.76706">
        <ele>185.19999694824</ele>
        <time>2014-08-24T11:41:59.000Z</time>
      </trkpt>
      <trkpt lat="48.69838" lon="1.76711">
        <ele>185.39999389648</ele>
        <time>2014-08-24T11:42:03.000Z</time>
      </trkpt>
      <trkpt lat="48.69847" lon="1.76719">
        <ele>185.60000610352</ele>
        <time>2014-08-24T11:42:11.000Z</time>
      </trkpt>
      <trkpt lat="48.69858" lon="1.76731">
        <ele>185.80000305176</ele>
        <time>2014-08-24T11:42:20.000Z</time>
      </trkpt>
      <trkpt lat="48.69859" lon="1.76732">
        <ele>185.80000305176</ele>
        <time>2014-08-24T11:42:21.000Z</time>
      </trkpt>
      <trkpt lat="48.69865" lon="1.76737">
        <ele>185.80000305176</ele>
        <time>2014-08-24T11:42:26.000Z</time>
      </trkpt>
      <trkpt lat="48.69874" lon="1.76748">
        <ele>185.19999694824</ele>
        <time>2014-08-24T11:42:34.000Z</time>
      </trkpt>
      <trkpt lat="48.6988" lon="1.76756">
        <ele>184.80000305176</ele>
        <time>2014-08-24T11:42:40.000Z</time>
      </trkpt>
      <trkpt lat="48.69888" lon="1.76766">
        <ele>184.19999694824</ele>
        <time>2014-08-24T11:42:48.000Z</time>
      </trkpt>
      <trkpt lat="48.69896" lon="1.76774">
        <ele>183.60000610352</ele>
        <time>2014-08-24T11:42:55.000Z</time>
      </trkpt>
      <trkpt lat="48.69904" lon="1.76783">
        <ele>183.19999694824</ele>
        <time>2014-08-24T11:43:01.000Z</time>
      </trkpt>
      <trkpt lat="48.69906" lon="1.76785">
        <ele>183</ele>
        <time>2014-08-24T11:43:03.000Z</time>
      </trkpt>
      <trkpt lat="48.69913" lon="1.76783">
        <ele>183</ele>
        <time>2014-08-24T11:43:10.000Z</time>
      </trkpt>
      <trkpt lat="48.69914" lon="1.76782">
        <ele>183</ele>
        <time>2014-08-24T11:43:11.000Z</time>
      </trkpt>
      <trkpt lat="48.69923" lon="1.76779">
        <ele>182.80000305176</ele>
        <time>2014-08-24T11:43:18.000Z</time>
      </trkpt>
      <trkpt lat="48.69934" lon="1.76779">
        <ele>182.60000610352</ele>
        <time>2014-08-24T11:43:26.000Z</time>
      </trkpt>
      <trkpt lat="48.69936" lon="1.76778">
        <ele>182.60000610352</ele>
        <time>2014-08-24T11:43:27.000Z</time>
      </trkpt>
      <trkpt lat="48.69948" lon="1.76778">
        <ele>183</ele>
        <time>2014-08-24T11:43:36.000Z</time>
      </trkpt>
      <trkpt lat="48.69962" lon="1.76778">
        <ele>183.39999389648</ele>
        <time>2014-08-24T11:43:45.000Z</time>
      </trkpt>
      <trkpt lat="48.69973" lon="1.76777">
        <ele>184</ele>
        <time>2014-08-24T11:43:54.000Z</time>
      </trkpt>
      <trkpt lat="48.69983" lon="1.76776">
        <ele>184.19999694824</ele>
        <time>2014-08-24T11:44:01.000Z</time>
      </trkpt>
      <trkpt lat="48.69994" lon="1.76777">
        <ele>184.39999389648</ele>
        <time>2014-08-24T11:44:09.000Z</time>
      </trkpt>
      <trkpt lat="48.70004" lon="1.76779">
        <ele>184.60000610352</ele>
        <time>2014-08-24T11:44:16.000Z</time>
      </trkpt>
      <trkpt lat="48.70006" lon="1.76779">
        <ele>184.60000610352</ele>
        <time>2014-08-24T11:44:17.000Z</time>
      </trkpt>
      <trkpt lat="48.70014" lon="1.76777">
        <ele>185</ele>
        <time>2014-08-24T11:44:22.000Z</time>
      </trkpt>
      <trkpt lat="48.70019" lon="1.7678">
        <ele>185</ele>
        <time>2014-08-24T11:44:27.000Z</time>
      </trkpt>
      <trkpt lat="48.70029" lon="1.7678">
        <ele>185</ele>
        <time>2014-08-24T11:44:35.000Z</time>
      </trkpt>
      <trkpt lat="48.7004" lon="1.76781">
        <ele>185.19999694824</ele>
        <time>2014-08-24T11:44:43.000Z</time>
      </trkpt>
      <trkpt lat="48.70047" lon="1.76783">
        <ele>185.19999694824</ele>
        <time>2014-08-24T11:44:48.000Z</time>
      </trkpt>
      <trkpt lat="48.70059" lon="1.76784">
        <ele>185.39999389648</ele>
        <time>2014-08-24T11:44:56.000Z</time>
      </trkpt>
      <trkpt lat="48.70068" lon="1.76783">
        <ele>185.39999389648</ele>
        <time>2014-08-24T11:45:02.000Z</time>
      </trkpt>
      <trkpt lat="48.70078" lon="1.76781">
        <ele>185.39999389648</ele>
        <time>2014-08-24T11:45:10.000Z</time>
      </trkpt>
      <trkpt lat="48.70087" lon="1.7678">
        <ele>185.39999389648</ele>
        <time>2014-08-24T11:45:17.000Z</time>
      </trkpt>
      <trkpt lat="48.70094" lon="1.76782">
        <ele>185.39999389648</ele>
        <time>2014-08-24T11:45:23.000Z</time>
      </trkpt>
      <trkpt lat="48.70101" lon="1.76783">
        <ele>185.39999389648</ele>
        <time>2014-08-24T11:45:29.000Z</time>
      </trkpt>
      <trkpt lat="48.7011" lon="1.76783">
        <ele>185</ele>
        <time>2014-08-24T11:45:36.000Z</time>
      </trkpt>
      <trkpt lat="48.70116" lon="1.76784">
        <ele>184.80000305176</ele>
        <time>2014-08-24T11:45:42.000Z</time>
      </trkpt>
      <trkpt lat="48.70122" lon="1.76785">
        <ele>184.39999389648</ele>
        <time>2014-08-24T11:45:47.000Z</time>
      </trkpt>
      <trkpt lat="48.70132" lon="1.76784">
        <ele>183.80000305176</ele>
        <time>2014-08-24T11:45:54.000Z</time>
      </trkpt>
      <trkpt lat="48.70141" lon="1.76781">
        <ele>183.19999694824</ele>
        <time>2014-08-24T11:46:01.000Z</time>
      </trkpt>
      <trkpt lat="48.7015" lon="1.76777">
        <ele>182.80000305176</ele>
        <time>2014-08-24T11:46:08.000Z</time>
      </trkpt>
      <trkpt lat="48.70158" lon="1.76772">
        <ele>182.60000610352</ele>
        <time>2014-08-24T11:46:14.000Z</time>
      </trkpt>
      <trkpt lat="48.70159" lon="1.76771">
        <ele>182.60000610352</ele>
        <time>2014-08-24T11:46:15.000Z</time>
      </trkpt>
      <trkpt lat="48.70167" lon="1.76763">
        <ele>182.39999389648</ele>
        <time>2014-08-24T11:46:22.000Z</time>
      </trkpt>
      <trkpt lat="48.70175" lon="1.76749">
        <ele>182.19999694824</ele>
        <time>2014-08-24T11:46:30.000Z</time>
      </trkpt>
      <trkpt lat="48.70181" lon="1.76746">
        <ele>182</ele>
        <time>2014-08-24T11:46:36.000Z</time>
      </trkpt>
      <trkpt lat="48.70186" lon="1.76741">
        <ele>182</ele>
        <time>2014-08-24T11:46:42.000Z</time>
      </trkpt>
      <trkpt lat="48.70194" lon="1.76732">
        <ele>182</ele>
        <time>2014-08-24T11:46:49.000Z</time>
      </trkpt>
      <trkpt lat="48.70202" lon="1.7672">
        <ele>182</ele>
        <time>2014-08-24T11:46:56.000Z</time>
      </trkpt>
      <trkpt lat="48.70211" lon="1.76713">
        <ele>182</ele>
        <time>2014-08-24T11:47:04.000Z</time>
      </trkpt>
      <trkpt lat="48.7022" lon="1.76708">
        <ele>182</ele>
        <time>2014-08-24T11:47:12.000Z</time>
      </trkpt>
      <trkpt lat="48.70229" lon="1.76702">
        <ele>181.80000305176</ele>
        <time>2014-08-24T11:47:19.000Z</time>
      </trkpt>
      <trkpt lat="48.70231" lon="1.76699">
        <ele>181.80000305176</ele>
        <time>2014-08-24T11:47:24.000Z</time>
      </trkpt>
      <trkpt lat="48.70247" lon="1.76686">
        <ele>181.19999694824</ele>
        <time>2014-08-24T11:47:42.000Z</time>
      </trkpt>
      <trkpt lat="48.70259" lon="1.76684">
        <ele>180.60000610352</ele>
        <time>2014-08-24T11:47:49.000Z</time>
      </trkpt>
      <trkpt lat="48.7027" lon="1.76683">
        <ele>180</ele>
        <time>2014-08-24T11:47:57.000Z</time>
      </trkpt>
      <trkpt lat="48.7028" lon="1.76677">
        <ele>179.80000305176</ele>
        <time>2014-08-24T11:48:03.000Z</time>
      </trkpt>
      <trkpt lat="48.7029" lon="1.76672">
        <ele>179.60000610352</ele>
        <time>2014-08-24T11:48:10.000Z</time>
      </trkpt>
      <trkpt lat="48.703" lon="1.76666">
        <ele>179.19999694824</ele>
        <time>2014-08-24T11:48:17.000Z</time>
      </trkpt>
      <trkpt lat="48.70304" lon="1.76665">
        <ele>179.19999694824</ele>
        <time>2014-08-24T11:48:20.000Z</time>
      </trkpt>
      <trkpt lat="48.7031" lon="1.76658">
        <ele>179</ele>
        <time>2014-08-24T11:48:26.000Z</time>
      </trkpt>
      <trkpt lat="48.7032" lon="1.76652">
        <ele>178.80000305176</ele>
        <time>2014-08-24T11:48:34.000Z</time>
      </trkpt>
      <trkpt lat="48.70327" lon="1.76643">
        <ele>178.60000610352</ele>
        <time>2014-08-24T11:48:41.000Z</time>
      </trkpt>
      <trkpt lat="48.70329" lon="1.76639">
        <ele>178.60000610352</ele>
        <time>2014-08-24T11:48:44.000Z</time>
      </trkpt>
      <trkpt lat="48.70332" lon="1.76634">
        <ele>178.60000610352</ele>
        <time>2014-08-24T11:48:48.000Z</time>
      </trkpt>
      <trkpt lat="48.70339" lon="1.7663">
        <ele>178.39999389648</ele>
        <time>2014-08-24T11:48:54.000Z</time>
      </trkpt>
      <trkpt lat="48.70344" lon="1.76626">
        <ele>178.19999694824</ele>
        <time>2014-08-24T11:48:58.000Z</time>
      </trkpt>
      <trkpt lat="48.70351" lon="1.76622">
        <ele>178</ele>
        <time>2014-08-24T11:49:04.000Z</time>
      </trkpt>
      <trkpt lat="48.70357" lon="1.76621">
        <ele>178</ele>
        <time>2014-08-24T11:49:08.000Z</time>
      </trkpt>
      <trkpt lat="48.70369" lon="1.76615">
        <ele>178.39999389648</ele>
        <time>2014-08-24T11:49:16.000Z</time>
      </trkpt>
      <trkpt lat="48.70373" lon="1.76613">
        <ele>178.39999389648</ele>
        <time>2014-08-24T11:49:22.000Z</time>
      </trkpt>
      <trkpt lat="48.70377" lon="1.76611">
        <ele>178.60000610352</ele>
        <time>2014-08-24T11:49:26.000Z</time>
      </trkpt>
      <trkpt lat="48.70385" lon="1.76607">
        <ele>178.80000305176</ele>
        <time>2014-08-24T11:49:32.000Z</time>
      </trkpt>
      <trkpt lat="48.70389" lon="1.76604">
        <ele>178.80000305176</ele>
        <time>2014-08-24T11:49:36.000Z</time>
      </trkpt>
      <trkpt lat="48.704" lon="1.76598">
        <ele>179.39999389648</ele>
        <time>2014-08-24T11:49:44.000Z</time>
      </trkpt>
      <trkpt lat="48.7041" lon="1.76594">
        <ele>179.80000305176</ele>
        <time>2014-08-24T11:49:51.000Z</time>
      </trkpt>
      <trkpt lat="48.7042" lon="1.76591">
        <ele>180.19999694824</ele>
        <time>2014-08-24T11:49:58.000Z</time>
      </trkpt>
      <trkpt lat="48.70431" lon="1.76583">
        <ele>180.60000610352</ele>
        <time>2014-08-24T11:50:06.000Z</time>
      </trkpt>
      <trkpt lat="48.70433" lon="1.76576">
        <ele>180.80000305176</ele>
        <time>2014-08-24T11:50:09.000Z</time>
      </trkpt>
      <trkpt lat="48.70436" lon="1.76562">
        <ele>181</ele>
        <time>2014-08-24T11:50:15.000Z</time>
      </trkpt>
      <trkpt lat="48.70437" lon="1.76559">
        <ele>181.19999694824</ele>
        <time>2014-08-24T11:50:16.000Z</time>
      </trkpt>
      <trkpt lat="48.7044" lon="1.76548">
        <ele>181.19999694824</ele>
        <time>2014-08-24T11:50:21.000Z</time>
      </trkpt>
      <trkpt lat="48.70441" lon="1.76542">
        <ele>181.19999694824</ele>
        <time>2014-08-24T11:50:24.000Z</time>
      </trkpt>
      <trkpt lat="48.70443" lon="1.76528">
        <ele>181.19999694824</ele>
        <time>2014-08-24T11:50:30.000Z</time>
      </trkpt>
      <trkpt lat="48.70446" lon="1.7651">
        <ele>181.39999389648</ele>
        <time>2014-08-24T11:50:36.000Z</time>
      </trkpt>
      <trkpt lat="48.70446" lon="1.76507">
        <ele>181.39999389648</ele>
        <time>2014-08-24T11:50:37.000Z</time>
      </trkpt>
      <trkpt lat="48.70448" lon="1.76495">
        <ele>181.19999694824</ele>
        <time>2014-08-24T11:50:40.000Z</time>
      </trkpt>
      <trkpt lat="48.70456" lon="1.76462">
        <ele>179.39999389648</ele>
        <time>2014-08-24T11:50:47.000Z</time>
      </trkpt>
      <trkpt lat="48.70461" lon="1.76441">
        <ele>178</ele>
        <time>2014-08-24T11:50:52.000Z</time>
      </trkpt>
      <trkpt lat="48.7046" lon="1.7642">
        <ele>177.39999389648</ele>
        <time>2014-08-24T11:50:56.000Z</time>
      </trkpt>
      <trkpt lat="48.70456" lon="1.76392">
        <ele>176.60000610352</ele>
        <time>2014-08-24T11:51:02.000Z</time>
      </trkpt>
      <trkpt lat="48.70454" lon="1.76364">
        <ele>175.39999389648</ele>
        <time>2014-08-24T11:51:07.000Z</time>
      </trkpt>
      <trkpt lat="48.70453" lon="1.76336">
        <ele>174.19999694824</ele>
        <time>2014-08-24T11:51:12.000Z</time>
      </trkpt>
      <trkpt lat="48.70451" lon="1.76307">
        <ele>173.39999389648</ele>
        <time>2014-08-24T11:51:16.000Z</time>
      </trkpt>
      <trkpt lat="48.7045" lon="1.76292">
        <ele>173.60000610352</ele>
        <time>2014-08-24T11:51:18.000Z</time>
      </trkpt>
      <trkpt lat="48.7045" lon="1.76276">
        <ele>173.60000610352</ele>
        <time>2014-08-24T11:51:21.000Z</time>
      </trkpt>
      <trkpt lat="48.70456" lon="1.76255">
        <ele>173.19999694824</ele>
        <time>2014-08-24T11:51:25.000Z</time>
      </trkpt>
      <trkpt lat="48.70459" lon="1.76232">
        <ele>172.80000305176</ele>
        <time>2014-08-24T11:51:30.000Z</time>
      </trkpt>
      <trkpt lat="48.70458" lon="1.76213">
        <ele>173.39999389648</ele>
        <time>2014-08-24T11:51:34.000Z</time>
      </trkpt>
      <trkpt lat="48.70453" lon="1.76185">
        <ele>174.39999389648</ele>
        <time>2014-08-24T11:51:39.000Z</time>
      </trkpt>
      <trkpt lat="48.70452" lon="1.76162">
        <ele>175</ele>
        <time>2014-08-24T11:51:43.000Z</time>
      </trkpt>
      <trkpt lat="48.70451" lon="1.76142">
        <ele>175.39999389648</ele>
        <time>2014-08-24T11:51:48.000Z</time>
      </trkpt>
      <trkpt lat="48.7045" lon="1.76135">
        <ele>175.60000610352</ele>
        <time>2014-08-24T11:51:50.000Z</time>
      </trkpt>
      <trkpt lat="48.70452" lon="1.76123">
        <ele>175.60000610352</ele>
        <time>2014-08-24T11:51:55.000Z</time>
      </trkpt>
      <trkpt lat="48.70455" lon="1.76109">
        <ele>175.60000610352</ele>
        <time>2014-08-24T11:52:02.000Z</time>
      </trkpt>
      <trkpt lat="48.70455" lon="1.76101">
        <ele>175.80000305176</ele>
        <time>2014-08-24T11:52:12.000Z</time>
      </trkpt>
      <trkpt lat="48.70459" lon="1.76094">
        <ele>175.60000610352</ele>
        <time>2014-08-24T11:52:19.000Z</time>
      </trkpt>
      <trkpt lat="48.7046" lon="1.76089">
        <ele>175.60000610352</ele>
        <time>2014-08-24T11:52:21.000Z</time>
      </trkpt>
      <trkpt lat="48.70462" lon="1.76084">
        <ele>175.60000610352</ele>
        <time>2014-08-24T11:52:25.000Z</time>
      </trkpt>
      <trkpt lat="48.70463" lon="1.76079">
        <ele>175.60000610352</ele>
        <time>2014-08-24T11:52:28.000Z</time>
      </trkpt>
      <trkpt lat="48.70463" lon="1.76078">
        <ele>175.60000610352</ele>
        <time>2014-08-24T11:52:31.000Z</time>
      </trkpt>
      <trkpt lat="48.70466" lon="1.76067">
        <ele>175.80000305176</ele>
        <time>2014-08-24T11:52:39.000Z</time>
      </trkpt>
      <trkpt lat="48.70472" lon="1.76054">
        <ele>176.19999694824</ele>
        <time>2014-08-24T11:52:44.000Z</time>
      </trkpt>
      <trkpt lat="48.70473" lon="1.76039">
        <ele>176.80000305176</ele>
        <time>2014-08-24T11:52:50.000Z</time>
      </trkpt>
      <trkpt lat="48.70473" lon="1.76036">
        <ele>177</ele>
        <time>2014-08-24T11:52:51.000Z</time>
      </trkpt>
      <trkpt lat="48.70475" lon="1.76028">
        <ele>177.19999694824</ele>
        <time>2014-08-24T11:52:55.000Z</time>
      </trkpt>
      <trkpt lat="48.70479" lon="1.76015">
        <ele>177.80000305176</ele>
        <time>2014-08-24T11:53:02.000Z</time>
      </trkpt>
      <trkpt lat="48.70482" lon="1.76005">
        <ele>178.39999389648</ele>
        <time>2014-08-24T11:53:07.000Z</time>
      </trkpt>
      <trkpt lat="48.70486" lon="1.7599">
        <ele>179.19999694824</ele>
        <time>2014-08-24T11:53:12.000Z</time>
      </trkpt>
      <trkpt lat="48.70491" lon="1.75979">
        <ele>179.19999694824</ele>
        <time>2014-08-24T11:53:17.000Z</time>
      </trkpt>
      <trkpt lat="48.70492" lon="1.75976">
        <ele>179.19999694824</ele>
        <time>2014-08-24T11:53:19.000Z</time>
      </trkpt>
      <trkpt lat="48.70494" lon="1.75966">
        <ele>179.19999694824</ele>
        <time>2014-08-24T11:53:26.000Z</time>
      </trkpt>
      <trkpt lat="48.70496" lon="1.75964">
        <ele>179.19999694824</ele>
        <time>2014-08-24T11:53:28.000Z</time>
      </trkpt>
      <trkpt lat="48.70505" lon="1.75953">
        <ele>179.60000610352</ele>
        <time>2014-08-24T11:53:36.000Z</time>
      </trkpt>
      <trkpt lat="48.70506" lon="1.75952">
        <ele>179.80000305176</ele>
        <time>2014-08-24T11:53:37.000Z</time>
      </trkpt>
      <trkpt lat="48.70514" lon="1.7594">
        <ele>180.19999694824</ele>
        <time>2014-08-24T11:53:44.000Z</time>
      </trkpt>
      <trkpt lat="48.70522" lon="1.75928">
        <ele>180.80000305176</ele>
        <time>2014-08-24T11:53:51.000Z</time>
      </trkpt>
      <trkpt lat="48.70526" lon="1.75924">
        <ele>180.80000305176</ele>
        <time>2014-08-24T11:53:54.000Z</time>
      </trkpt>
      <trkpt lat="48.7053" lon="1.75918">
        <ele>180.80000305176</ele>
        <time>2014-08-24T11:53:58.000Z</time>
      </trkpt>
      <trkpt lat="48.70535" lon="1.75907">
        <ele>180.80000305176</ele>
        <time>2014-08-24T11:54:04.000Z</time>
      </trkpt>
      <trkpt lat="48.70543" lon="1.7589">
        <ele>180.80000305176</ele>
        <time>2014-08-24T11:54:13.000Z</time>
      </trkpt>
      <trkpt lat="48.70546" lon="1.75884">
        <ele>180.60000610352</ele>
        <time>2014-08-24T11:54:17.000Z</time>
      </trkpt>
      <trkpt lat="48.7055" lon="1.75874">
        <ele>180.60000610352</ele>
        <time>2014-08-24T11:54:22.000Z</time>
      </trkpt>
      <trkpt lat="48.70558" lon="1.75859">
        <ele>180.39999389648</ele>
        <time>2014-08-24T11:54:31.000Z</time>
      </trkpt>
      <trkpt lat="48.70563" lon="1.75848">
        <ele>179.80000305176</ele>
        <time>2014-08-24T11:54:37.000Z</time>
      </trkpt>
      <trkpt lat="48.70565" lon="1.75841">
        <ele>179.39999389648</ele>
        <time>2014-08-24T11:54:41.000Z</time>
      </trkpt>
      <trkpt lat="48.70571" lon="1.75827">
        <ele>178.60000610352</ele>
        <time>2014-08-24T11:54:50.000Z</time>
      </trkpt>
      <trkpt lat="48.70577" lon="1.75813">
        <ele>178</ele>
        <time>2014-08-24T11:54:58.000Z</time>
      </trkpt>
      <trkpt lat="48.70582" lon="1.75803">
        <ele>177.39999389648</ele>
        <time>2014-08-24T11:55:04.000Z</time>
      </trkpt>
      <trkpt lat="48.7059" lon="1.75788">
        <ele>177.60000610352</ele>
        <time>2014-08-24T11:55:13.000Z</time>
      </trkpt>
      <trkpt lat="48.70593" lon="1.75782">
        <ele>177.60000610352</ele>
        <time>2014-08-24T11:55:17.000Z</time>
      </trkpt>
      <trkpt lat="48.70602" lon="1.75767">
        <ele>177.60000610352</ele>
        <time>2014-08-24T11:55:26.000Z</time>
      </trkpt>
      <trkpt lat="48.70608" lon="1.75758">
        <ele>177.80000305176</ele>
        <time>2014-08-24T11:55:32.000Z</time>
      </trkpt>
      <trkpt lat="48.70614" lon="1.75746">
        <ele>178.19999694824</ele>
        <time>2014-08-24T11:55:39.000Z</time>
      </trkpt>
      <trkpt lat="48.70624" lon="1.7573">
        <ele>178.19999694824</ele>
        <time>2014-08-24T11:55:50.000Z</time>
      </trkpt>
      <trkpt lat="48.70626" lon="1.75727">
        <ele>178.39999389648</ele>
        <time>2014-08-24T11:55:52.000Z</time>
      </trkpt>
      <trkpt lat="48.70627" lon="1.75719">
        <ele>179</ele>
        <time>2014-08-24T11:55:59.000Z</time>
      </trkpt>
      <trkpt lat="48.70634" lon="1.75707">
        <ele>179.39999389648</ele>
        <time>2014-08-24T11:57:33.000Z</time>
      </trkpt>
      <trkpt lat="48.70638" lon="1.75698">
        <ele>179.80000305176</ele>
        <time>2014-08-24T11:57:39.000Z</time>
      </trkpt>
      <trkpt lat="48.70641" lon="1.75695">
        <ele>179.80000305176</ele>
        <time>2014-08-24T11:57:42.000Z</time>
      </trkpt>
      <trkpt lat="48.70639" lon="1.75681">
        <ele>180.39999389648</ele>
        <time>2014-08-24T11:57:50.000Z</time>
      </trkpt>
      <trkpt lat="48.70639" lon="1.75677">
        <ele>180.60000610352</ele>
        <time>2014-08-24T11:57:53.000Z</time>
      </trkpt>
      <trkpt lat="48.70638" lon="1.75667">
        <ele>180.60000610352</ele>
        <time>2014-08-24T11:57:59.000Z</time>
      </trkpt>
      <trkpt lat="48.70638" lon="1.75665">
        <ele>180.80000305176</ele>
        <time>2014-08-24T11:58:01.000Z</time>
      </trkpt>
      <trkpt lat="48.70636" lon="1.7565">
        <ele>181</ele>
        <time>2014-08-24T11:58:09.000Z</time>
      </trkpt>
      <trkpt lat="48.70637" lon="1.75638">
        <ele>180.60000610352</ele>
        <time>2014-08-24T11:58:16.000Z</time>
      </trkpt>
      <trkpt lat="48.7064" lon="1.75623">
        <ele>180</ele>
        <time>2014-08-24T11:58:23.000Z</time>
      </trkpt>
      <trkpt lat="48.70645" lon="1.75607">
        <ele>179</ele>
        <time>2014-08-24T11:58:32.000Z</time>
      </trkpt>
      <trkpt lat="48.70647" lon="1.75598">
        <ele>178.80000305176</ele>
        <time>2014-08-24T11:58:36.000Z</time>
      </trkpt>
      <trkpt lat="48.7065" lon="1.7559">
        <ele>178.60000610352</ele>
        <time>2014-08-24T11:58:41.000Z</time>
      </trkpt>
      <trkpt lat="48.70653" lon="1.75586">
        <ele>178.19999694824</ele>
        <time>2014-08-24T11:58:46.000Z</time>
      </trkpt>
      <trkpt lat="48.70658" lon="1.75579">
        <ele>177.80000305176</ele>
        <time>2014-08-24T11:58:51.000Z</time>
      </trkpt>
      <trkpt lat="48.70663" lon="1.75569">
        <ele>177</ele>
        <time>2014-08-24T11:58:58.000Z</time>
      </trkpt>
      <trkpt lat="48.7067" lon="1.75555">
        <ele>174.80000305176</ele>
        <time>2014-08-24T11:59:07.000Z</time>
      </trkpt>
      <trkpt lat="48.70675" lon="1.75548">
        <ele>174.60000610352</ele>
        <time>2014-08-24T11:59:13.000Z</time>
      </trkpt>
      <trkpt lat="48.70683" lon="1.75535">
        <ele>174.19999694824</ele>
        <time>2014-08-24T11:59:22.000Z</time>
      </trkpt>
      <trkpt lat="48.70688" lon="1.75523">
        <ele>173.80000305176</ele>
        <time>2014-08-24T11:59:30.000Z</time>
      </trkpt>
      <trkpt lat="48.70694" lon="1.75508">
        <ele>173.19999694824</ele>
        <time>2014-08-24T11:59:40.000Z</time>
      </trkpt>
      <trkpt lat="48.70698" lon="1.75489">
        <ele>172.80000305176</ele>
        <time>2014-08-24T11:59:51.000Z</time>
      </trkpt>
      <trkpt lat="48.707" lon="1.7548">
        <ele>172.60000610352</ele>
        <time>2014-08-24T11:59:57.000Z</time>
      </trkpt>
      <trkpt lat="48.70698" lon="1.75474">
        <ele>172.39999389648</ele>
        <time>2014-08-24T12:00:04.000Z</time>
      </trkpt>
      <trkpt lat="48.70697" lon="1.75474">
        <ele>172.39999389648</ele>
        <time>2014-08-24T12:00:08.000Z</time>
      </trkpt>
      <trkpt lat="48.70699" lon="1.75478">
        <ele>172.39999389648</ele>
        <time>2014-08-24T12:00:13.000Z</time>
      </trkpt>
      <trkpt lat="48.70699" lon="1.75479">
        <ele>172.60000610352</ele>
        <time>2014-08-24T12:00:16.000Z</time>
      </trkpt>
      <trkpt lat="48.707" lon="1.75461">
        <ele>172</ele>
        <time>2014-08-24T12:00:32.000Z</time>
      </trkpt>
      <trkpt lat="48.70703" lon="1.75455">
        <ele>171.80000305176</ele>
        <time>2014-08-24T12:00:35.000Z</time>
      </trkpt>
      <trkpt lat="48.70706" lon="1.75455">
        <ele>171.80000305176</ele>
        <time>2014-08-24T12:00:42.000Z</time>
      </trkpt>
      <trkpt lat="48.70706" lon="1.75455">
        <ele>171.80000305176</ele>
        <time>2014-08-24T12:00:44.000Z</time>
      </trkpt>
    </trkseg>
  </trk>
</gpx>